Time,TemperatureF,DewpointF,PressureIn,WindDirection,WindDirectionDegrees,WindSpeedMPH,WindSpeedGustMPH,Humidity,HourlyPrecipIn,Conditions,Clouds,dailyrainin,SoftwareType,DateUTC
2013-05-18 00:00:00,61.3,39.3,29.65,ENE,68,0.0,0.0,44,0.00,,,0.00,VWS V14.01,2013-05-18 04:00:00,
2013-05-18 00:01:00,61.3,39.3,29.65,ENE,68,0.0,0.0,44,0.00,,,0.00,VWS V14.01,2013-05-18 04:01:00,
2013-05-18 00:02:00,61.2,39.1,29.65,NE,45,0.0,0.0,44,0.00,,,0.00,VWS V14.01,2013-05-18 04:02:00,
2013-05-18 00:03:00,61.2,39.7,29.65,NE,45,0.0,0.0,45,0.00,,,0.00,VWS V14.01,2013-05-18 04:03:00,
2013-05-18 00:04:00,61.2,39.7,29.65,NE,45,0.9,0.9,45,0.00,,,0.00,VWS V14.01,2013-05-18 04:04:00,
2013-05-18 00:05:00,61.2,39.7,29.65,NE,45,0.0,0.0,45,0.00,,,0.00,VWS V14.01,2013-05-18 04:05:00,
2013-05-18 00:06:00,61.2,39.7,29.65,NNE,22,0.0,0.0,45,0.00,,,0.00,VWS V14.01,2013-05-18 04:06:00,
2013-05-18 00:07:00,61.2,39.7,29.65,NE,45,0.0,0.0,45,0.00,,,0.00,VWS V14.01,2013-05-18 04:07:00,
2013-05-18 00:08:00,61.2,40.2,29.65,NE,45,0.0,0.0,46,0.00,,,0.00,VWS V14.01,2013-05-18 04:08:00,
2013-05-18 00:09:00,61.0,40.1,29.65,NE,45,0.0,0.0,46,0.00,,,0.00,VWS V14.01,2013-05-18 04:09:00,
2013-05-18 00:10:00,61.0,40.1,29.65,NE,45,0.0,0.0,46,0.00,,,0.00,VWS V14.01,2013-05-18 04:10:00,
2013-05-18 00:11:00,61.0,40.1,29.65,NE,45,0.0,0.0,46,0.00,,,0.00,VWS V14.01,2013-05-18 04:11:00,
2013-05-18 00:12:00,61.0,40.1,29.65,NE,45,0.0,0.0,46,0.00,,,0.00,VWS V14.01,2013-05-18 04:12:00,
2013-05-18 00:13:00,60.8,39.9,29.65,ENE,68,1.3,1.3,46,0.00,,,0.00,VWS V14.01,2013-05-18 04:13:00,
2013-05-18 00:14:00,60.8,39.9,29.65,NE,45,2.0,2.0,46,0.00,,,0.00,VWS V14.01,2013-05-18 04:14:00,
2013-05-18 00:15:00,60.8,39.9,29.68,ENE,68,3.1,3.1,46,0.00,,,0.00,VWS V14.01,2013-05-18 04:15:00,
2013-05-18 00:16:00,60.8,39.3,29.68,ENE,68,2.0,2.0,45,0.00,,,0.00,VWS V14.01,2013-05-18 04:16:00,
2013-05-18 00:17:00,60.8,39.3,29.68,ENE,68,2.2,2.2,45,0.00,,,0.00,VWS V14.01,2013-05-18 04:17:00,
2013-05-18 00:18:00,60.8,39.9,29.68,East,90,0.9,0.9,46,0.00,,,0.00,VWS V14.01,2013-05-18 04:18:00,
2013-05-18 00:19:00,60.6,39.8,29.68,East,90,1.6,1.6,46,0.00,,,0.00,VWS V14.01,2013-05-18 04:19:00,
2013-05-18 00:20:00,60.6,39.8,29.68,East,90,0.9,0.9,46,0.00,,,0.00,VWS V14.01,2013-05-18 04:20:00,
2013-05-18 00:21:00,60.6,39.8,29.68,East,90,1.3,1.3,46,0.00,,,0.00,VWS V14.01,2013-05-18 04:21:00,
2013-05-18 00:22:00,60.6,39.8,29.68,East,90,1.3,1.3,46,0.00,,,0.00,VWS V14.01,2013-05-18 04:22:00,
2013-05-18 00:23:00,60.6,39.8,29.68,ENE,68,4.0,4.0,46,0.00,,,0.00,VWS V14.01,2013-05-18 04:23:00,
2013-05-18 00:24:00,60.6,39.8,29.68,NE,45,2.0,2.0,46,0.00,,,0.00,VWS V14.01,2013-05-18 04:24:00,
2013-05-18 00:25:00,60.6,39.8,29.68,NE,45,3.6,3.6,46,0.00,,,0.00,VWS V14.01,2013-05-18 04:25:00,
2013-05-18 00:26:00,60.6,39.8,29.68,NE,45,3.6,3.6,46,0.00,,,0.00,VWS V14.01,2013-05-18 04:26:00,
2013-05-18 00:27:00,60.6,39.8,29.68,NE,45,3.4,3.4,46,0.00,,,0.00,VWS V14.01,2013-05-18 04:27:00,
2013-05-18 00:28:00,60.6,39.8,29.68,ENE,68,3.4,3.4,46,0.00,,,0.00,VWS V14.01,2013-05-18 04:28:00,
2013-05-18 00:29:00,60.6,39.8,29.68,NE,45,1.3,1.3,46,0.00,,,0.00,VWS V14.01,2013-05-18 04:29:00,
2013-05-18 00:30:00,60.6,39.8,29.68,ENE,68,1.6,1.6,46,0.00,,,0.00,VWS V14.01,2013-05-18 04:30:00,
2013-05-18 00:31:00,60.6,39.8,29.68,ENE,68,2.7,2.7,46,0.00,,,0.00,VWS V14.01,2013-05-18 04:31:00,
2013-05-18 00:32:00,60.6,39.8,29.68,ENE,68,3.8,3.8,46,0.00,,,0.00,VWS V14.01,2013-05-18 04:32:00,
2013-05-18 00:33:00,60.4,39.6,29.68,NE,45,2.0,2.0,46,0.00,,,0.00,VWS V14.01,2013-05-18 04:33:00,
2013-05-18 00:34:00,60.4,39.6,29.68,ENE,68,2.0,2.0,46,0.00,,,0.00,VWS V14.01,2013-05-18 04:34:00,
2013-05-18 00:35:00,60.4,39.6,29.68,ENE,68,2.0,2.0,46,0.00,,,0.00,VWS V14.01,2013-05-18 04:35:00,
2013-05-18 00:36:00,60.4,39.6,29.68,ESE,112,1.3,1.3,46,0.00,,,0.00,VWS V14.01,2013-05-18 04:36:00,
2013-05-18 00:37:00,60.4,39.6,29.68,SE,135,1.3,1.3,46,0.00,,,0.00,VWS V14.01,2013-05-18 04:37:00,
2013-05-18 00:38:00,60.4,39.6,29.68,SSE,158,0.0,0.0,46,0.00,,,0.00,VWS V14.01,2013-05-18 04:38:00,
2013-05-18 00:39:00,60.4,39.6,29.68,SSE,158,0.9,0.9,46,0.00,,,0.00,VWS V14.01,2013-05-18 04:39:00,
2013-05-18 00:40:00,60.4,39.6,29.68,ESE,112,0.0,0.0,46,0.00,,,0.00,VWS V14.01,2013-05-18 04:40:00,
2013-05-18 00:41:00,60.4,40.1,29.68,SE,135,0.0,0.0,47,0.00,,,0.00,VWS V14.01,2013-05-18 04:41:00,
2013-05-18 00:42:00,60.4,40.1,29.68,ENE,68,0.0,0.0,47,0.00,,,0.00,VWS V14.01,2013-05-18 04:42:00,
2013-05-18 00:43:00,60.4,40.1,29.68,East,90,3.1,3.1,47,0.00,,,0.00,VWS V14.01,2013-05-18 04:43:00,
2013-05-18 00:44:00,60.4,40.1,29.68,ENE,68,1.1,1.1,47,0.00,,,0.00,VWS V14.01,2013-05-18 04:44:00,
2013-05-18 00:45:00,60.4,40.1,29.68,ENE,68,0.0,0.0,47,0.00,,,0.00,VWS V14.01,2013-05-18 04:45:00,
2013-05-18 00:46:00,60.4,40.1,29.68,ENE,68,0.0,0.0,47,0.00,,,0.00,VWS V14.01,2013-05-18 04:46:00,
2013-05-18 00:47:00,60.4,40.1,29.68,ENE,68,0.0,0.0,47,0.00,,,0.00,VWS V14.01,2013-05-18 04:47:00,
2013-05-18 00:48:00,60.4,40.1,29.68,ESE,112,1.6,1.6,47,0.00,,,0.00,VWS V14.01,2013-05-18 04:48:00,
2013-05-18 00:49:00,60.4,40.1,29.68,ENE,68,1.1,1.1,47,0.00,,,0.00,VWS V14.01,2013-05-18 04:49:00,
2013-05-18 00:50:00,60.4,40.1,29.68,ENE,68,2.5,2.5,47,0.00,,,0.00,VWS V14.01,2013-05-18 04:50:00,
2013-05-18 00:51:00,60.4,40.1,29.68,ENE,68,2.2,2.2,47,0.00,,,0.00,VWS V14.01,2013-05-18 04:51:00,
2013-05-18 00:52:00,60.4,40.1,29.68,ENE,68,2.0,2.0,47,0.00,,,0.00,VWS V14.01,2013-05-18 04:52:00,
2013-05-18 00:53:00,60.4,40.1,29.68,ENE,68,2.5,2.5,47,0.00,,,0.00,VWS V14.01,2013-05-18 04:53:00,
2013-05-18 00:54:00,60.3,40.5,29.68,ENE,68,1.3,1.3,48,0.00,,,0.00,VWS V14.01,2013-05-18 04:54:00,
2013-05-18 00:55:00,60.3,40.5,29.68,ENE,68,0.0,0.0,48,0.00,,,0.00,VWS V14.01,2013-05-18 04:55:00,
2013-05-18 00:56:00,60.3,40.5,29.68,East,90,0.0,0.0,48,0.00,,,0.00,VWS V14.01,2013-05-18 04:56:00,
2013-05-18 00:57:00,60.3,40.0,29.68,East,90,0.0,0.0,47,0.00,,,0.00,VWS V14.01,2013-05-18 04:57:00,
2013-05-18 00:58:00,60.3,40.0,29.68,East,90,2.9,2.9,47,0.00,,,0.00,VWS V14.01,2013-05-18 04:58:00,
2013-05-18 00:59:00,60.3,40.0,29.68,ENE,68,2.5,2.5,47,0.00,,,0.00,VWS V14.01,2013-05-18 04:59:00,
2013-05-18 01:00:00,60.1,39.8,29.68,East,90,0.0,0.0,47,0.00,,,0.00,VWS V14.01,2013-05-18 05:00:00,
2013-05-18 01:01:00,60.1,40.3,29.68,East,90,0.0,0.0,48,0.00,,,0.00,VWS V14.01,2013-05-18 05:01:00,
2013-05-18 01:02:00,60.1,40.3,29.68,East,90,0.0,0.0,48,0.00,,,0.00,VWS V14.01,2013-05-18 05:02:00,
2013-05-18 01:03:00,60.1,40.3,29.68,East,90,0.0,0.0,48,0.00,,,0.00,VWS V14.01,2013-05-18 05:03:00,
2013-05-18 01:04:00,60.1,40.3,29.68,East,90,0.0,0.0,48,0.00,,,0.00,VWS V14.01,2013-05-18 05:04:00,
2013-05-18 01:05:00,60.1,40.3,29.68,East,90,0.0,0.0,48,0.00,,,0.00,VWS V14.01,2013-05-18 05:05:00,
2013-05-18 01:06:00,60.1,40.3,29.68,East,90,0.0,0.0,48,0.00,,,0.00,VWS V14.01,2013-05-18 05:06:00,
2013-05-18 01:07:00,60.1,40.3,29.68,East,90,0.9,0.9,48,0.00,,,0.00,VWS V14.01,2013-05-18 05:07:00,
2013-05-18 01:08:00,60.1,40.3,29.68,East,90,0.0,0.0,48,0.00,,,0.00,VWS V14.01,2013-05-18 05:08:00,
2013-05-18 01:09:00,60.1,40.9,29.68,East,90,1.1,1.1,49,0.00,,,0.00,VWS V14.01,2013-05-18 05:09:00,
2013-05-18 01:10:00,60.1,40.9,29.68,SE,135,1.6,1.6,49,0.00,,,0.00,VWS V14.01,2013-05-18 05:10:00,
2013-05-18 01:11:00,60.1,40.9,29.68,SE,135,0.9,0.9,49,0.00,,,0.00,VWS V14.01,2013-05-18 05:11:00,
2013-05-18 01:12:00,60.1,40.9,29.68,East,90,0.9,0.9,49,0.00,,,0.00,VWS V14.01,2013-05-18 05:12:00,
2013-05-18 01:13:00,60.1,40.3,29.68,East,90,0.0,0.0,48,0.00,,,0.00,VWS V14.01,2013-05-18 05:13:00,
2013-05-18 01:14:00,60.1,40.3,29.68,ESE,112,0.0,0.0,48,0.00,,,0.00,VWS V14.01,2013-05-18 05:14:00,
2013-05-18 01:15:00,60.1,40.3,29.68,ESE,112,0.0,0.0,48,0.00,,,0.00,VWS V14.01,2013-05-18 05:15:00,
2013-05-18 01:16:00,60.1,40.9,29.68,East,90,0.0,0.0,49,0.00,,,0.00,VWS V14.01,2013-05-18 05:16:00,
2013-05-18 01:17:00,60.1,40.9,29.68,SE,135,0.0,0.0,49,0.00,,,0.00,VWS V14.01,2013-05-18 05:17:00,
2013-05-18 01:18:00,60.1,40.9,29.68,East,90,0.0,0.0,49,0.00,,,0.00,VWS V14.01,2013-05-18 05:18:00,
2013-05-18 01:19:00,60.1,40.9,29.68,East,90,0.0,0.0,49,0.00,,,0.00,VWS V14.01,2013-05-18 05:19:00,
2013-05-18 01:20:00,60.1,40.9,29.68,East,90,0.0,0.0,49,0.00,,,0.00,VWS V14.01,2013-05-18 05:20:00,
2013-05-18 01:21:00,60.1,40.9,29.68,East,90,0.0,0.0,49,0.00,,,0.00,VWS V14.01,2013-05-18 05:21:00,
2013-05-18 01:22:00,59.9,40.7,29.68,East,90,0.0,0.0,49,0.00,,,0.00,VWS V14.01,2013-05-18 05:22:00,
2013-05-18 01:23:00,59.9,40.7,29.68,ENE,68,0.0,0.0,49,0.00,,,0.00,VWS V14.01,2013-05-18 05:23:00,
2013-05-18 01:24:00,59.9,40.7,29.68,NNE,22,2.5,2.5,49,0.00,,,0.00,VWS V14.01,2013-05-18 05:24:00,
2013-05-18 01:25:00,59.9,40.7,29.68,NE,45,1.6,1.6,49,0.00,,,0.00,VWS V14.01,2013-05-18 05:25:00,
2013-05-18 01:26:00,59.9,40.7,29.68,NE,45,0.9,0.9,49,0.00,,,0.00,VWS V14.01,2013-05-18 05:26:00,
2013-05-18 01:27:00,59.9,41.2,29.68,NE,45,0.0,0.0,50,0.00,,,0.00,VWS V14.01,2013-05-18 05:27:00,
2013-05-18 01:28:00,59.9,41.2,29.68,NE,45,2.7,2.7,50,0.00,,,0.00,VWS V14.01,2013-05-18 05:28:00,
2013-05-18 01:29:00,59.9,41.2,29.68,NE,45,2.2,2.2,50,0.00,,,0.00,VWS V14.01,2013-05-18 05:29:00,
2013-05-18 01:30:00,59.9,41.2,29.65,ENE,68,2.0,2.0,50,0.00,,,0.00,VWS V14.01,2013-05-18 05:30:00,
2013-05-18 01:31:00,59.7,41.1,29.65,East,90,2.7,2.7,50,0.00,,,0.00,VWS V14.01,2013-05-18 05:31:00,
2013-05-18 01:32:00,59.7,41.6,29.65,ENE,68,2.0,2.0,51,0.00,,,0.00,VWS V14.01,2013-05-18 05:32:00,
2013-05-18 01:33:00,59.7,41.1,29.65,ENE,68,0.0,0.0,50,0.00,,,0.00,VWS V14.01,2013-05-18 05:33:00,
2013-05-18 01:34:00,59.7,41.6,29.65,NE,45,1.6,1.6,51,0.00,,,0.00,VWS V14.01,2013-05-18 05:34:00,
2013-05-18 01:35:00,59.7,41.1,29.65,ENE,68,0.0,0.0,50,0.00,,,0.00,VWS V14.01,2013-05-18 05:35:00,
2013-05-18 01:36:00,59.7,41.6,29.65,ENE,68,0.0,0.0,51,0.00,,,0.00,VWS V14.01,2013-05-18 05:36:00,
2013-05-18 01:37:00,59.7,41.1,29.65,NE,45,0.0,0.0,50,0.00,,,0.00,VWS V14.01,2013-05-18 05:37:00,
2013-05-18 01:38:00,59.7,41.1,29.65,ENE,68,0.0,0.0,50,0.00,,,0.00,VWS V14.01,2013-05-18 05:38:00,
2013-05-18 01:39:00,59.7,41.1,29.65,NE,45,2.2,2.2,50,0.00,,,0.00,VWS V14.01,2013-05-18 05:39:00,
2013-05-18 01:40:00,59.7,41.1,29.65,NNE,22,3.1,3.1,50,0.00,,,0.00,VWS V14.01,2013-05-18 05:40:00,
2013-05-18 01:41:00,59.7,40.5,29.65,NE,45,1.1,1.1,49,0.00,,,0.00,VWS V14.01,2013-05-18 05:41:00,
2013-05-18 01:42:00,59.7,40.5,29.65,NE,45,3.4,3.4,49,0.00,,,0.00,VWS V14.01,2013-05-18 05:42:00,
2013-05-18 01:43:00,59.7,40.5,29.65,ENE,68,3.4,3.4,49,0.00,,,0.00,VWS V14.01,2013-05-18 05:43:00,
2013-05-18 01:44:00,59.7,40.5,29.65,ENE,68,3.1,3.1,49,0.00,,,0.00,VWS V14.01,2013-05-18 05:44:00,
2013-05-18 01:45:00,59.7,40.5,29.65,ENE,68,2.7,2.7,49,0.00,,,0.00,VWS V14.01,2013-05-18 05:45:00,
2013-05-18 01:46:00,59.7,40.5,29.65,ENE,68,2.5,2.5,49,0.00,,,0.00,VWS V14.01,2013-05-18 05:46:00,
2013-05-18 01:47:00,59.7,40.5,29.65,ENE,68,2.5,2.5,49,0.00,,,0.00,VWS V14.01,2013-05-18 05:47:00,
2013-05-18 01:48:00,59.7,40.5,29.65,ENE,68,2.5,2.5,49,0.00,,,0.00,VWS V14.01,2013-05-18 05:48:00,
2013-05-18 01:49:00,59.7,40.5,29.65,ENE,68,2.2,2.2,49,0.00,,,0.00,VWS V14.01,2013-05-18 05:49:00,
2013-05-18 01:50:00,59.7,40.5,29.65,ENE,68,2.7,2.7,49,0.00,,,0.00,VWS V14.01,2013-05-18 05:50:00,
2013-05-18 01:51:00,59.7,40.5,29.65,ENE,68,2.9,2.9,49,0.00,,,0.00,VWS V14.01,2013-05-18 05:51:00,
2013-05-18 01:52:00,59.7,40.5,29.65,NE,45,3.1,3.1,49,0.00,,,0.00,VWS V14.01,2013-05-18 05:52:00,
2013-05-18 01:53:00,59.7,40.5,29.65,ENE,68,1.3,1.3,49,0.00,,,0.00,VWS V14.01,2013-05-18 05:53:00,
2013-05-18 01:54:00,59.7,40.5,29.65,ENE,68,1.1,1.1,49,0.00,,,0.00,VWS V14.01,2013-05-18 05:54:00,
2013-05-18 01:55:00,59.7,41.1,29.65,NE,45,1.3,1.3,50,0.00,,,0.00,VWS V14.01,2013-05-18 05:55:00,
2013-05-18 01:56:00,59.7,41.1,29.65,East,90,1.1,1.1,50,0.00,,,0.00,VWS V14.01,2013-05-18 05:56:00,
2013-05-18 01:57:00,59.7,41.1,29.65,East,90,1.3,1.3,50,0.00,,,0.00,VWS V14.01,2013-05-18 05:57:00,
2013-05-18 01:58:00,59.7,41.1,29.65,East,90,0.0,0.0,50,0.00,,,0.00,VWS V14.01,2013-05-18 05:58:00,
2013-05-18 01:59:00,59.7,41.1,29.65,East,90,1.1,1.1,50,0.00,,,0.00,VWS V14.01,2013-05-18 05:59:00,
2013-05-18 02:00:00,59.7,41.1,29.71,ENE,68,0.0,0.0,50,0.00,,,0.00,VWS V14.01,2013-05-18 06:00:00,
2013-05-18 02:01:00,59.5,40.9,29.71,ENE,68,1.3,1.3,50,0.00,,,0.00,VWS V14.01,2013-05-18 06:01:00,
2013-05-18 02:02:00,59.5,40.4,29.71,ENE,68,1.6,1.6,49,0.00,,,0.00,VWS V14.01,2013-05-18 06:02:00,
2013-05-18 02:03:00,59.5,40.4,29.71,East,90,0.0,0.0,49,0.00,,,0.00,VWS V14.01,2013-05-18 06:03:00,
2013-05-18 02:04:00,59.5,40.9,29.71,ENE,68,0.0,0.0,50,0.00,,,0.00,VWS V14.01,2013-05-18 06:04:00,
2013-05-18 02:05:00,59.5,40.9,29.71,ENE,68,0.0,0.0,50,0.00,,,0.00,VWS V14.01,2013-05-18 06:05:00,
2013-05-18 02:06:00,59.5,40.9,29.71,ENE,68,0.0,0.0,50,0.00,,,0.00,VWS V14.01,2013-05-18 06:06:00,
2013-05-18 02:07:00,59.5,40.9,29.71,ENE,68,0.0,0.0,50,0.00,,,0.00,VWS V14.01,2013-05-18 06:07:00,
2013-05-18 02:08:00,59.5,41.4,29.71,ENE,68,0.0,0.0,51,0.00,,,0.00,VWS V14.01,2013-05-18 06:08:00,
2013-05-18 02:09:00,59.5,40.9,29.71,NE,45,0.0,0.0,50,0.00,,,0.00,VWS V14.01,2013-05-18 06:09:00,
2013-05-18 02:10:00,59.5,41.4,29.71,NE,45,0.0,0.0,51,0.00,,,0.00,VWS V14.01,2013-05-18 06:10:00,
2013-05-18 02:11:00,59.5,41.4,29.71,ENE,68,0.0,0.0,51,0.00,,,0.00,VWS V14.01,2013-05-18 06:11:00,
2013-05-18 02:12:00,59.5,41.4,29.71,NE,45,0.0,0.0,51,0.00,,,0.00,VWS V14.01,2013-05-18 06:12:00,
2013-05-18 02:13:00,59.5,41.4,29.71,ENE,68,0.0,0.0,51,0.00,,,0.00,VWS V14.01,2013-05-18 06:13:00,
2013-05-18 02:14:00,59.5,41.4,29.71,ENE,68,0.9,0.9,51,0.00,,,0.00,VWS V14.01,2013-05-18 06:14:00,
2013-05-18 02:15:00,59.5,41.9,29.68,ENE,68,0.9,0.9,52,0.00,,,0.00,VWS V14.01,2013-05-18 06:15:00,
2013-05-18 02:16:00,59.4,41.8,29.68,ENE,68,0.0,0.0,52,0.00,,,0.00,VWS V14.01,2013-05-18 06:16:00,
2013-05-18 02:17:00,59.4,41.8,29.68,ENE,68,0.9,0.9,52,0.00,,,0.00,VWS V14.01,2013-05-18 06:17:00,
2013-05-18 02:18:00,59.4,41.8,29.68,ENE,68,1.6,1.6,52,0.00,,,0.00,VWS V14.01,2013-05-18 06:18:00,
2013-05-18 02:19:00,59.4,41.2,29.68,ENE,68,1.1,1.1,51,0.00,,,0.00,VWS V14.01,2013-05-18 06:19:00,
2013-05-18 02:20:00,59.4,41.2,29.68,ENE,68,0.0,0.0,51,0.00,,,0.00,VWS V14.01,2013-05-18 06:20:00,
2013-05-18 02:21:00,59.4,41.8,29.68,ENE,68,0.0,0.0,52,0.00,,,0.00,VWS V14.01,2013-05-18 06:21:00,
2013-05-18 02:22:00,59.4,41.8,29.68,ENE,68,0.9,0.9,52,0.00,,,0.00,VWS V14.01,2013-05-18 06:22:00,
2013-05-18 02:23:00,59.4,41.2,29.68,ENE,68,1.6,1.6,51,0.00,,,0.00,VWS V14.01,2013-05-18 06:23:00,
2013-05-18 02:24:00,59.4,41.2,29.68,ENE,68,2.0,2.0,51,0.00,,,0.00,VWS V14.01,2013-05-18 06:24:00,
2013-05-18 02:25:00,59.4,41.2,29.68,East,90,1.3,1.3,51,0.00,,,0.00,VWS V14.01,2013-05-18 06:25:00,
2013-05-18 02:26:00,59.4,41.2,29.68,East,90,0.0,0.0,51,0.00,,,0.00,VWS V14.01,2013-05-18 06:26:00,
2013-05-18 02:27:00,59.4,41.2,29.68,East,90,1.6,1.6,51,0.00,,,0.00,VWS V14.01,2013-05-18 06:27:00,
2013-05-18 02:28:00,59.4,41.2,29.68,ENE,68,1.3,1.3,51,0.00,,,0.00,VWS V14.01,2013-05-18 06:28:00,
2013-05-18 02:29:00,59.4,41.2,29.68,ENE,68,0.0,0.0,51,0.00,,,0.00,VWS V14.01,2013-05-18 06:29:00,
2013-05-18 02:30:00,59.4,41.2,29.68,ESE,112,1.1,1.1,51,0.00,,,0.00,VWS V14.01,2013-05-18 06:30:00,
2013-05-18 02:31:00,59.4,41.2,29.68,East,90,2.5,2.5,51,0.00,,,0.00,VWS V14.01,2013-05-18 06:31:00,
2013-05-18 02:32:00,59.4,41.8,29.68,East,90,0.0,0.0,52,0.00,,,0.00,VWS V14.01,2013-05-18 06:32:00,
2013-05-18 02:33:00,59.4,41.2,29.68,East,90,0.9,0.9,51,0.00,,,0.00,VWS V14.01,2013-05-18 06:33:00,
2013-05-18 02:34:00,59.4,41.2,29.68,ESE,112,1.1,1.1,51,0.00,,,0.00,VWS V14.01,2013-05-18 06:34:00,
2013-05-18 02:35:00,59.2,41.1,29.68,ESE,112,1.3,1.3,51,0.00,,,0.00,VWS V14.01,2013-05-18 06:35:00,
2013-05-18 02:36:00,59.2,41.1,29.68,East,90,0.0,0.0,51,0.00,,,0.00,VWS V14.01,2013-05-18 06:36:00,
2013-05-18 02:37:00,59.2,41.1,29.68,East,90,2.5,2.5,51,0.00,,,0.00,VWS V14.01,2013-05-18 06:37:00,
2013-05-18 02:38:00,59.2,41.1,29.68,East,90,0.0,0.0,51,0.00,,,0.00,VWS V14.01,2013-05-18 06:38:00,
2013-05-18 02:39:00,59.2,41.1,29.68,East,90,1.6,1.6,51,0.00,,,0.00,VWS V14.01,2013-05-18 06:39:00,
2013-05-18 02:40:00,59.2,41.1,29.68,ENE,68,0.0,0.0,51,0.00,,,0.00,VWS V14.01,2013-05-18 06:40:00,
2013-05-18 02:41:00,59.2,41.1,29.68,ENE,68,0.0,0.0,51,0.00,,,0.00,VWS V14.01,2013-05-18 06:41:00,
2013-05-18 02:42:00,59.2,41.1,29.68,ENE,68,0.0,0.0,51,0.00,,,0.00,VWS V14.01,2013-05-18 06:42:00,
2013-05-18 02:43:00,59.2,41.1,29.68,ENE,68,0.0,0.0,51,0.00,,,0.00,VWS V14.01,2013-05-18 06:43:00,
2013-05-18 02:44:00,59.2,41.1,29.68,ENE,68,0.0,0.0,51,0.00,,,0.00,VWS V14.01,2013-05-18 06:44:00,
2013-05-18 02:45:00,59.2,41.1,29.68,ENE,68,0.0,0.0,51,0.00,,,0.00,VWS V14.01,2013-05-18 06:45:00,
2013-05-18 02:46:00,59.2,41.1,29.68,ENE,68,0.0,0.0,51,0.00,,,0.00,VWS V14.01,2013-05-18 06:46:00,
2013-05-18 02:47:00,59.2,41.6,29.68,ENE,68,1.1,1.1,52,0.00,,,0.00,VWS V14.01,2013-05-18 06:47:00,
2013-05-18 02:48:00,59.2,41.6,29.68,ENE,68,2.0,2.0,52,0.00,,,0.00,VWS V14.01,2013-05-18 06:48:00,
2013-05-18 02:49:00,59.2,41.6,29.68,NE,45,0.0,0.0,52,0.00,,,0.00,VWS V14.01,2013-05-18 06:49:00,
2013-05-18 02:50:00,59.2,41.6,29.68,NE,45,1.1,1.1,52,0.00,,,0.00,VWS V14.01,2013-05-18 06:50:00,
2013-05-18 02:51:00,59.2,41.1,29.68,NE,45,2.5,2.5,51,0.00,,,0.00,VWS V14.01,2013-05-18 06:51:00,
2013-05-18 02:52:00,59.2,41.1,29.68,NE,45,2.5,2.5,51,0.00,,,0.00,VWS V14.01,2013-05-18 06:52:00,
2013-05-18 02:53:00,59.2,41.6,29.68,NE,45,2.9,2.9,52,0.00,,,0.00,VWS V14.01,2013-05-18 06:53:00,
2013-05-18 02:54:00,59.2,41.6,29.68,NE,45,2.5,2.5,52,0.00,,,0.00,VWS V14.01,2013-05-18 06:54:00,
2013-05-18 02:55:00,59.2,41.6,29.68,NE,45,1.1,1.1,52,0.00,,,0.00,VWS V14.01,2013-05-18 06:55:00,
2013-05-18 02:56:00,59.2,41.6,29.68,NE,45,2.2,2.2,52,0.00,,,0.00,VWS V14.01,2013-05-18 06:56:00,
2013-05-18 02:57:00,59.2,41.6,29.68,NE,45,2.9,2.9,52,0.00,,,0.00,VWS V14.01,2013-05-18 06:57:00,
2013-05-18 02:58:00,59.2,41.6,29.68,NE,45,2.9,2.9,52,0.00,,,0.00,VWS V14.01,2013-05-18 06:58:00,
2013-05-18 02:59:00,59.0,41.4,29.68,NE,45,1.1,1.1,52,0.00,,,0.00,VWS V14.01,2013-05-18 06:59:00,
2013-05-18 03:00:00,59.0,41.4,29.68,NE,45,1.6,1.6,52,0.00,,,0.00,VWS V14.01,2013-05-18 07:00:00,
2013-05-18 03:01:00,59.0,41.4,29.68,NE,45,0.9,0.9,52,0.00,,,0.00,VWS V14.01,2013-05-18 07:01:00,
2013-05-18 03:02:00,59.0,41.4,29.68,NE,45,1.6,1.6,52,0.00,,,0.00,VWS V14.01,2013-05-18 07:02:00,
2013-05-18 03:03:00,59.0,41.4,29.68,NE,45,2.5,2.5,52,0.00,,,0.00,VWS V14.01,2013-05-18 07:03:00,
2013-05-18 03:04:00,59.0,41.9,29.68,NE,45,2.7,2.7,53,0.00,,,0.00,VWS V14.01,2013-05-18 07:04:00,
2013-05-18 03:05:00,58.8,41.7,29.68,NE,45,2.5,2.5,53,0.00,,,0.00,VWS V14.01,2013-05-18 07:05:00,
2013-05-18 03:06:00,58.8,41.7,29.68,NE,45,2.5,2.5,53,0.00,,,0.00,VWS V14.01,2013-05-18 07:06:00,
2013-05-18 03:07:00,58.8,41.7,29.68,NNE,22,2.0,2.0,53,0.00,,,0.00,VWS V14.01,2013-05-18 07:07:00,
2013-05-18 03:08:00,58.8,41.7,29.68,NNE,22,2.5,2.5,53,0.00,,,0.00,VWS V14.01,2013-05-18 07:08:00,
2013-05-18 03:09:00,58.8,41.7,29.68,NNE,22,2.5,2.5,53,0.00,,,0.00,VWS V14.01,2013-05-18 07:09:00,
2013-05-18 03:10:00,58.8,41.7,29.68,NNE,22,2.0,2.0,53,0.00,,,0.00,VWS V14.01,2013-05-18 07:10:00,
2013-05-18 03:11:00,58.8,41.7,29.68,NE,45,1.6,1.6,53,0.00,,,0.00,VWS V14.01,2013-05-18 07:11:00,
2013-05-18 03:12:00,58.8,41.7,29.68,NE,45,0.0,0.0,53,0.00,,,0.00,VWS V14.01,2013-05-18 07:12:00,
2013-05-18 03:13:00,58.8,41.7,29.68,NE,45,0.0,0.0,53,0.00,,,0.00,VWS V14.01,2013-05-18 07:13:00,
2013-05-18 03:14:00,58.8,41.7,29.68,NE,45,0.0,0.0,53,0.00,,,0.00,VWS V14.01,2013-05-18 07:14:00,
2013-05-18 03:15:00,58.8,41.7,29.68,NE,45,0.0,0.0,53,0.00,,,0.00,VWS V14.01,2013-05-18 07:15:00,
2013-05-18 03:16:00,58.8,41.7,29.68,NE,45,0.0,0.0,53,0.00,,,0.00,VWS V14.01,2013-05-18 07:16:00,
2013-05-18 03:17:00,58.8,41.7,29.68,NE,45,0.0,0.0,53,0.00,,,0.00,VWS V14.01,2013-05-18 07:17:00,
2013-05-18 03:18:00,58.8,41.7,29.68,NE,45,0.0,0.0,53,0.00,,,0.00,VWS V14.01,2013-05-18 07:18:00,
2013-05-18 03:19:00,58.8,41.7,29.68,NE,45,0.0,0.0,53,0.00,,,0.00,VWS V14.01,2013-05-18 07:19:00,
2013-05-18 03:20:00,58.8,41.7,29.68,NE,45,0.0,0.0,53,0.00,,,0.00,VWS V14.01,2013-05-18 07:20:00,
2013-05-18 03:21:00,58.8,41.7,29.68,NE,45,0.0,0.0,53,0.00,,,0.00,VWS V14.01,2013-05-18 07:21:00,
2013-05-18 03:22:00,58.8,41.7,29.68,NE,45,0.0,0.0,53,0.00,,,0.00,VWS V14.01,2013-05-18 07:22:00,
2013-05-18 03:23:00,58.8,41.7,29.68,NE,45,0.0,0.0,53,0.00,,,0.00,VWS V14.01,2013-05-18 07:23:00,
2013-05-18 03:24:00,58.8,41.7,29.68,NE,45,0.0,0.0,53,0.00,,,0.00,VWS V14.01,2013-05-18 07:24:00,
2013-05-18 03:25:00,58.8,41.7,29.68,NE,45,0.0,0.0,53,0.00,,,0.00,VWS V14.01,2013-05-18 07:25:00,
2013-05-18 03:26:00,58.8,41.7,29.68,NE,45,0.0,0.0,53,0.00,,,0.00,VWS V14.01,2013-05-18 07:26:00,
2013-05-18 03:27:00,58.8,41.7,29.68,NE,45,0.0,0.0,53,0.00,,,0.00,VWS V14.01,2013-05-18 07:27:00,
2013-05-18 03:28:00,58.8,41.7,29.68,NE,45,0.0,0.0,53,0.00,,,0.00,VWS V14.01,2013-05-18 07:28:00,
2013-05-18 03:29:00,58.8,41.7,29.68,NE,45,0.0,0.0,53,0.00,,,0.00,VWS V14.01,2013-05-18 07:29:00,
2013-05-18 03:30:00,58.6,41.6,29.68,NE,45,0.0,0.0,53,0.00,,,0.00,VWS V14.01,2013-05-18 07:30:00,
2013-05-18 03:31:00,58.6,41.6,29.68,NE,45,0.0,0.0,53,0.00,,,0.00,VWS V14.01,2013-05-18 07:31:00,
2013-05-18 03:32:00,58.6,41.6,29.68,NE,45,0.0,0.0,53,0.00,,,0.00,VWS V14.01,2013-05-18 07:32:00,
2013-05-18 03:33:00,58.6,41.6,29.68,NE,45,0.0,0.0,53,0.00,,,0.00,VWS V14.01,2013-05-18 07:33:00,
2013-05-18 03:34:00,58.6,41.6,29.68,NE,45,0.0,0.0,53,0.00,,,0.00,VWS V14.01,2013-05-18 07:34:00,
2013-05-18 03:35:00,58.6,41.6,29.68,NE,45,0.0,0.0,53,0.00,,,0.00,VWS V14.01,2013-05-18 07:35:00,
2013-05-18 03:36:00,58.6,41.6,29.68,NE,45,0.0,0.0,53,0.00,,,0.00,VWS V14.01,2013-05-18 07:36:00,
2013-05-18 03:37:00,58.6,41.6,29.68,NE,45,0.0,0.0,53,0.00,,,0.00,VWS V14.01,2013-05-18 07:37:00,
2013-05-18 03:38:00,58.6,41.6,29.68,NE,45,0.0,0.0,53,0.00,,,0.00,VWS V14.01,2013-05-18 07:38:00,
2013-05-18 03:39:00,58.6,42.1,29.68,NE,45,0.0,0.0,54,0.00,,,0.00,VWS V14.01,2013-05-18 07:39:00,
2013-05-18 03:40:00,58.6,42.1,29.68,NE,45,0.0,0.0,54,0.00,,,0.00,VWS V14.01,2013-05-18 07:40:00,
2013-05-18 03:41:00,58.6,42.5,29.68,NE,45,0.0,0.0,55,0.00,,,0.00,VWS V14.01,2013-05-18 07:41:00,
2013-05-18 03:42:00,58.6,42.1,29.68,NE,45,0.0,0.0,54,0.00,,,0.00,VWS V14.01,2013-05-18 07:42:00,
2013-05-18 03:43:00,58.5,41.9,29.68,NE,45,0.0,0.0,54,0.00,,,0.00,VWS V14.01,2013-05-18 07:43:00,
2013-05-18 03:44:00,58.5,41.9,29.68,NE,45,0.0,0.0,54,0.00,,,0.00,VWS V14.01,2013-05-18 07:44:00,
2013-05-18 03:45:00,58.5,41.9,29.68,NE,45,0.0,0.0,54,0.00,,,0.00,VWS V14.01,2013-05-18 07:45:00,
2013-05-18 03:46:00,58.5,41.4,29.68,NE,45,0.0,0.0,53,0.00,,,0.00,VWS V14.01,2013-05-18 07:46:00,
2013-05-18 03:47:00,58.5,41.4,29.68,NE,45,0.0,0.0,53,0.00,,,0.00,VWS V14.01,2013-05-18 07:47:00,
2013-05-18 03:48:00,58.5,41.9,29.68,NE,45,0.0,0.0,54,0.00,,,0.00,VWS V14.01,2013-05-18 07:48:00,
2013-05-18 03:49:00,58.5,41.9,29.68,NE,45,0.0,0.0,54,0.00,,,0.00,VWS V14.01,2013-05-18 07:49:00,
2013-05-18 03:50:00,58.5,41.9,29.68,NE,45,0.0,0.0,54,0.00,,,0.00,VWS V14.01,2013-05-18 07:50:00,
2013-05-18 03:51:00,58.5,41.9,29.68,NE,45,0.0,0.0,54,0.00,,,0.00,VWS V14.01,2013-05-18 07:51:00,
2013-05-18 03:52:00,58.5,42.4,29.68,SE,135,0.0,0.0,55,0.00,,,0.00,VWS V14.01,2013-05-18 07:52:00,
2013-05-18 03:53:00,58.5,42.4,29.68,SE,135,0.0,0.0,55,0.00,,,0.00,VWS V14.01,2013-05-18 07:53:00,
2013-05-18 03:54:00,58.5,42.4,29.68,SE,135,0.0,0.0,55,0.00,,,0.00,VWS V14.01,2013-05-18 07:54:00,
2013-05-18 03:55:00,58.5,42.4,29.68,SE,135,0.0,0.0,55,0.00,,,0.00,VWS V14.01,2013-05-18 07:55:00,
2013-05-18 03:56:00,58.5,42.4,29.68,SE,135,0.0,0.0,55,0.00,,,0.00,VWS V14.01,2013-05-18 07:56:00,
2013-05-18 03:57:00,58.5,42.4,29.68,SE,135,0.0,0.0,55,0.00,,,0.00,VWS V14.01,2013-05-18 07:57:00,
2013-05-18 03:58:00,58.5,42.4,29.68,SE,135,0.0,0.0,55,0.00,,,0.00,VWS V14.01,2013-05-18 07:58:00,
2013-05-18 03:59:00,58.5,42.8,29.68,East,90,0.0,0.0,56,0.00,,,0.00,VWS V14.01,2013-05-18 07:59:00,
2013-05-18 04:00:00,58.5,42.8,29.68,East,90,0.0,0.0,56,0.00,,,0.00,VWS V14.01,2013-05-18 08:00:00,
2013-05-18 04:01:00,58.5,42.8,29.68,East,90,0.0,0.0,56,0.00,,,0.00,VWS V14.01,2013-05-18 08:01:00,
2013-05-18 04:02:00,58.3,42.7,29.68,East,90,0.0,0.0,56,0.00,,,0.00,VWS V14.01,2013-05-18 08:02:00,
2013-05-18 04:03:00,58.3,42.7,29.68,East,90,0.0,0.0,56,0.00,,,0.00,VWS V14.01,2013-05-18 08:03:00,
2013-05-18 04:04:00,58.3,42.7,29.68,East,90,0.0,0.0,56,0.00,,,0.00,VWS V14.01,2013-05-18 08:04:00,
2013-05-18 04:05:00,58.3,42.7,29.68,East,90,0.0,0.0,56,0.00,,,0.00,VWS V14.01,2013-05-18 08:05:00,
2013-05-18 04:06:00,58.3,42.7,29.68,East,90,0.0,0.0,56,0.00,,,0.00,VWS V14.01,2013-05-18 08:06:00,
2013-05-18 04:07:00,58.3,42.7,29.68,East,90,0.0,0.0,56,0.00,,,0.00,VWS V14.01,2013-05-18 08:07:00,
2013-05-18 04:08:00,58.3,42.7,29.68,East,90,0.0,0.0,56,0.00,,,0.00,VWS V14.01,2013-05-18 08:08:00,
2013-05-18 04:09:00,58.3,42.7,29.68,East,90,0.0,0.0,56,0.00,,,0.00,VWS V14.01,2013-05-18 08:09:00,
2013-05-18 04:10:00,58.3,42.7,29.68,East,90,0.0,0.0,56,0.00,,,0.00,VWS V14.01,2013-05-18 08:10:00,
2013-05-18 04:11:00,58.3,42.7,29.68,East,90,0.0,0.0,56,0.00,,,0.00,VWS V14.01,2013-05-18 08:11:00,
2013-05-18 04:12:00,58.3,43.1,29.68,East,90,0.0,0.0,57,0.00,,,0.00,VWS V14.01,2013-05-18 08:12:00,
2013-05-18 04:13:00,58.1,42.5,29.68,ENE,68,0.0,0.0,56,0.00,,,0.00,VWS V14.01,2013-05-18 08:13:00,
2013-05-18 04:14:00,58.1,42.5,29.68,ENE,68,0.0,0.0,56,0.00,,,0.00,VWS V14.01,2013-05-18 08:14:00,
2013-05-18 04:15:00,58.1,42.5,29.68,ENE,68,0.0,0.0,56,0.00,,,0.00,VWS V14.01,2013-05-18 08:15:00,
2013-05-18 04:16:00,58.1,42.5,29.68,ENE,68,0.0,0.0,56,0.00,,,0.00,VWS V14.01,2013-05-18 08:16:00,
2013-05-18 04:17:00,58.1,42.5,29.68,NE,45,0.0,0.0,56,0.00,,,0.00,VWS V14.01,2013-05-18 08:17:00,
2013-05-18 04:18:00,58.1,42.5,29.68,NE,45,0.0,0.0,56,0.00,,,0.00,VWS V14.01,2013-05-18 08:18:00,
2013-05-18 04:19:00,58.1,43.0,29.68,NNE,22,0.0,0.0,57,0.00,,,0.00,VWS V14.01,2013-05-18 08:19:00,
2013-05-18 04:20:00,58.1,42.5,29.68,NNE,22,0.0,0.0,56,0.00,,,0.00,VWS V14.01,2013-05-18 08:20:00,
2013-05-18 04:21:00,58.1,42.5,29.68,NNE,22,0.0,0.0,56,0.00,,,0.00,VWS V14.01,2013-05-18 08:21:00,
2013-05-18 04:22:00,58.1,43.0,29.68,ENE,68,0.0,0.0,57,0.00,,,0.00,VWS V14.01,2013-05-18 08:22:00,
2013-05-18 04:23:00,58.1,43.0,29.68,ENE,68,0.0,0.0,57,0.00,,,0.00,VWS V14.01,2013-05-18 08:23:00,
2013-05-18 04:24:00,58.1,43.0,29.68,ENE,68,0.0,0.0,57,0.00,,,0.00,VWS V14.01,2013-05-18 08:24:00,
2013-05-18 04:25:00,58.1,43.0,29.68,ENE,68,0.0,0.0,57,0.00,,,0.00,VWS V14.01,2013-05-18 08:25:00,
2013-05-18 04:26:00,58.1,43.0,29.68,ENE,68,0.0,0.0,57,0.00,,,0.00,VWS V14.01,2013-05-18 08:26:00,
2013-05-18 04:27:00,58.1,43.0,29.68,ENE,68,0.0,0.0,57,0.00,,,0.00,VWS V14.01,2013-05-18 08:27:00,
2013-05-18 04:28:00,58.1,43.0,29.68,ENE,68,0.0,0.0,57,0.00,,,0.00,VWS V14.01,2013-05-18 08:28:00,
2013-05-18 04:29:00,58.1,43.0,29.68,ENE,68,0.0,0.0,57,0.00,,,0.00,VWS V14.01,2013-05-18 08:29:00,
2013-05-18 04:30:00,58.1,43.0,29.68,ENE,68,0.0,0.0,57,0.00,,,0.00,VWS V14.01,2013-05-18 08:30:00,
2013-05-18 04:31:00,58.1,43.0,29.68,NE,45,0.0,0.0,57,0.00,,,0.00,VWS V14.01,2013-05-18 08:31:00,
2013-05-18 04:32:00,57.9,43.2,29.68,NE,45,0.0,0.0,58,0.00,,,0.00,VWS V14.01,2013-05-18 08:32:00,
2013-05-18 04:33:00,57.9,43.2,29.68,NE,45,0.0,0.0,58,0.00,,,0.00,VWS V14.01,2013-05-18 08:33:00,
2013-05-18 04:34:00,57.9,43.2,29.68,NE,45,0.0,0.0,58,0.00,,,0.00,VWS V14.01,2013-05-18 08:34:00,
2013-05-18 04:35:00,57.9,42.8,29.68,NE,45,0.0,0.0,57,0.00,,,0.00,VWS V14.01,2013-05-18 08:35:00,
2013-05-18 04:36:00,57.9,43.2,29.68,NE,45,0.0,0.0,58,0.00,,,0.00,VWS V14.01,2013-05-18 08:36:00,
2013-05-18 04:37:00,57.9,43.2,29.68,NE,45,0.0,0.0,58,0.00,,,0.00,VWS V14.01,2013-05-18 08:37:00,
2013-05-18 04:38:00,57.9,43.2,29.68,NE,45,0.0,0.0,58,0.00,,,0.00,VWS V14.01,2013-05-18 08:38:00,
2013-05-18 04:39:00,57.9,43.2,29.68,NE,45,0.0,0.0,58,0.00,,,0.00,VWS V14.01,2013-05-18 08:39:00,
2013-05-18 04:40:00,57.9,43.2,29.68,NE,45,0.0,0.0,58,0.00,,,0.00,VWS V14.01,2013-05-18 08:40:00,
2013-05-18 04:41:00,57.9,43.2,29.68,NE,45,0.0,0.0,58,0.00,,,0.00,VWS V14.01,2013-05-18 08:41:00,
2013-05-18 04:42:00,57.9,43.2,29.68,NE,45,0.0,0.0,58,0.00,,,0.00,VWS V14.01,2013-05-18 08:42:00,
2013-05-18 04:43:00,57.9,43.2,29.68,NE,45,0.0,0.0,58,0.00,,,0.00,VWS V14.01,2013-05-18 08:43:00,
2013-05-18 04:44:00,57.9,43.2,29.68,NE,45,0.0,0.0,58,0.00,,,0.00,VWS V14.01,2013-05-18 08:44:00,
2013-05-18 04:45:00,57.9,42.8,29.65,NE,45,0.0,0.0,57,0.00,,,0.00,VWS V14.01,2013-05-18 08:45:00,
2013-05-18 04:46:00,57.9,42.8,29.65,NE,45,0.0,0.0,57,0.00,,,0.00,VWS V14.01,2013-05-18 08:46:00,
2013-05-18 04:47:00,57.9,42.8,29.65,NE,45,0.0,0.0,57,0.00,,,0.00,VWS V14.01,2013-05-18 08:47:00,
2013-05-18 04:48:00,57.9,42.8,29.65,NE,45,0.0,0.0,57,0.00,,,0.00,VWS V14.01,2013-05-18 08:48:00,
2013-05-18 04:49:00,57.9,42.8,29.65,NE,45,0.0,0.0,57,0.00,,,0.00,VWS V14.01,2013-05-18 08:49:00,
2013-05-18 04:50:00,57.9,42.8,29.65,NE,45,0.0,0.0,57,0.00,,,0.00,VWS V14.01,2013-05-18 08:50:00,
2013-05-18 04:51:00,57.9,42.8,29.65,NE,45,0.0,0.0,57,0.00,,,0.00,VWS V14.01,2013-05-18 08:51:00,
2013-05-18 04:52:00,57.7,42.6,29.65,NE,45,0.0,0.0,57,0.00,,,0.00,VWS V14.01,2013-05-18 08:52:00,
2013-05-18 04:53:00,57.7,42.6,29.65,NE,45,0.0,0.0,57,0.00,,,0.00,VWS V14.01,2013-05-18 08:53:00,
2013-05-18 04:54:00,57.7,42.6,29.65,NE,45,0.0,0.0,57,0.00,,,0.00,VWS V14.01,2013-05-18 08:54:00,
2013-05-18 04:55:00,57.7,43.1,29.65,NE,45,0.0,0.0,58,0.00,,,0.00,VWS V14.01,2013-05-18 08:55:00,
2013-05-18 04:56:00,57.7,42.6,29.65,NE,45,0.0,0.0,57,0.00,,,0.00,VWS V14.01,2013-05-18 08:56:00,
2013-05-18 04:57:00,57.7,42.6,29.65,NE,45,0.0,0.0,57,0.00,,,0.00,VWS V14.01,2013-05-18 08:57:00,
2013-05-18 04:58:00,57.7,42.6,29.65,NE,45,0.0,0.0,57,0.00,,,0.00,VWS V14.01,2013-05-18 08:58:00,
2013-05-18 04:59:00,57.7,42.6,29.65,NE,45,0.0,0.0,57,0.00,,,0.00,VWS V14.01,2013-05-18 08:59:00,
2013-05-18 05:00:00,57.6,42.5,29.68,NE,45,0.0,0.0,57,0.00,,,0.00,VWS V14.01,2013-05-18 09:00:00,
2013-05-18 05:01:00,57.6,42.5,29.68,NE,45,0.0,0.0,57,0.00,,,0.00,VWS V14.01,2013-05-18 09:01:00,
2013-05-18 05:02:00,57.6,42.5,29.68,NE,45,0.0,0.0,57,0.00,,,0.00,VWS V14.01,2013-05-18 09:02:00,
2013-05-18 05:03:00,57.6,42.9,29.68,NE,45,0.0,0.0,58,0.00,,,0.00,VWS V14.01,2013-05-18 09:03:00,
2013-05-18 05:04:00,57.6,42.9,29.68,NE,45,0.0,0.0,58,0.00,,,0.00,VWS V14.01,2013-05-18 09:04:00,
2013-05-18 05:05:00,57.6,42.9,29.68,NE,45,0.0,0.0,58,0.00,,,0.00,VWS V14.01,2013-05-18 09:05:00,
2013-05-18 05:06:00,57.6,42.5,29.68,NE,45,0.0,0.0,57,0.00,,,0.00,VWS V14.01,2013-05-18 09:06:00,
2013-05-18 05:07:00,57.6,42.5,29.68,NE,45,0.0,0.0,57,0.00,,,0.00,VWS V14.01,2013-05-18 09:07:00,
2013-05-18 05:08:00,57.6,42.5,29.68,NE,45,0.0,0.0,57,0.00,,,0.00,VWS V14.01,2013-05-18 09:08:00,
2013-05-18 05:09:00,57.6,42.5,29.68,NE,45,0.0,0.0,57,0.00,,,0.00,VWS V14.01,2013-05-18 09:09:00,
2013-05-18 05:10:00,57.6,42.5,29.68,NE,45,0.0,0.0,57,0.00,,,0.00,VWS V14.01,2013-05-18 09:10:00,
2013-05-18 05:11:00,57.6,42.5,29.68,NE,45,0.0,0.0,57,0.00,,,0.00,VWS V14.01,2013-05-18 09:11:00,
2013-05-18 05:12:00,57.6,42.9,29.68,NE,45,0.0,0.0,58,0.00,,,0.00,VWS V14.01,2013-05-18 09:12:00,
2013-05-18 05:13:00,57.6,42.9,29.68,NE,45,0.0,0.0,58,0.00,,,0.00,VWS V14.01,2013-05-18 09:13:00,
2013-05-18 05:14:00,57.6,42.9,29.68,NE,45,0.0,0.0,58,0.00,,,0.00,VWS V14.01,2013-05-18 09:14:00,
2013-05-18 05:15:00,57.6,42.9,29.68,NE,45,0.0,0.0,58,0.00,,,0.00,VWS V14.01,2013-05-18 09:15:00,
2013-05-18 05:16:00,57.6,42.5,29.68,NE,45,0.0,0.0,57,0.00,,,0.00,VWS V14.01,2013-05-18 09:16:00,
2013-05-18 05:17:00,57.6,42.5,29.68,NE,45,0.0,0.0,57,0.00,,,0.00,VWS V14.01,2013-05-18 09:17:00,
2013-05-18 05:18:00,57.6,42.5,29.68,ENE,68,0.0,0.0,57,0.00,,,0.00,VWS V14.01,2013-05-18 09:18:00,
2013-05-18 05:19:00,57.6,42.5,29.68,ENE,68,0.0,0.0,57,0.00,,,0.00,VWS V14.01,2013-05-18 09:19:00,
2013-05-18 05:20:00,57.6,42.5,29.68,ENE,68,0.0,0.0,57,0.00,,,0.00,VWS V14.01,2013-05-18 09:20:00,
2013-05-18 05:21:00,57.6,42.5,29.68,ENE,68,0.0,0.0,57,0.00,,,0.00,VWS V14.01,2013-05-18 09:21:00,
2013-05-18 05:22:00,57.6,42.9,29.68,ENE,68,0.0,0.0,58,0.00,,,0.00,VWS V14.01,2013-05-18 09:22:00,
2013-05-18 05:23:00,57.6,42.9,29.68,ENE,68,0.0,0.0,58,0.00,,,0.00,VWS V14.01,2013-05-18 09:23:00,
2013-05-18 05:24:00,57.6,42.5,29.68,NE,45,0.0,0.0,57,0.00,,,0.00,VWS V14.01,2013-05-18 09:24:00,
2013-05-18 05:25:00,57.6,42.5,29.68,ENE,68,0.0,0.0,57,0.00,,,0.00,VWS V14.01,2013-05-18 09:25:00,
2013-05-18 05:26:00,57.6,42.5,29.68,ENE,68,0.0,0.0,57,0.00,,,0.00,VWS V14.01,2013-05-18 09:26:00,
2013-05-18 05:27:00,57.6,42.5,29.68,NE,45,0.0,0.0,57,0.00,,,0.00,VWS V14.01,2013-05-18 09:27:00,
2013-05-18 05:28:00,57.6,42.5,29.68,NE,45,0.0,0.0,57,0.00,,,0.00,VWS V14.01,2013-05-18 09:28:00,
2013-05-18 05:29:00,57.4,42.3,29.68,NE,45,0.0,0.0,57,0.00,,,0.00,VWS V14.01,2013-05-18 09:29:00,
2013-05-18 05:30:00,57.4,42.3,29.68,NE,45,0.0,0.0,57,0.00,,,0.00,VWS V14.01,2013-05-18 09:30:00,
2013-05-18 05:31:00,57.4,42.3,29.68,ENE,68,2.0,2.0,57,0.00,,,0.00,VWS V14.01,2013-05-18 09:31:00,
2013-05-18 05:32:00,57.4,42.3,29.68,ENE,68,2.0,2.0,57,0.00,,,0.00,VWS V14.01,2013-05-18 09:32:00,
2013-05-18 05:33:00,57.4,42.3,29.68,ENE,68,0.0,0.0,57,0.00,,,0.00,VWS V14.01,2013-05-18 09:33:00,
2013-05-18 05:34:00,57.4,42.3,29.68,ENE,68,2.5,2.5,57,0.00,,,0.00,VWS V14.01,2013-05-18 09:34:00,
2013-05-18 05:35:00,57.4,42.3,29.68,ENE,68,0.0,0.0,57,0.00,,,0.00,VWS V14.01,2013-05-18 09:35:00,
2013-05-18 05:36:00,57.4,42.3,29.68,ENE,68,0.0,0.0,57,0.00,,,0.00,VWS V14.01,2013-05-18 09:36:00,
2013-05-18 05:37:00,57.4,42.3,29.68,ENE,68,1.6,1.6,57,0.00,,,0.00,VWS V14.01,2013-05-18 09:37:00,
2013-05-18 05:38:00,57.4,42.3,29.68,NE,45,0.0,0.0,57,0.00,,,0.00,VWS V14.01,2013-05-18 09:38:00,
2013-05-18 05:39:00,57.2,42.1,29.68,ENE,68,1.6,1.6,57,0.00,,,0.00,VWS V14.01,2013-05-18 09:39:00,
2013-05-18 05:40:00,57.2,42.1,29.68,ENE,68,2.7,2.7,57,0.00,,,0.00,VWS V14.01,2013-05-18 09:40:00,
2013-05-18 05:41:00,57.2,42.1,29.68,NE,45,2.7,2.7,57,0.00,,,0.00,VWS V14.01,2013-05-18 09:41:00,
2013-05-18 05:42:00,57.2,42.1,29.68,NE,45,3.4,3.4,57,0.00,,,0.00,VWS V14.01,2013-05-18 09:42:00,
2013-05-18 05:43:00,57.2,42.1,29.68,NE,45,3.6,3.6,57,0.00,,,0.00,VWS V14.01,2013-05-18 09:43:00,
2013-05-18 05:44:00,57.2,42.1,29.68,NE,45,2.9,2.9,57,0.00,,,0.00,VWS V14.01,2013-05-18 09:44:00,
2013-05-18 05:45:00,57.2,42.1,29.68,NE,45,4.0,4.0,57,0.00,,,0.00,VWS V14.01,2013-05-18 09:45:00,
2013-05-18 05:46:00,57.2,42.1,29.68,NE,45,2.2,2.2,57,0.00,,,0.00,VWS V14.01,2013-05-18 09:46:00,
2013-05-18 05:47:00,57.2,42.1,29.68,ENE,68,2.0,2.0,57,0.00,,,0.00,VWS V14.01,2013-05-18 09:47:00,
2013-05-18 05:48:00,57.2,42.1,29.68,NE,45,2.5,2.5,57,0.00,,,0.00,VWS V14.01,2013-05-18 09:48:00,
2013-05-18 05:49:00,57.0,42.4,29.68,ENE,68,1.3,1.3,58,0.00,,,0.00,VWS V14.01,2013-05-18 09:49:00,
2013-05-18 05:50:00,57.0,42.4,29.68,ENE,68,2.7,2.7,58,0.00,,,0.00,VWS V14.01,2013-05-18 09:50:00,
2013-05-18 05:51:00,57.0,42.0,29.68,ENE,68,1.1,1.1,57,0.00,,,0.00,VWS V14.01,2013-05-18 09:51:00,
2013-05-18 05:52:00,57.0,42.4,29.68,ENE,68,0.0,0.0,58,0.00,,,0.00,VWS V14.01,2013-05-18 09:52:00,
2013-05-18 05:53:00,57.0,42.4,29.68,SE,135,1.3,1.3,58,0.00,,,0.00,VWS V14.01,2013-05-18 09:53:00,
2013-05-18 05:54:00,57.0,42.4,29.68,NE,45,0.0,0.0,58,0.00,,,0.00,VWS V14.01,2013-05-18 09:54:00,
2013-05-18 05:55:00,57.0,42.4,29.68,NNE,22,1.3,1.3,58,0.00,,,0.00,VWS V14.01,2013-05-18 09:55:00,
2013-05-18 05:56:00,57.0,42.0,29.68,NE,45,1.1,1.1,57,0.00,,,0.00,VWS V14.01,2013-05-18 09:56:00,
2013-05-18 05:57:00,57.0,42.0,29.68,NE,45,0.0,0.0,57,0.00,,,0.00,VWS V14.01,2013-05-18 09:57:00,
2013-05-18 05:58:00,57.0,42.0,29.68,NE,45,2.0,2.0,57,0.00,,,0.00,VWS V14.01,2013-05-18 09:58:00,
2013-05-18 05:59:00,57.0,42.4,29.68,NE,45,0.9,0.9,58,0.00,,,0.00,VWS V14.01,2013-05-18 09:59:00,
2013-05-18 06:00:00,57.0,42.0,29.68,NE,45,0.9,0.9,57,0.00,,,0.00,VWS V14.01,2013-05-18 10:00:00,
2013-05-18 06:01:00,57.0,42.4,29.68,NE,45,0.0,0.0,58,0.00,,,0.00,VWS V14.01,2013-05-18 10:01:00,
2013-05-18 06:02:00,57.0,42.4,29.68,NNE,22,0.0,0.0,58,0.00,,,0.00,VWS V14.01,2013-05-18 10:02:00,
2013-05-18 06:03:00,57.0,42.4,29.68,NNE,22,0.0,0.0,58,0.00,,,0.00,VWS V14.01,2013-05-18 10:03:00,
2013-05-18 06:04:00,57.0,42.8,29.68,NNE,22,0.0,0.0,59,0.00,,,0.00,VWS V14.01,2013-05-18 10:04:00,
2013-05-18 06:05:00,57.0,42.8,29.68,NNE,22,0.0,0.0,59,0.00,,,0.00,VWS V14.01,2013-05-18 10:05:00,
2013-05-18 06:06:00,57.0,42.8,29.68,NNE,22,0.0,0.0,59,0.00,,,0.00,VWS V14.01,2013-05-18 10:06:00,
2013-05-18 06:07:00,57.0,42.8,29.68,NE,45,0.0,0.0,59,0.00,,,0.00,VWS V14.01,2013-05-18 10:07:00,
2013-05-18 06:08:00,57.0,42.8,29.68,NE,45,0.0,0.0,59,0.00,,,0.00,VWS V14.01,2013-05-18 10:08:00,
2013-05-18 06:09:00,57.0,42.8,29.68,NE,45,0.0,0.0,59,0.00,,,0.00,VWS V14.01,2013-05-18 10:09:00,
2013-05-18 06:10:00,57.0,42.8,29.68,NE,45,0.0,0.0,59,0.00,,,0.00,VWS V14.01,2013-05-18 10:10:00,
2013-05-18 06:11:00,57.0,42.8,29.68,NE,45,0.0,0.0,59,0.00,,,0.00,VWS V14.01,2013-05-18 10:11:00,
2013-05-18 06:12:00,57.0,42.8,29.68,NE,45,0.0,0.0,59,0.00,,,0.00,VWS V14.01,2013-05-18 10:12:00,
2013-05-18 06:13:00,57.2,42.6,29.68,NE,45,1.1,1.1,58,0.00,,,0.00,VWS V14.01,2013-05-18 10:13:00,
2013-05-18 06:14:00,57.2,42.6,29.68,ESE,112,1.1,1.1,58,0.00,,,0.00,VWS V14.01,2013-05-18 10:14:00,
2013-05-18 06:15:00,57.2,42.6,29.71,NE,45,0.9,0.9,58,0.00,,,0.00,VWS V14.01,2013-05-18 10:15:00,
2013-05-18 06:16:00,57.2,42.6,29.71,ENE,68,0.0,0.0,58,0.00,,,0.00,VWS V14.01,2013-05-18 10:16:00,
2013-05-18 06:17:00,57.2,42.6,29.71,ENE,68,2.9,2.9,58,0.00,,,0.00,VWS V14.01,2013-05-18 10:17:00,
2013-05-18 06:18:00,57.2,42.6,29.71,NE,45,0.9,0.9,58,0.00,,,0.00,VWS V14.01,2013-05-18 10:18:00,
2013-05-18 06:19:00,57.2,42.6,29.71,NE,45,3.4,3.4,58,0.00,,,0.00,VWS V14.01,2013-05-18 10:19:00,
2013-05-18 06:20:00,57.2,42.6,29.71,NE,45,4.3,4.3,58,0.00,,,0.00,VWS V14.01,2013-05-18 10:20:00,
2013-05-18 06:21:00,57.2,42.1,29.71,NE,45,2.9,2.9,57,0.00,,,0.00,VWS V14.01,2013-05-18 10:21:00,
2013-05-18 06:22:00,57.2,42.1,29.71,NE,45,2.9,2.9,57,0.00,,,0.00,VWS V14.01,2013-05-18 10:22:00,
2013-05-18 06:23:00,57.2,42.1,29.71,ENE,68,1.6,1.6,57,0.00,,,0.00,VWS V14.01,2013-05-18 10:23:00,
2013-05-18 06:24:00,57.4,42.7,29.71,NE,45,2.2,2.2,58,0.00,,,0.00,VWS V14.01,2013-05-18 10:24:00,
2013-05-18 06:25:00,57.4,42.7,29.71,NE,45,3.4,3.4,58,0.00,,,0.00,VWS V14.01,2013-05-18 10:25:00,
2013-05-18 06:26:00,57.4,42.3,29.71,East,90,2.2,2.2,57,0.00,,,0.00,VWS V14.01,2013-05-18 10:26:00,
2013-05-18 06:27:00,57.4,42.3,29.71,ENE,68,3.1,3.1,57,0.00,,,0.00,VWS V14.01,2013-05-18 10:27:00,
2013-05-18 06:28:00,57.4,42.3,29.71,NE,45,3.8,3.8,57,0.00,,,0.00,VWS V14.01,2013-05-18 10:28:00,
2013-05-18 06:29:00,57.4,42.3,29.71,NE,45,2.0,2.0,57,0.00,,,0.00,VWS V14.01,2013-05-18 10:29:00,
2013-05-18 06:30:00,57.4,42.3,29.71,ENE,68,1.6,1.6,57,0.00,,,0.00,VWS V14.01,2013-05-18 10:30:00,
2013-05-18 06:31:00,57.6,42.5,29.71,NNE,22,1.1,1.1,57,0.00,,,0.00,VWS V14.01,2013-05-18 10:31:00,
2013-05-18 06:32:00,57.6,42.5,29.71,ENE,68,2.0,2.0,57,0.00,,,0.00,VWS V14.01,2013-05-18 10:32:00,
2013-05-18 06:33:00,57.6,42.5,29.71,ENE,68,1.1,1.1,57,0.00,,,0.00,VWS V14.01,2013-05-18 10:33:00,
2013-05-18 06:34:00,57.6,42.5,29.71,ENE,68,0.0,0.0,57,0.00,,,0.00,VWS V14.01,2013-05-18 10:34:00,
2013-05-18 06:35:00,57.6,42.5,29.71,East,90,1.1,1.1,57,0.00,,,0.00,VWS V14.01,2013-05-18 10:35:00,
2013-05-18 06:36:00,57.6,42.5,29.71,SSE,158,0.9,0.9,57,0.00,,,0.00,VWS V14.01,2013-05-18 10:36:00,
2013-05-18 06:37:00,57.6,42.5,29.71,ESE,112,0.9,0.9,57,0.00,,,0.00,VWS V14.01,2013-05-18 10:37:00,
2013-05-18 06:38:00,57.6,42.5,29.71,SE,135,1.3,1.3,57,0.00,,,0.00,VWS V14.01,2013-05-18 10:38:00,
2013-05-18 06:39:00,57.6,42.5,29.71,SE,135,1.1,1.1,57,0.00,,,0.00,VWS V14.01,2013-05-18 10:39:00,
2013-05-18 06:40:00,57.6,42.5,29.71,East,90,0.0,0.0,57,0.00,,,0.00,VWS V14.01,2013-05-18 10:40:00,
2013-05-18 06:41:00,57.6,42.5,29.71,ENE,68,0.0,0.0,57,0.00,,,0.00,VWS V14.01,2013-05-18 10:41:00,
2013-05-18 06:42:00,57.6,42.5,29.71,SSE,158,0.0,0.0,57,0.00,,,0.00,VWS V14.01,2013-05-18 10:42:00,
2013-05-18 06:43:00,57.6,42.5,29.71,ESE,112,0.9,0.9,57,0.00,,,0.00,VWS V14.01,2013-05-18 10:43:00,
2013-05-18 06:44:00,57.6,42.5,29.71,South,180,2.9,2.9,57,0.00,,,0.00,VWS V14.01,2013-05-18 10:44:00,
2013-05-18 06:45:00,57.6,42.5,29.68,ESE,112,2.2,2.2,57,0.00,,,0.00,VWS V14.01,2013-05-18 10:45:00,
2013-05-18 06:46:00,57.6,42.5,29.68,ENE,68,0.0,0.0,57,0.00,,,0.00,VWS V14.01,2013-05-18 10:46:00,
2013-05-18 06:47:00,57.6,42.9,29.68,NNE,22,1.6,1.6,58,0.00,,,0.00,VWS V14.01,2013-05-18 10:47:00,
2013-05-18 06:48:00,57.6,42.9,29.68,NE,45,0.0,0.0,58,0.00,,,0.00,VWS V14.01,2013-05-18 10:48:00,
2013-05-18 06:49:00,57.6,42.9,29.68,NE,45,0.0,0.0,58,0.00,,,0.00,VWS V14.01,2013-05-18 10:49:00,
2013-05-18 06:50:00,57.6,42.9,29.68,ENE,68,1.1,1.1,58,0.00,,,0.00,VWS V14.01,2013-05-18 10:50:00,
2013-05-18 06:51:00,57.6,42.9,29.68,ENE,68,0.0,0.0,58,0.00,,,0.00,VWS V14.01,2013-05-18 10:51:00,
2013-05-18 06:52:00,57.6,43.4,29.68,ENE,68,0.0,0.0,59,0.00,,,0.00,VWS V14.01,2013-05-18 10:52:00,
2013-05-18 06:53:00,57.6,43.4,29.68,ENE,68,0.0,0.0,59,0.00,,,0.00,VWS V14.01,2013-05-18 10:53:00,
2013-05-18 06:54:00,57.6,43.4,29.68,NE,45,0.0,0.0,59,0.00,,,0.00,VWS V14.01,2013-05-18 10:54:00,
2013-05-18 06:55:00,57.6,43.4,29.68,NE,45,0.0,0.0,59,0.00,,,0.00,VWS V14.01,2013-05-18 10:55:00,
2013-05-18 06:56:00,57.6,43.4,29.68,NE,45,0.0,0.0,59,0.00,,,0.00,VWS V14.01,2013-05-18 10:56:00,
2013-05-18 06:57:00,57.6,43.4,29.68,NE,45,2.7,2.7,59,0.00,,,0.00,VWS V14.01,2013-05-18 10:57:00,
2013-05-18 06:58:00,57.6,43.4,29.68,NE,45,2.5,2.5,59,0.00,,,0.00,VWS V14.01,2013-05-18 10:58:00,
2013-05-18 06:59:00,57.6,43.4,29.68,NNE,22,3.4,3.4,59,0.00,,,0.00,VWS V14.01,2013-05-18 10:59:00,
2013-05-18 07:00:00,57.6,43.4,29.71,NNE,22,3.6,3.6,59,0.00,,,0.00,VWS V14.01,2013-05-18 11:00:00,
2013-05-18 07:01:00,57.6,43.4,29.71,NE,45,2.5,2.5,59,0.00,,,0.00,VWS V14.01,2013-05-18 11:01:00,
2013-05-18 07:02:00,57.6,43.4,29.71,NNE,22,2.0,2.0,59,0.00,,,0.00,VWS V14.01,2013-05-18 11:02:00,
2013-05-18 07:03:00,57.6,43.4,29.71,NNE,22,1.1,1.1,59,0.00,,,0.00,VWS V14.01,2013-05-18 11:03:00,
2013-05-18 07:04:00,57.6,43.4,29.71,NNE,22,2.0,2.0,59,0.00,,,0.00,VWS V14.01,2013-05-18 11:04:00,
2013-05-18 07:05:00,57.6,43.4,29.71,NNE,22,0.9,0.9,59,0.00,,,0.00,VWS V14.01,2013-05-18 11:05:00,
2013-05-18 07:06:00,57.6,43.4,29.71,NNE,22,2.0,2.0,59,0.00,,,0.00,VWS V14.01,2013-05-18 11:06:00,
2013-05-18 07:07:00,57.6,43.4,29.71,NNE,22,0.0,0.0,59,0.00,,,0.00,VWS V14.01,2013-05-18 11:07:00,
2013-05-18 07:08:00,57.6,43.4,29.71,NNE,22,1.1,1.1,59,0.00,,,0.00,VWS V14.01,2013-05-18 11:08:00,
2013-05-18 07:09:00,57.6,43.4,29.71,NNE,22,2.5,2.5,59,0.00,,,0.00,VWS V14.01,2013-05-18 11:09:00,
2013-05-18 07:10:00,57.6,43.4,29.71,NNE,22,2.2,2.2,59,0.00,,,0.00,VWS V14.01,2013-05-18 11:10:00,
2013-05-18 07:11:00,57.6,43.4,29.71,NNE,22,2.2,2.2,59,0.00,,,0.00,VWS V14.01,2013-05-18 11:11:00,
2013-05-18 07:12:00,57.6,43.4,29.71,NNE,22,1.6,1.6,59,0.00,,,0.00,VWS V14.01,2013-05-18 11:12:00,
2013-05-18 07:13:00,57.7,43.5,29.71,NNE,22,1.6,1.6,59,0.00,,,0.00,VWS V14.01,2013-05-18 11:13:00,
2013-05-18 07:14:00,57.7,43.5,29.71,NNE,22,1.6,1.6,59,0.00,,,0.00,VWS V14.01,2013-05-18 11:14:00,
2013-05-18 07:15:00,57.7,43.5,29.71,NNE,22,2.9,2.9,59,0.00,,,0.00,VWS V14.01,2013-05-18 11:15:00,
2013-05-18 07:16:00,57.7,43.5,29.71,NE,45,2.2,2.2,59,0.00,,,0.00,VWS V14.01,2013-05-18 11:16:00,
2013-05-18 07:17:00,57.7,43.5,29.71,NNE,22,2.7,2.7,59,0.00,,,0.00,VWS V14.01,2013-05-18 11:17:00,
2013-05-18 07:18:00,57.7,43.5,29.71,NNE,22,1.6,1.6,59,0.00,,,0.00,VWS V14.01,2013-05-18 11:18:00,
2013-05-18 07:19:00,57.7,43.5,29.71,NNE,22,2.5,2.5,59,0.00,,,0.00,VWS V14.01,2013-05-18 11:19:00,
2013-05-18 07:20:00,57.7,43.1,29.71,NNE,22,1.6,1.6,58,0.00,,,0.00,VWS V14.01,2013-05-18 11:20:00,
2013-05-18 07:21:00,57.7,43.1,29.71,NNE,22,1.1,1.1,58,0.00,,,0.00,VWS V14.01,2013-05-18 11:21:00,
2013-05-18 07:22:00,57.7,43.5,29.71,NNE,22,0.9,0.9,59,0.00,,,0.00,VWS V14.01,2013-05-18 11:22:00,
2013-05-18 07:23:00,57.7,43.5,29.71,NNE,22,0.0,0.0,59,0.00,,,0.00,VWS V14.01,2013-05-18 11:23:00,
2013-05-18 07:24:00,57.7,43.5,29.71,NNE,22,0.0,0.0,59,0.00,,,0.00,VWS V14.01,2013-05-18 11:24:00,
2013-05-18 07:25:00,57.9,43.7,29.71,NNE,22,0.0,0.0,59,0.00,,,0.00,VWS V14.01,2013-05-18 11:25:00,
2013-05-18 07:26:00,57.9,43.7,29.71,ENE,68,0.0,0.0,59,0.00,,,0.00,VWS V14.01,2013-05-18 11:26:00,
2013-05-18 07:27:00,57.9,43.7,29.71,ENE,68,0.0,0.0,59,0.00,,,0.00,VWS V14.01,2013-05-18 11:27:00,
2013-05-18 07:28:00,57.9,44.1,29.71,ENE,68,0.0,0.0,60,0.00,,,0.00,VWS V14.01,2013-05-18 11:28:00,
2013-05-18 07:29:00,57.9,44.1,29.71,ENE,68,0.0,0.0,60,0.00,,,0.00,VWS V14.01,2013-05-18 11:29:00,
2013-05-18 07:30:00,57.9,44.1,29.71,ENE,68,0.0,0.0,60,0.00,,,0.00,VWS V14.01,2013-05-18 11:30:00,
2013-05-18 07:31:00,57.9,44.1,29.71,ENE,68,0.0,0.0,60,0.00,,,0.00,VWS V14.01,2013-05-18 11:31:00,
2013-05-18 07:32:00,57.9,44.1,29.71,ENE,68,0.0,0.0,60,0.00,,,0.00,VWS V14.01,2013-05-18 11:32:00,
2013-05-18 07:33:00,57.9,44.6,29.71,ENE,68,0.0,0.0,61,0.00,,,0.00,VWS V14.01,2013-05-18 11:33:00,
2013-05-18 07:34:00,57.9,44.6,29.71,East,90,0.0,0.0,61,0.00,,,0.00,VWS V14.01,2013-05-18 11:34:00,
2013-05-18 07:35:00,58.1,44.3,29.71,ENE,68,0.9,0.9,60,0.00,,,0.00,VWS V14.01,2013-05-18 11:35:00,
2013-05-18 07:36:00,58.1,44.3,29.71,East,90,0.0,0.0,60,0.00,,,0.00,VWS V14.01,2013-05-18 11:36:00,
2013-05-18 07:37:00,58.1,44.3,29.71,NE,45,0.0,0.0,60,0.00,,,0.00,VWS V14.01,2013-05-18 11:37:00,
2013-05-18 07:38:00,58.1,44.3,29.71,ENE,68,1.3,1.3,60,0.00,,,0.00,VWS V14.01,2013-05-18 11:38:00,
2013-05-18 07:39:00,58.1,44.3,29.71,NE,45,0.9,0.9,60,0.00,,,0.00,VWS V14.01,2013-05-18 11:39:00,
2013-05-18 07:40:00,58.1,44.3,29.71,NE,45,1.6,1.6,60,0.00,,,0.00,VWS V14.01,2013-05-18 11:40:00,
2013-05-18 07:41:00,58.1,44.3,29.71,NE,45,1.3,1.3,60,0.00,,,0.00,VWS V14.01,2013-05-18 11:41:00,
2013-05-18 07:42:00,58.1,44.3,29.71,ENE,68,0.0,0.0,60,0.00,,,0.00,VWS V14.01,2013-05-18 11:42:00,
2013-05-18 07:43:00,58.1,44.3,29.71,ENE,68,1.6,1.6,60,0.00,,,0.00,VWS V14.01,2013-05-18 11:43:00,
2013-05-18 07:44:00,58.1,44.3,29.71,ENE,68,1.3,1.3,60,0.00,,,0.00,VWS V14.01,2013-05-18 11:44:00,
2013-05-18 07:45:00,58.3,44.5,29.71,NE,45,2.7,2.7,60,0.00,,,0.00,VWS V14.01,2013-05-18 11:45:00,
2013-05-18 07:46:00,58.3,44.5,29.71,NE,45,2.5,2.5,60,0.00,,,0.00,VWS V14.01,2013-05-18 11:46:00,
2013-05-18 07:47:00,58.3,44.5,29.71,ENE,68,2.5,2.5,60,0.00,,,0.00,VWS V14.01,2013-05-18 11:47:00,
2013-05-18 07:48:00,58.3,44.5,29.71,ENE,68,2.7,2.7,60,0.00,,,0.00,VWS V14.01,2013-05-18 11:48:00,
2013-05-18 07:49:00,58.3,44.5,29.71,NE,45,1.6,1.6,60,0.00,,,0.00,VWS V14.01,2013-05-18 11:49:00,
2013-05-18 07:50:00,58.3,44.5,29.71,NE,45,0.0,0.0,60,0.00,,,0.00,VWS V14.01,2013-05-18 11:50:00,
2013-05-18 07:51:00,58.3,44.5,29.71,NE,45,1.3,1.3,60,0.00,,,0.00,VWS V14.01,2013-05-18 11:51:00,
2013-05-18 07:52:00,58.3,44.5,29.71,NE,45,0.0,0.0,60,0.00,,,0.00,VWS V14.01,2013-05-18 11:52:00,
2013-05-18 07:53:00,58.3,44.5,29.71,NE,45,0.0,0.0,60,0.00,,,0.00,VWS V14.01,2013-05-18 11:53:00,
2013-05-18 07:54:00,58.3,44.5,29.71,NE,45,0.0,0.0,60,0.00,,,0.00,VWS V14.01,2013-05-18 11:54:00,
2013-05-18 07:55:00,58.5,44.6,29.71,NE,45,2.0,2.0,60,0.00,,,0.00,VWS V14.01,2013-05-18 11:55:00,
2013-05-18 07:56:00,58.5,44.6,29.71,NE,45,2.0,2.0,60,0.00,,,0.00,VWS V14.01,2013-05-18 11:56:00,
2013-05-18 07:57:00,58.5,44.6,29.71,NE,45,2.0,2.0,60,0.00,,,0.00,VWS V14.01,2013-05-18 11:57:00,
2013-05-18 07:58:00,58.5,44.6,29.71,NE,45,2.5,2.5,60,0.00,,,0.00,VWS V14.01,2013-05-18 11:58:00,
2013-05-18 07:59:00,58.5,44.6,29.71,NNE,22,3.4,3.4,60,0.00,,,0.00,VWS V14.01,2013-05-18 11:59:00,
2013-05-18 08:00:00,58.5,44.6,29.71,NNE,22,4.0,4.0,60,0.00,,,0.00,VWS V14.01,2013-05-18 12:00:00,
2013-05-18 08:01:00,58.5,44.6,29.71,NNE,22,4.0,4.0,60,0.00,,,0.00,VWS V14.01,2013-05-18 12:01:00,
2013-05-18 08:02:00,58.5,45.1,29.71,NE,45,3.1,3.1,61,0.00,,,0.00,VWS V14.01,2013-05-18 12:02:00,
2013-05-18 08:03:00,58.5,44.6,29.71,NE,45,4.9,4.9,60,0.00,,,0.00,VWS V14.01,2013-05-18 12:03:00,
2013-05-18 08:04:00,58.5,45.1,29.71,NNE,22,4.0,4.0,61,0.00,,,0.00,VWS V14.01,2013-05-18 12:04:00,
2013-05-18 08:05:00,58.5,45.1,29.71,NNE,22,4.0,4.0,61,0.00,,,0.00,VWS V14.01,2013-05-18 12:05:00,
2013-05-18 08:06:00,58.5,45.1,29.71,NE,45,4.9,4.9,61,0.00,,,0.00,VWS V14.01,2013-05-18 12:06:00,
2013-05-18 08:07:00,58.5,44.6,29.71,NE,45,3.4,3.4,60,0.00,,,0.00,VWS V14.01,2013-05-18 12:07:00,
2013-05-18 08:08:00,58.6,45.2,29.71,NNE,22,3.8,3.8,61,0.00,,,0.00,VWS V14.01,2013-05-18 12:08:00,
2013-05-18 08:09:00,58.6,45.2,29.71,NNE,22,3.8,3.8,61,0.00,,,0.00,VWS V14.01,2013-05-18 12:09:00,
2013-05-18 08:10:00,58.6,45.2,29.71,NNE,22,3.8,3.8,61,0.00,,,0.00,VWS V14.01,2013-05-18 12:10:00,
2013-05-18 08:11:00,58.6,44.8,29.71,NE,45,3.4,3.4,60,0.00,,,0.00,VWS V14.01,2013-05-18 12:11:00,
2013-05-18 08:12:00,58.6,44.8,29.71,NNE,22,4.3,4.3,60,0.00,,,0.00,VWS V14.01,2013-05-18 12:12:00,
2013-05-18 08:13:00,58.8,45.4,29.71,NNE,22,3.6,3.6,61,0.00,,,0.00,VWS V14.01,2013-05-18 12:13:00,
2013-05-18 08:14:00,58.8,45.4,29.71,NNE,22,5.6,5.6,61,0.00,,,0.00,VWS V14.01,2013-05-18 12:14:00,
2013-05-18 08:15:00,58.8,45.0,29.74,NNE,22,4.5,4.5,60,0.00,,,0.00,VWS V14.01,2013-05-18 12:15:00,
2013-05-18 08:16:00,58.8,45.0,29.74,NNE,22,2.7,2.7,60,0.00,,,0.00,VWS V14.01,2013-05-18 12:16:00,
2013-05-18 08:17:00,58.8,45.0,29.74,North,0,3.1,3.1,60,0.00,,,0.00,VWS V14.01,2013-05-18 12:17:00,
2013-05-18 08:18:00,58.8,45.0,29.74,NNE,22,2.9,2.9,60,0.00,,,0.00,VWS V14.01,2013-05-18 12:18:00,
2013-05-18 08:19:00,58.8,45.0,29.74,NE,45,3.1,3.1,60,0.00,,,0.00,VWS V14.01,2013-05-18 12:19:00,
2013-05-18 08:20:00,58.8,45.0,29.74,NE,45,2.9,2.9,60,0.00,,,0.00,VWS V14.01,2013-05-18 12:20:00,
2013-05-18 08:21:00,59.0,45.2,29.74,NE,45,1.3,1.3,60,0.00,,,0.00,VWS V14.01,2013-05-18 12:21:00,
2013-05-18 08:22:00,59.0,45.2,29.74,NE,45,1.3,1.3,60,0.00,,,0.00,VWS V14.01,2013-05-18 12:22:00,
2013-05-18 08:23:00,59.2,45.3,29.74,East,90,1.3,1.3,60,0.00,,,0.00,VWS V14.01,2013-05-18 12:23:00,
2013-05-18 08:24:00,59.2,45.3,29.74,ENE,68,0.0,0.0,60,0.00,,,0.00,VWS V14.01,2013-05-18 12:24:00,
2013-05-18 08:25:00,59.2,45.3,29.74,NE,45,0.0,0.0,60,0.00,,,0.00,VWS V14.01,2013-05-18 12:25:00,
2013-05-18 08:26:00,59.2,45.3,29.74,NE,45,2.0,2.0,60,0.00,,,0.00,VWS V14.01,2013-05-18 12:26:00,
2013-05-18 08:27:00,59.4,45.5,29.74,ENE,68,3.4,3.4,60,0.00,,,0.00,VWS V14.01,2013-05-18 12:27:00,
2013-05-18 08:28:00,59.4,45.5,29.74,NE,45,2.9,2.9,60,0.00,,,0.00,VWS V14.01,2013-05-18 12:28:00,
2013-05-18 08:29:00,59.4,45.5,29.74,NNE,22,3.1,3.1,60,0.00,,,0.00,VWS V14.01,2013-05-18 12:29:00,
2013-05-18 08:30:00,59.5,45.7,29.71,NNE,22,2.5,2.5,60,0.00,,,0.00,VWS V14.01,2013-05-18 12:30:00,
2013-05-18 08:31:00,59.5,45.7,29.71,NE,45,2.0,2.0,60,0.00,,,0.00,VWS V14.01,2013-05-18 12:31:00,
2013-05-18 08:32:00,59.5,45.7,29.71,NE,45,1.1,1.1,60,0.00,,,0.00,VWS V14.01,2013-05-18 12:32:00,
2013-05-18 08:33:00,59.5,45.7,29.71,NNE,22,3.6,3.6,60,0.00,,,0.00,VWS V14.01,2013-05-18 12:33:00,
2013-05-18 08:34:00,59.7,45.8,29.71,NNE,22,1.3,1.3,60,0.00,,,0.00,VWS V14.01,2013-05-18 12:34:00,
2013-05-18 08:35:00,59.7,45.8,29.71,NE,45,0.0,0.0,60,0.00,,,0.00,VWS V14.01,2013-05-18 12:35:00,
2013-05-18 08:36:00,59.7,45.8,29.71,NE,45,2.7,2.7,60,0.00,,,0.00,VWS V14.01,2013-05-18 12:36:00,
2013-05-18 08:37:00,59.9,46.0,29.71,NE,45,2.5,2.5,60,0.00,,,0.00,VWS V14.01,2013-05-18 12:37:00,
2013-05-18 08:38:00,59.9,46.0,29.71,NE,45,4.0,4.0,60,0.00,,,0.00,VWS V14.01,2013-05-18 12:38:00,
2013-05-18 08:39:00,59.9,45.5,29.71,NE,45,3.4,3.4,59,0.00,,,0.00,VWS V14.01,2013-05-18 12:39:00,
2013-05-18 08:40:00,59.9,45.5,29.71,NE,45,3.8,3.8,59,0.00,,,0.00,VWS V14.01,2013-05-18 12:40:00,
2013-05-18 08:41:00,59.9,45.5,29.71,NE,45,2.0,2.0,59,0.00,,,0.00,VWS V14.01,2013-05-18 12:41:00,
2013-05-18 08:42:00,59.9,45.5,29.71,NNE,22,3.6,3.6,59,0.00,,,0.00,VWS V14.01,2013-05-18 12:42:00,
2013-05-18 08:43:00,60.1,45.7,29.71,NE,45,2.5,2.5,59,0.00,,,0.00,VWS V14.01,2013-05-18 12:43:00,
2013-05-18 08:44:00,60.1,45.7,29.71,ENE,68,2.0,2.0,59,0.00,,,0.00,VWS V14.01,2013-05-18 12:44:00,
2013-05-18 08:45:00,60.1,45.7,29.71,ENE,68,2.0,2.0,59,0.00,,,0.00,VWS V14.01,2013-05-18 12:45:00,
2013-05-18 08:46:00,60.1,45.7,29.71,NE,45,1.3,1.3,59,0.00,,,0.00,VWS V14.01,2013-05-18 12:46:00,
2013-05-18 08:47:00,60.1,45.7,29.71,NNE,22,2.7,2.7,59,0.00,,,0.00,VWS V14.01,2013-05-18 12:47:00,
2013-05-18 08:48:00,60.3,45.9,29.71,NNE,22,4.0,4.0,59,0.00,,,0.00,VWS V14.01,2013-05-18 12:48:00,
2013-05-18 08:49:00,60.3,45.9,29.71,NNE,22,4.7,4.7,59,0.00,,,0.00,VWS V14.01,2013-05-18 12:49:00,
2013-05-18 08:50:00,60.3,45.9,29.71,NNE,22,4.3,4.3,59,0.00,,,0.00,VWS V14.01,2013-05-18 12:50:00,
2013-05-18 08:51:00,60.4,46.1,29.71,NNE,22,4.0,4.0,59,0.00,,,0.00,VWS V14.01,2013-05-18 12:51:00,
2013-05-18 08:52:00,60.4,46.1,29.71,NNE,22,3.8,3.8,59,0.00,,,0.00,VWS V14.01,2013-05-18 12:52:00,
2013-05-18 08:53:00,60.4,46.5,29.71,NNE,22,4.0,4.0,60,0.00,,,0.00,VWS V14.01,2013-05-18 12:53:00,
2013-05-18 08:54:00,60.6,46.7,29.71,NE,45,2.7,2.7,60,0.00,,,0.00,VWS V14.01,2013-05-18 12:54:00,
2013-05-18 08:55:00,60.6,46.7,29.71,NE,45,4.0,4.0,60,0.00,,,0.00,VWS V14.01,2013-05-18 12:55:00,
2013-05-18 08:56:00,60.6,46.7,29.71,NNE,22,3.6,3.6,60,0.00,,,0.00,VWS V14.01,2013-05-18 12:56:00,
2013-05-18 08:57:00,60.6,46.7,29.71,NE,45,2.7,2.7,60,0.00,,,0.00,VWS V14.01,2013-05-18 12:57:00,
2013-05-18 08:58:00,60.8,46.4,29.71,NNE,22,4.3,4.3,59,0.00,,,0.00,VWS V14.01,2013-05-18 12:58:00,
2013-05-18 08:59:00,60.8,46.4,29.71,NNE,22,4.0,4.0,59,0.00,,,0.00,VWS V14.01,2013-05-18 12:59:00,
2013-05-18 09:00:00,60.8,46.4,29.74,NE,45,3.1,3.1,59,0.00,,,0.00,VWS V14.01,2013-05-18 13:00:00,
2013-05-18 09:01:00,61.0,46.6,29.74,NE,45,2.0,2.0,59,0.00,,,0.00,VWS V14.01,2013-05-18 13:01:00,
2013-05-18 09:02:00,61.0,46.6,29.74,NE,45,2.0,2.0,59,0.00,,,0.00,VWS V14.01,2013-05-18 13:02:00,
2013-05-18 09:03:00,61.0,46.6,29.74,NE,45,3.8,3.8,59,0.00,,,0.00,VWS V14.01,2013-05-18 13:03:00,
2013-05-18 09:04:00,61.0,46.6,29.74,ENE,68,2.2,2.2,59,0.00,,,0.00,VWS V14.01,2013-05-18 13:04:00,
2013-05-18 09:05:00,61.0,46.6,29.74,ENE,68,4.0,4.0,59,0.00,,,0.00,VWS V14.01,2013-05-18 13:05:00,
2013-05-18 09:06:00,61.0,46.6,29.74,NE,45,3.1,3.1,59,0.00,,,0.00,VWS V14.01,2013-05-18 13:06:00,
2013-05-18 09:07:00,61.0,46.6,29.74,NNE,22,3.8,3.8,59,0.00,,,0.00,VWS V14.01,2013-05-18 13:07:00,
2013-05-18 09:08:00,61.2,46.3,29.74,NNE,22,2.5,2.5,58,0.00,,,0.00,VWS V14.01,2013-05-18 13:08:00,
2013-05-18 09:09:00,61.2,46.3,29.74,NE,45,3.4,3.4,58,0.00,,,0.00,VWS V14.01,2013-05-18 13:09:00,
2013-05-18 09:10:00,61.2,46.3,29.74,NE,45,3.1,3.1,58,0.00,,,0.00,VWS V14.01,2013-05-18 13:10:00,
2013-05-18 09:11:00,61.2,46.7,29.74,NE,45,3.6,3.6,59,0.00,,,0.00,VWS V14.01,2013-05-18 13:11:00,
2013-05-18 09:12:00,61.2,46.7,29.74,NE,45,1.1,1.1,59,0.00,,,0.00,VWS V14.01,2013-05-18 13:12:00,
2013-05-18 09:13:00,61.2,46.3,29.74,ENE,68,3.4,3.4,58,0.00,,,0.00,VWS V14.01,2013-05-18 13:13:00,
2013-05-18 09:14:00,61.2,46.7,29.74,ENE,68,3.4,3.4,59,0.00,,,0.00,VWS V14.01,2013-05-18 13:14:00,
2013-05-18 09:15:00,61.2,46.3,29.74,NE,45,1.3,1.3,58,0.00,,,0.00,VWS V14.01,2013-05-18 13:15:00,
2013-05-18 09:16:00,61.2,46.3,29.74,NE,45,2.7,2.7,58,0.00,,,0.00,VWS V14.01,2013-05-18 13:16:00,
2013-05-18 09:17:00,61.2,46.3,29.74,NE,45,2.0,2.0,58,0.00,,,0.00,VWS V14.01,2013-05-18 13:17:00,
2013-05-18 09:18:00,61.2,46.3,29.74,NE,45,3.1,3.1,58,0.00,,,0.00,VWS V14.01,2013-05-18 13:18:00,
2013-05-18 09:19:00,61.3,46.5,29.74,ENE,68,1.3,1.3,58,0.00,,,0.00,VWS V14.01,2013-05-18 13:19:00,
2013-05-18 09:20:00,61.3,46.5,29.74,NE,45,2.0,2.0,58,0.00,,,0.00,VWS V14.01,2013-05-18 13:20:00,
2013-05-18 09:21:00,61.3,46.5,29.74,NE,45,0.0,0.0,58,0.00,,,0.00,VWS V14.01,2013-05-18 13:21:00,
2013-05-18 09:22:00,61.3,46.5,29.74,NE,45,0.0,0.0,58,0.00,,,0.00,VWS V14.01,2013-05-18 13:22:00,
2013-05-18 09:23:00,61.3,46.5,29.74,ENE,68,0.0,0.0,58,0.00,,,0.00,VWS V14.01,2013-05-18 13:23:00,
2013-05-18 09:24:00,61.3,46.5,29.74,NE,45,0.0,0.0,58,0.00,,,0.00,VWS V14.01,2013-05-18 13:24:00,
2013-05-18 09:25:00,61.3,46.5,29.74,NE,45,0.9,0.9,58,0.00,,,0.00,VWS V14.01,2013-05-18 13:25:00,
2013-05-18 09:26:00,61.5,47.1,29.74,SE,135,2.0,2.0,59,0.00,,,0.00,VWS V14.01,2013-05-18 13:26:00,
2013-05-18 09:27:00,61.5,47.1,29.74,East,90,2.5,2.5,59,0.00,,,0.00,VWS V14.01,2013-05-18 13:27:00,
2013-05-18 09:28:00,61.5,47.1,29.74,ENE,68,1.6,1.6,59,0.00,,,0.00,VWS V14.01,2013-05-18 13:28:00,
2013-05-18 09:29:00,61.5,47.1,29.74,East,90,0.0,0.0,59,0.00,,,0.00,VWS V14.01,2013-05-18 13:29:00,
2013-05-18 09:30:00,61.5,47.1,29.74,SE,135,3.4,3.4,59,0.00,,,0.00,VWS V14.01,2013-05-18 13:30:00,
2013-05-18 09:31:00,61.7,47.2,29.74,East,90,1.3,1.3,59,0.00,,,0.00,VWS V14.01,2013-05-18 13:31:00,
2013-05-18 09:32:00,61.7,47.2,29.74,East,90,2.9,2.9,59,0.00,,,0.00,VWS V14.01,2013-05-18 13:32:00,
2013-05-18 09:33:00,61.7,47.2,29.74,East,90,2.9,2.9,59,0.00,,,0.00,VWS V14.01,2013-05-18 13:33:00,
2013-05-18 09:34:00,61.9,47.0,29.74,ESE,112,2.7,2.7,58,0.00,,,0.00,VWS V14.01,2013-05-18 13:34:00,
2013-05-18 09:35:00,61.9,47.0,29.74,ESE,112,2.5,2.5,58,0.00,,,0.00,VWS V14.01,2013-05-18 13:35:00,
2013-05-18 09:36:00,61.9,47.0,29.74,SE,135,0.0,0.0,58,0.00,,,0.00,VWS V14.01,2013-05-18 13:36:00,
2013-05-18 09:37:00,61.9,47.4,29.74,SE,135,3.1,3.1,59,0.00,,,0.00,VWS V14.01,2013-05-18 13:37:00,
2013-05-18 09:38:00,61.9,47.0,29.74,ESE,112,1.6,1.6,58,0.00,,,0.00,VWS V14.01,2013-05-18 13:38:00,
2013-05-18 09:39:00,62.1,47.1,29.74,NE,45,2.5,2.5,58,0.00,,,0.00,VWS V14.01,2013-05-18 13:39:00,
2013-05-18 09:40:00,62.1,47.1,29.74,ENE,68,2.7,2.7,58,0.00,,,0.00,VWS V14.01,2013-05-18 13:40:00,
2013-05-18 09:41:00,62.1,47.1,29.74,NE,45,2.7,2.7,58,0.00,,,0.00,VWS V14.01,2013-05-18 13:41:00,
2013-05-18 09:42:00,62.1,47.1,29.74,NE,45,2.0,2.0,58,0.00,,,0.00,VWS V14.01,2013-05-18 13:42:00,
2013-05-18 09:43:00,62.1,47.1,29.74,NE,45,1.6,1.6,58,0.00,,,0.00,VWS V14.01,2013-05-18 13:43:00,
2013-05-18 09:44:00,62.2,47.3,29.74,NE,45,1.1,1.1,58,0.00,,,0.00,VWS V14.01,2013-05-18 13:44:00,
2013-05-18 09:45:00,62.2,47.3,29.74,NNE,22,2.7,2.7,58,0.00,,,0.00,VWS V14.01,2013-05-18 13:45:00,
2013-05-18 09:46:00,62.2,47.3,29.74,NE,45,2.2,2.2,58,0.00,,,0.00,VWS V14.01,2013-05-18 13:46:00,
2013-05-18 09:47:00,62.4,47.5,29.74,NE,45,0.0,0.0,58,0.00,,,0.00,VWS V14.01,2013-05-18 13:47:00,
2013-05-18 09:48:00,62.4,47.5,29.74,NE,45,2.7,2.7,58,0.00,,,0.00,VWS V14.01,2013-05-18 13:48:00,
2013-05-18 09:49:00,62.4,47.5,29.74,NE,45,1.6,1.6,58,0.00,,,0.00,VWS V14.01,2013-05-18 13:49:00,
2013-05-18 09:50:00,62.6,47.6,29.74,NNE,22,0.0,0.0,58,0.00,,,0.00,VWS V14.01,2013-05-18 13:50:00,
2013-05-18 09:51:00,62.6,47.6,29.74,NE,45,0.0,0.0,58,0.00,,,0.00,VWS V14.01,2013-05-18 13:51:00,
2013-05-18 09:52:00,62.6,47.6,29.74,NE,45,2.9,2.9,58,0.00,,,0.00,VWS V14.01,2013-05-18 13:52:00,
2013-05-18 09:53:00,63.0,48.4,29.74,SE,135,2.7,2.7,59,0.00,,,0.00,VWS V14.01,2013-05-18 13:53:00,
2013-05-18 09:54:00,63.0,48.4,29.74,South,180,0.0,0.0,59,0.00,,,0.00,VWS V14.01,2013-05-18 13:54:00,
2013-05-18 09:55:00,63.0,48.4,29.74,ESE,112,3.4,3.4,59,0.00,,,0.00,VWS V14.01,2013-05-18 13:55:00,
2013-05-18 09:56:00,63.1,48.6,29.74,SE,135,2.9,2.9,59,0.00,,,0.00,VWS V14.01,2013-05-18 13:56:00,
2013-05-18 09:57:00,63.1,48.1,29.74,WNW,292,2.0,2.0,58,0.00,,,0.00,VWS V14.01,2013-05-18 13:57:00,
2013-05-18 09:58:00,63.3,48.8,29.74,NE,45,3.1,3.1,59,0.00,,,0.00,VWS V14.01,2013-05-18 13:58:00,
2013-05-18 09:59:00,63.5,48.5,29.74,ENE,68,2.2,2.2,58,0.00,,,0.00,VWS V14.01,2013-05-18 13:59:00,
2013-05-18 10:00:00,63.5,48.5,29.74,ENE,68,3.4,3.4,58,0.00,,,0.00,VWS V14.01,2013-05-18 14:00:00,
2013-05-18 10:01:00,63.5,48.0,29.74,ENE,68,3.1,3.1,57,0.00,,,0.00,VWS V14.01,2013-05-18 14:01:00,
2013-05-18 10:02:00,63.7,48.2,29.74,ENE,68,2.5,2.5,57,0.00,,,0.00,VWS V14.01,2013-05-18 14:02:00,
2013-05-18 10:03:00,63.7,48.2,29.74,ENE,68,2.7,2.7,57,0.00,,,0.00,VWS V14.01,2013-05-18 14:03:00,
2013-05-18 10:04:00,63.7,47.7,29.74,ENE,68,2.9,2.9,56,0.00,,,0.00,VWS V14.01,2013-05-18 14:04:00,
2013-05-18 10:05:00,63.7,47.7,29.74,NW,315,0.0,0.0,56,0.00,,,0.00,VWS V14.01,2013-05-18 14:05:00,
2013-05-18 10:06:00,63.9,47.9,29.74,NNE,22,2.5,2.5,56,0.00,,,0.00,VWS V14.01,2013-05-18 14:06:00,
2013-05-18 10:07:00,63.9,47.9,29.74,NNE,22,2.2,2.2,56,0.00,,,0.00,VWS V14.01,2013-05-18 14:07:00,
2013-05-18 10:08:00,63.9,47.9,29.74,East,90,2.0,2.0,56,0.00,,,0.00,VWS V14.01,2013-05-18 14:08:00,
2013-05-18 10:09:00,64.0,48.0,29.74,NE,45,2.7,2.7,56,0.00,,,0.00,VWS V14.01,2013-05-18 14:09:00,
2013-05-18 10:10:00,64.0,48.0,29.74,ESE,112,0.9,0.9,56,0.00,,,0.00,VWS V14.01,2013-05-18 14:10:00,
2013-05-18 10:11:00,64.2,48.2,29.74,ESE,112,2.0,2.0,56,0.00,,,0.00,VWS V14.01,2013-05-18 14:11:00,
2013-05-18 10:12:00,64.2,48.7,29.74,NE,45,2.7,2.7,57,0.00,,,0.00,VWS V14.01,2013-05-18 14:12:00,
2013-05-18 10:13:00,64.4,48.4,29.74,NNE,22,1.6,1.6,56,0.00,,,0.00,VWS V14.01,2013-05-18 14:13:00,
2013-05-18 10:14:00,64.4,48.4,29.74,NE,45,5.4,5.4,56,0.00,,,0.00,VWS V14.01,2013-05-18 14:14:00,
2013-05-18 10:15:00,64.4,48.4,29.71,NE,45,3.4,3.4,56,0.00,,,0.00,VWS V14.01,2013-05-18 14:15:00,
2013-05-18 10:16:00,64.6,48.5,29.71,NE,45,3.8,3.8,56,0.00,,,0.00,VWS V14.01,2013-05-18 14:16:00,
2013-05-18 10:17:00,64.6,48.5,29.71,NE,45,2.5,2.5,56,0.00,,,0.00,VWS V14.01,2013-05-18 14:17:00,
2013-05-18 10:18:00,64.6,48.5,29.71,North,0,2.5,2.5,56,0.00,,,0.00,VWS V14.01,2013-05-18 14:18:00,
2013-05-18 10:19:00,64.6,48.5,29.71,NNE,22,3.4,3.4,56,0.00,,,0.00,VWS V14.01,2013-05-18 14:19:00,
2013-05-18 10:20:00,64.6,48.5,29.71,NE,45,5.8,5.8,56,0.00,,,0.00,VWS V14.01,2013-05-18 14:20:00,
2013-05-18 10:21:00,64.6,48.1,29.71,NE,45,3.8,3.8,55,0.00,,,0.00,VWS V14.01,2013-05-18 14:21:00,
2013-05-18 10:22:00,64.6,48.1,29.71,ESE,112,2.0,2.0,55,0.00,,,0.00,VWS V14.01,2013-05-18 14:22:00,
2013-05-18 10:23:00,64.6,48.1,29.71,ENE,68,2.9,2.9,55,0.00,,,0.00,VWS V14.01,2013-05-18 14:23:00,
2013-05-18 10:24:00,64.8,47.8,29.71,NE,45,3.6,3.6,54,0.00,,,0.00,VWS V14.01,2013-05-18 14:24:00,
2013-05-18 10:25:00,64.8,47.8,29.71,NNE,22,3.8,3.8,54,0.00,,,0.00,VWS V14.01,2013-05-18 14:25:00,
2013-05-18 10:26:00,64.8,47.8,29.71,NE,45,4.5,4.5,54,0.00,,,0.00,VWS V14.01,2013-05-18 14:26:00,
2013-05-18 10:27:00,64.8,48.2,29.71,NE,45,3.8,3.8,55,0.00,,,0.00,VWS V14.01,2013-05-18 14:27:00,
2013-05-18 10:28:00,64.6,48.1,29.71,NNE,22,3.6,3.6,55,0.00,,,0.00,VWS V14.01,2013-05-18 14:28:00,
2013-05-18 10:29:00,64.6,47.6,29.71,NE,45,4.5,4.5,54,0.00,,,0.00,VWS V14.01,2013-05-18 14:29:00,
2013-05-18 10:30:00,64.6,47.6,29.74,NE,45,3.6,3.6,54,0.00,,,0.00,VWS V14.01,2013-05-18 14:30:00,
2013-05-18 10:31:00,64.4,47.4,29.74,NE,45,4.3,4.3,54,0.00,,,0.00,VWS V14.01,2013-05-18 14:31:00,
2013-05-18 10:32:00,64.4,46.9,29.74,ENE,68,2.2,2.2,53,0.00,,,0.00,VWS V14.01,2013-05-18 14:32:00,
2013-05-18 10:33:00,64.4,46.9,29.74,ENE,68,4.0,4.0,53,0.00,,,0.00,VWS V14.01,2013-05-18 14:33:00,
2013-05-18 10:34:00,64.4,46.9,29.74,NE,45,2.9,2.9,53,0.00,,,0.00,VWS V14.01,2013-05-18 14:34:00,
2013-05-18 10:35:00,64.4,46.9,29.74,NE,45,4.3,4.3,53,0.00,,,0.00,VWS V14.01,2013-05-18 14:35:00,
2013-05-18 10:36:00,64.4,47.4,29.74,NE,45,3.8,3.8,54,0.00,,,0.00,VWS V14.01,2013-05-18 14:36:00,
2013-05-18 10:37:00,64.4,47.4,29.74,NNE,22,2.7,2.7,54,0.00,,,0.00,VWS V14.01,2013-05-18 14:37:00,
2013-05-18 10:38:00,64.4,47.4,29.74,ENE,68,2.7,2.7,54,0.00,,,0.00,VWS V14.01,2013-05-18 14:38:00,
2013-05-18 10:39:00,64.4,47.4,29.74,ENE,68,1.6,1.6,54,0.00,,,0.00,VWS V14.01,2013-05-18 14:39:00,
2013-05-18 10:40:00,64.4,47.4,29.74,ENE,68,0.0,0.0,54,0.00,,,0.00,VWS V14.01,2013-05-18 14:40:00,
2013-05-18 10:41:00,64.4,47.4,29.74,NE,45,1.3,1.3,54,0.00,,,0.00,VWS V14.01,2013-05-18 14:41:00,
2013-05-18 10:42:00,64.4,47.4,29.74,NE,45,2.5,2.5,54,0.00,,,0.00,VWS V14.01,2013-05-18 14:42:00,
2013-05-18 10:43:00,64.4,47.4,29.74,NE,45,0.0,0.0,54,0.00,,,0.00,VWS V14.01,2013-05-18 14:43:00,
2013-05-18 10:44:00,64.4,47.4,29.74,NE,45,2.2,2.2,54,0.00,,,0.00,VWS V14.01,2013-05-18 14:44:00,
2013-05-18 10:45:00,64.4,47.4,29.74,NE,45,1.1,1.1,54,0.00,,,0.00,VWS V14.01,2013-05-18 14:45:00,
2013-05-18 10:46:00,64.4,47.9,29.74,SE,135,1.1,1.1,55,0.00,,,0.00,VWS V14.01,2013-05-18 14:46:00,
2013-05-18 10:47:00,64.4,47.9,29.74,SE,135,0.9,0.9,55,0.00,,,0.00,VWS V14.01,2013-05-18 14:47:00,
2013-05-18 10:48:00,64.6,48.1,29.74,NNE,22,0.0,0.0,55,0.00,,,0.00,VWS V14.01,2013-05-18 14:48:00,
2013-05-18 10:49:00,64.6,48.5,29.74,NE,45,0.0,0.0,56,0.00,,,0.00,VWS V14.01,2013-05-18 14:49:00,
2013-05-18 10:50:00,64.6,48.1,29.74,NE,45,0.0,0.0,55,0.00,,,0.00,VWS V14.01,2013-05-18 14:50:00,
2013-05-18 10:51:00,64.8,48.2,29.74,SE,135,2.5,2.5,55,0.00,,,0.00,VWS V14.01,2013-05-18 14:51:00,
2013-05-18 10:52:00,64.8,48.2,29.74,SE,135,1.1,1.1,55,0.00,,,0.00,VWS V14.01,2013-05-18 14:52:00,
2013-05-18 10:53:00,64.8,48.2,29.74,ENE,68,2.0,2.0,55,0.00,,,0.00,VWS V14.01,2013-05-18 14:53:00,
2013-05-18 10:54:00,64.8,48.2,29.74,North,0,2.2,2.2,55,0.00,,,0.00,VWS V14.01,2013-05-18 14:54:00,
2013-05-18 10:55:00,64.9,47.9,29.74,ENE,68,0.0,0.0,54,0.00,,,0.00,VWS V14.01,2013-05-18 14:55:00,
2013-05-18 10:56:00,64.9,47.9,29.74,ENE,68,0.0,0.0,54,0.00,,,0.00,VWS V14.01,2013-05-18 14:56:00,
2013-05-18 10:57:00,64.9,47.9,29.74,NE,45,0.0,0.0,54,0.00,,,0.00,VWS V14.01,2013-05-18 14:57:00,
2013-05-18 10:58:00,64.9,47.9,29.74,NE,45,0.0,0.0,54,0.00,,,0.00,VWS V14.01,2013-05-18 14:58:00,
2013-05-18 10:59:00,64.9,47.9,29.74,NE,45,1.6,1.6,54,0.00,,,0.00,VWS V14.01,2013-05-18 14:59:00,
2013-05-18 11:00:00,65.1,48.1,29.71,NNE,22,1.3,1.3,54,0.00,,,0.00,VWS V14.01,2013-05-18 15:00:00,
2013-05-18 11:01:00,65.1,47.6,29.71,NNE,22,2.0,2.0,53,0.00,,,0.00,VWS V14.01,2013-05-18 15:01:00,
2013-05-18 11:02:00,65.1,48.1,29.71,NE,45,2.2,2.2,54,0.00,,,0.00,VWS V14.01,2013-05-18 15:02:00,
2013-05-18 11:03:00,65.3,48.2,29.71,ESE,112,1.6,1.6,54,0.00,,,0.00,VWS V14.01,2013-05-18 15:03:00,
2013-05-18 11:04:00,65.3,48.2,29.71,ESE,112,1.1,1.1,54,0.00,,,0.00,VWS V14.01,2013-05-18 15:04:00,
2013-05-18 11:05:00,65.3,48.2,29.71,ENE,68,0.0,0.0,54,0.00,,,0.00,VWS V14.01,2013-05-18 15:05:00,
2013-05-18 11:06:00,65.5,48.4,29.71,East,90,2.5,2.5,54,0.00,,,0.00,VWS V14.01,2013-05-18 15:06:00,
2013-05-18 11:07:00,65.5,48.4,29.71,East,90,2.5,2.5,54,0.00,,,0.00,VWS V14.01,2013-05-18 15:07:00,
2013-05-18 11:08:00,65.5,48.4,29.71,NE,45,0.0,0.0,54,0.00,,,0.00,VWS V14.01,2013-05-18 15:08:00,
2013-05-18 11:09:00,65.7,48.6,29.71,NNE,22,0.0,0.0,54,0.00,,,0.00,VWS V14.01,2013-05-18 15:09:00,
2013-05-18 11:10:00,65.7,48.6,29.71,SSE,158,2.2,2.2,54,0.00,,,0.00,VWS V14.01,2013-05-18 15:10:00,
2013-05-18 11:11:00,65.7,48.6,29.71,ESE,112,2.7,2.7,54,0.00,,,0.00,VWS V14.01,2013-05-18 15:11:00,
2013-05-18 11:12:00,65.8,48.8,29.71,NNE,22,0.0,0.0,54,0.00,,,0.00,VWS V14.01,2013-05-18 15:12:00,
2013-05-18 11:13:00,65.8,48.8,29.71,NE,45,0.0,0.0,54,0.00,,,0.00,VWS V14.01,2013-05-18 15:13:00,
2013-05-18 11:14:00,66.0,48.9,29.71,East,90,3.1,3.1,54,0.00,,,0.00,VWS V14.01,2013-05-18 15:14:00,
2013-05-18 11:15:00,66.0,48.9,29.71,SE,135,2.9,2.9,54,0.00,,,0.00,VWS V14.01,2013-05-18 15:15:00,
2013-05-18 11:16:00,66.2,48.6,29.71,East,90,1.3,1.3,53,0.00,,,0.00,VWS V14.01,2013-05-18 15:16:00,
2013-05-18 11:17:00,66.2,48.6,29.71,East,90,1.1,1.1,53,0.00,,,0.00,VWS V14.01,2013-05-18 15:17:00,
2013-05-18 11:18:00,66.2,48.6,29.71,SE,135,1.1,1.1,53,0.00,,,0.00,VWS V14.01,2013-05-18 15:18:00,
2013-05-18 11:19:00,66.4,48.8,29.71,SE,135,2.5,2.5,53,0.00,,,0.00,VWS V14.01,2013-05-18 15:19:00,
2013-05-18 11:20:00,66.4,48.2,29.71,SE,135,3.6,3.6,52,0.00,,,0.00,VWS V14.01,2013-05-18 15:20:00,
2013-05-18 11:21:00,66.4,48.2,29.71,SE,135,2.9,2.9,52,0.00,,,0.00,VWS V14.01,2013-05-18 15:21:00,
2013-05-18 11:22:00,66.6,48.9,29.71,SE,135,2.0,2.0,53,0.00,,,0.00,VWS V14.01,2013-05-18 15:22:00,
2013-05-18 11:23:00,66.6,48.9,29.71,SSE,158,2.5,2.5,53,0.00,,,0.00,VWS V14.01,2013-05-18 15:23:00,
2013-05-18 11:24:00,66.7,49.1,29.71,SE,135,2.5,2.5,53,0.00,,,0.00,VWS V14.01,2013-05-18 15:24:00,
2013-05-18 11:25:00,66.7,49.1,29.71,SSE,158,2.7,2.7,53,0.00,,,0.00,VWS V14.01,2013-05-18 15:25:00,
2013-05-18 11:26:00,66.7,48.6,29.71,NNE,22,2.5,2.5,52,0.00,,,0.00,VWS V14.01,2013-05-18 15:26:00,
2013-05-18 11:27:00,66.9,49.2,29.71,NE,45,5.4,5.4,53,0.00,,,0.00,VWS V14.01,2013-05-18 15:27:00,
2013-05-18 11:28:00,66.9,49.2,29.71,NE,45,3.6,3.6,53,0.00,,,0.00,VWS V14.01,2013-05-18 15:28:00,
2013-05-18 11:29:00,66.9,49.2,29.71,NE,45,3.1,3.1,53,0.00,,,0.00,VWS V14.01,2013-05-18 15:29:00,
2013-05-18 11:30:00,66.9,49.2,29.71,NE,45,2.0,2.0,53,0.00,,,0.00,VWS V14.01,2013-05-18 15:30:00,
2013-05-18 11:31:00,66.9,49.2,29.71,NE,45,2.5,2.5,53,0.00,,,0.00,VWS V14.01,2013-05-18 15:31:00,
2013-05-18 11:32:00,67.1,48.9,29.71,NE,45,1.6,1.6,52,0.00,,,0.00,VWS V14.01,2013-05-18 15:32:00,
2013-05-18 11:33:00,67.1,48.9,29.71,NE,45,2.0,2.0,52,0.00,,,0.00,VWS V14.01,2013-05-18 15:33:00,
2013-05-18 11:34:00,67.3,49.1,29.71,NNE,22,2.2,2.2,52,0.00,,,0.00,VWS V14.01,2013-05-18 15:34:00,
2013-05-18 11:35:00,67.3,49.6,29.71,NNE,22,2.2,2.2,53,0.00,,,0.00,VWS V14.01,2013-05-18 15:35:00,
2013-05-18 11:36:00,67.5,49.2,29.71,NNE,22,3.6,3.6,52,0.00,,,0.00,VWS V14.01,2013-05-18 15:36:00,
2013-05-18 11:37:00,67.5,49.2,29.71,ESE,112,4.5,4.5,52,0.00,,,0.00,VWS V14.01,2013-05-18 15:37:00,
2013-05-18 11:38:00,67.5,49.2,29.71,East,90,2.7,2.7,52,0.00,,,0.00,VWS V14.01,2013-05-18 15:38:00,
2013-05-18 11:39:00,67.6,49.4,29.71,NE,45,3.1,3.1,52,0.00,,,0.00,VWS V14.01,2013-05-18 15:39:00,
2013-05-18 11:40:00,67.6,49.4,29.71,ENE,68,3.8,3.8,52,0.00,,,0.00,VWS V14.01,2013-05-18 15:40:00,
2013-05-18 11:41:00,67.6,48.9,29.71,SE,135,0.9,0.9,51,0.00,,,0.00,VWS V14.01,2013-05-18 15:41:00,
2013-05-18 11:42:00,67.8,49.0,29.71,SSE,158,2.7,2.7,51,0.00,,,0.00,VWS V14.01,2013-05-18 15:42:00,
2013-05-18 11:43:00,67.8,49.6,29.71,ESE,112,2.9,2.9,52,0.00,,,0.00,VWS V14.01,2013-05-18 15:43:00,
2013-05-18 11:44:00,67.8,49.6,29.71,ESE,112,3.6,3.6,52,0.00,,,0.00,VWS V14.01,2013-05-18 15:44:00,
2013-05-18 11:45:00,67.8,49.6,29.71,ESE,112,4.0,4.0,52,0.00,,,0.00,VWS V14.01,2013-05-18 15:45:00,
2013-05-18 11:46:00,68.0,49.2,29.71,East,90,1.3,1.3,51,0.00,,,0.00,VWS V14.01,2013-05-18 15:46:00,
2013-05-18 11:47:00,68.0,49.2,29.71,NE,45,0.0,0.0,51,0.00,,,0.00,VWS V14.01,2013-05-18 15:47:00,
2013-05-18 11:48:00,68.0,49.2,29.71,NE,45,0.0,0.0,51,0.00,,,0.00,VWS V14.01,2013-05-18 15:48:00,
2013-05-18 11:49:00,68.0,48.7,29.71,NNW,338,0.0,0.0,50,0.00,,,0.00,VWS V14.01,2013-05-18 15:49:00,
2013-05-18 11:50:00,68.0,48.2,29.71,NNW,338,1.6,1.6,49,0.00,,,0.00,VWS V14.01,2013-05-18 15:50:00,
2013-05-18 11:51:00,68.0,48.7,29.71,NW,315,2.7,2.7,50,0.00,,,0.00,VWS V14.01,2013-05-18 15:51:00,
2013-05-18 11:52:00,68.0,49.2,29.71,NW,315,2.0,2.0,51,0.00,,,0.00,VWS V14.01,2013-05-18 15:52:00,
2013-05-18 11:53:00,68.0,48.7,29.71,NW,315,0.0,0.0,50,0.00,,,0.00,VWS V14.01,2013-05-18 15:53:00,
2013-05-18 11:54:00,68.0,48.7,29.71,East,90,0.0,0.0,50,0.00,,,0.00,VWS V14.01,2013-05-18 15:54:00,
2013-05-18 11:55:00,67.8,48.0,29.71,South,180,0.0,0.0,49,0.00,,,0.00,VWS V14.01,2013-05-18 15:55:00,
2013-05-18 11:56:00,67.8,48.0,29.71,SW,225,0.0,0.0,49,0.00,,,0.00,VWS V14.01,2013-05-18 15:56:00,
2013-05-18 11:57:00,68.0,48.2,29.71,West,270,1.6,1.6,49,0.00,,,0.00,VWS V14.01,2013-05-18 15:57:00,
2013-05-18 11:58:00,68.0,47.6,29.71,West,270,0.0,0.0,48,0.00,,,0.00,VWS V14.01,2013-05-18 15:58:00,
2013-05-18 11:59:00,68.0,47.6,29.71,SE,135,1.3,1.3,48,0.00,,,0.00,VWS V14.01,2013-05-18 15:59:00,
2013-05-18 12:00:00,68.0,48.2,29.68,NNE,22,0.0,0.0,49,0.00,,,0.00,VWS V14.01,2013-05-18 16:00:00,
2013-05-18 12:01:00,68.0,47.6,29.68,NNW,338,2.0,2.0,48,0.00,,,0.00,VWS V14.01,2013-05-18 16:01:00,
2013-05-18 12:02:00,68.0,48.2,29.68,East,90,0.0,0.0,49,0.00,,,0.00,VWS V14.01,2013-05-18 16:02:00,
2013-05-18 12:03:00,68.0,48.2,29.68,NE,45,0.0,0.0,49,0.00,,,0.00,VWS V14.01,2013-05-18 16:03:00,
2013-05-18 12:04:00,68.0,48.2,29.68,ESE,112,0.0,0.0,49,0.00,,,0.00,VWS V14.01,2013-05-18 16:04:00,
2013-05-18 12:05:00,68.0,48.2,29.68,ESE,112,5.4,5.4,49,0.00,,,0.00,VWS V14.01,2013-05-18 16:05:00,
2013-05-18 12:06:00,68.0,48.2,29.68,SSE,158,3.6,3.6,49,0.00,,,0.00,VWS V14.01,2013-05-18 16:06:00,
2013-05-18 12:07:00,68.0,48.2,29.68,SSW,202,3.4,3.4,49,0.00,,,0.00,VWS V14.01,2013-05-18 16:07:00,
2013-05-18 12:08:00,68.0,48.2,29.68,South,180,2.5,2.5,49,0.00,,,0.00,VWS V14.01,2013-05-18 16:08:00,
2013-05-18 12:09:00,68.0,48.2,29.68,South,180,3.1,3.1,49,0.00,,,0.00,VWS V14.01,2013-05-18 16:09:00,
2013-05-18 12:10:00,68.2,48.3,29.68,SSW,202,2.0,2.0,49,0.00,,,0.00,VWS V14.01,2013-05-18 16:10:00,
2013-05-18 12:11:00,68.2,48.3,29.68,SSW,202,1.6,1.6,49,0.00,,,0.00,VWS V14.01,2013-05-18 16:11:00,
2013-05-18 12:12:00,68.2,48.3,29.68,SSE,158,2.9,2.9,49,0.00,,,0.00,VWS V14.01,2013-05-18 16:12:00,
2013-05-18 12:13:00,68.2,48.3,29.68,SSW,202,0.9,0.9,49,0.00,,,0.00,VWS V14.01,2013-05-18 16:13:00,
2013-05-18 12:14:00,68.2,48.3,29.68,SE,135,0.0,0.0,49,0.00,,,0.00,VWS V14.01,2013-05-18 16:14:00,
2013-05-18 12:15:00,68.0,48.2,29.68,SE,135,2.5,2.5,49,0.00,,,0.00,VWS V14.01,2013-05-18 16:15:00,
2013-05-18 12:16:00,68.0,47.6,29.68,ESE,112,2.9,2.9,48,0.00,,,0.00,VWS V14.01,2013-05-18 16:16:00,
2013-05-18 12:17:00,68.0,47.6,29.68,ENE,68,0.0,0.0,48,0.00,,,0.00,VWS V14.01,2013-05-18 16:17:00,
2013-05-18 12:18:00,68.0,47.6,29.68,ENE,68,0.0,0.0,48,0.00,,,0.00,VWS V14.01,2013-05-18 16:18:00,
2013-05-18 12:19:00,68.0,48.2,29.68,SSW,202,1.6,1.6,49,0.00,,,0.00,VWS V14.01,2013-05-18 16:19:00,
2013-05-18 12:20:00,68.0,48.2,29.68,SSE,158,3.1,3.1,49,0.00,,,0.00,VWS V14.01,2013-05-18 16:20:00,
2013-05-18 12:21:00,68.0,48.2,29.68,South,180,2.0,2.0,49,0.00,,,0.00,VWS V14.01,2013-05-18 16:21:00,
2013-05-18 12:22:00,68.0,47.6,29.68,South,180,8.1,8.1,48,0.00,,,0.00,VWS V14.01,2013-05-18 16:22:00,
2013-05-18 12:23:00,68.0,47.0,29.68,SE,135,2.2,2.2,47,0.00,,,0.00,VWS V14.01,2013-05-18 16:23:00,
2013-05-18 12:24:00,68.0,47.0,29.68,South,180,3.1,3.1,47,0.00,,,0.00,VWS V14.01,2013-05-18 16:24:00,
2013-05-18 12:25:00,68.0,47.6,29.68,South,180,2.7,2.7,48,0.00,,,0.00,VWS V14.01,2013-05-18 16:25:00,
2013-05-18 12:26:00,68.0,47.6,29.68,South,180,3.1,3.1,48,0.00,,,0.00,VWS V14.01,2013-05-18 16:26:00,
2013-05-18 12:27:00,68.0,47.6,29.68,SSE,158,3.1,3.1,48,0.00,,,0.00,VWS V14.01,2013-05-18 16:27:00,
2013-05-18 12:28:00,68.0,47.6,29.68,SW,225,2.7,2.7,48,0.00,,,0.00,VWS V14.01,2013-05-18 16:28:00,
2013-05-18 12:29:00,68.0,47.6,29.68,South,180,4.3,4.3,48,0.00,,,0.00,VWS V14.01,2013-05-18 16:29:00,
2013-05-18 12:30:00,68.0,47.0,29.68,ESE,112,5.4,5.4,47,0.00,,,0.00,VWS V14.01,2013-05-18 16:30:00,
2013-05-18 12:31:00,68.0,47.0,29.68,WSW,248,3.4,3.4,47,0.00,,,0.00,VWS V14.01,2013-05-18 16:31:00,
2013-05-18 12:32:00,68.0,46.5,29.68,SSW,202,5.6,5.6,46,0.00,,,0.00,VWS V14.01,2013-05-18 16:32:00,
2013-05-18 12:33:00,68.0,45.9,29.68,SSW,202,8.7,8.7,45,0.00,,,0.00,VWS V14.01,2013-05-18 16:33:00,
2013-05-18 12:34:00,68.0,46.5,29.68,SSW,202,4.0,4.0,46,0.00,,,0.00,VWS V14.01,2013-05-18 16:34:00,
2013-05-18 12:35:00,68.0,46.5,29.68,SSW,202,3.1,3.1,46,0.00,,,0.00,VWS V14.01,2013-05-18 16:35:00,
2013-05-18 12:36:00,68.0,46.5,29.68,South,180,6.0,6.0,46,0.00,,,0.00,VWS V14.01,2013-05-18 16:36:00,
2013-05-18 12:37:00,68.0,46.5,29.68,SSE,158,4.9,4.9,46,0.00,,,0.00,VWS V14.01,2013-05-18 16:37:00,
2013-05-18 12:38:00,68.0,46.5,29.68,South,180,3.8,3.8,46,0.00,,,0.00,VWS V14.01,2013-05-18 16:38:00,
2013-05-18 12:39:00,68.0,46.5,29.68,South,180,8.5,8.5,46,0.00,,,0.00,VWS V14.01,2013-05-18 16:39:00,
2013-05-18 12:40:00,68.0,46.5,29.68,SW,225,6.0,6.0,46,0.00,,,0.00,VWS V14.01,2013-05-18 16:40:00,
2013-05-18 12:41:00,68.0,46.5,29.68,South,180,2.5,2.5,46,0.00,,,0.00,VWS V14.01,2013-05-18 16:41:00,
2013-05-18 12:42:00,68.0,46.5,29.68,South,180,2.0,2.0,46,0.00,,,0.00,VWS V14.01,2013-05-18 16:42:00,
2013-05-18 12:43:00,68.0,46.5,29.68,SSW,202,4.3,4.3,46,0.00,,,0.00,VWS V14.01,2013-05-18 16:43:00,
2013-05-18 12:44:00,68.0,46.5,29.68,WSW,248,2.7,2.7,46,0.00,,,0.00,VWS V14.01,2013-05-18 16:44:00,
2013-05-18 12:45:00,68.0,46.5,29.71,South,180,2.0,2.0,46,0.00,,,0.00,VWS V14.01,2013-05-18 16:45:00,
2013-05-18 12:46:00,68.0,46.5,29.71,SSW,202,7.4,7.4,46,0.00,,,0.00,VWS V14.01,2013-05-18 16:46:00,
2013-05-18 12:47:00,68.0,45.3,29.71,South,180,3.6,3.6,44,0.00,,,0.00,VWS V14.01,2013-05-18 16:47:00,
2013-05-18 12:48:00,67.8,45.1,29.71,SSE,158,2.7,2.7,44,0.00,,,0.00,VWS V14.01,2013-05-18 16:48:00,
2013-05-18 12:49:00,67.8,45.1,29.71,South,180,3.4,3.4,44,0.00,,,0.00,VWS V14.01,2013-05-18 16:49:00,
2013-05-18 12:50:00,67.8,45.7,29.71,South,180,4.9,4.9,45,0.00,,,0.00,VWS V14.01,2013-05-18 16:50:00,
2013-05-18 12:51:00,68.0,45.3,29.71,SSW,202,4.0,4.0,44,0.00,,,0.00,VWS V14.01,2013-05-18 16:51:00,
2013-05-18 12:52:00,68.0,45.3,29.71,WSW,248,3.8,3.8,44,0.00,,,0.00,VWS V14.01,2013-05-18 16:52:00,
2013-05-18 12:53:00,68.0,45.9,29.71,East,90,0.9,0.9,45,0.00,,,0.00,VWS V14.01,2013-05-18 16:53:00,
2013-05-18 12:54:00,67.8,45.7,29.71,South,180,3.4,3.4,45,0.00,,,0.00,VWS V14.01,2013-05-18 16:54:00,
2013-05-18 12:55:00,67.8,45.7,29.71,SSE,158,3.4,3.4,45,0.00,,,0.00,VWS V14.01,2013-05-18 16:55:00,
2013-05-18 12:56:00,67.8,45.7,29.71,South,180,5.6,5.6,45,0.00,,,0.00,VWS V14.01,2013-05-18 16:56:00,
2013-05-18 12:57:00,67.8,45.7,29.71,NNW,338,3.1,3.1,45,0.00,,,0.00,VWS V14.01,2013-05-18 16:57:00,
2013-05-18 12:58:00,67.8,45.7,29.71,South,180,7.8,7.8,45,0.00,,,0.00,VWS V14.01,2013-05-18 16:58:00,
2013-05-18 12:59:00,67.8,45.7,29.71,SSW,202,3.8,3.8,45,0.00,,,0.00,VWS V14.01,2013-05-18 16:59:00,
2013-05-18 13:00:00,67.8,45.1,29.68,SSW,202,0.9,0.9,44,0.00,,,0.00,VWS V14.01,2013-05-18 17:00:00,
2013-05-18 13:01:00,67.8,45.7,29.68,SSW,202,3.4,3.4,45,0.00,,,0.00,VWS V14.01,2013-05-18 17:01:00,
2013-05-18 13:02:00,67.8,45.7,29.68,SSW,202,4.0,4.0,45,0.00,,,0.00,VWS V14.01,2013-05-18 17:02:00,
2013-05-18 13:03:00,67.8,45.7,29.68,South,180,5.6,5.6,45,0.00,,,0.00,VWS V14.01,2013-05-18 17:03:00,
2013-05-18 13:04:00,67.6,45.6,29.68,SSW,202,1.1,1.1,45,0.00,,,0.00,VWS V14.01,2013-05-18 17:04:00,
2013-05-18 13:05:00,67.6,45.6,29.68,SSW,202,3.4,3.4,45,0.00,,,0.00,VWS V14.01,2013-05-18 17:05:00,
2013-05-18 13:06:00,67.6,45.6,29.68,SSW,202,3.4,3.4,45,0.00,,,0.00,VWS V14.01,2013-05-18 17:06:00,
2013-05-18 13:07:00,67.6,45.6,29.68,SW,225,3.4,3.4,45,0.00,,,0.00,VWS V14.01,2013-05-18 17:07:00,
2013-05-18 13:08:00,67.6,45.6,29.68,SSW,202,3.1,3.1,45,0.00,,,0.00,VWS V14.01,2013-05-18 17:08:00,
2013-05-18 13:09:00,67.6,45.6,29.68,SW,225,3.1,3.1,45,0.00,,,0.00,VWS V14.01,2013-05-18 17:09:00,
2013-05-18 13:10:00,67.6,45.6,29.68,SSW,202,2.5,2.5,45,0.00,,,0.00,VWS V14.01,2013-05-18 17:10:00,
2013-05-18 13:11:00,67.6,45.0,29.68,SSW,202,7.4,7.4,44,0.00,,,0.00,VWS V14.01,2013-05-18 17:11:00,
2013-05-18 13:12:00,67.6,45.0,29.68,South,180,5.4,5.4,44,0.00,,,0.00,VWS V14.01,2013-05-18 17:12:00,
2013-05-18 13:13:00,67.6,45.0,29.68,SSE,158,4.5,4.5,44,0.00,,,0.00,VWS V14.01,2013-05-18 17:13:00,
2013-05-18 13:14:00,67.6,45.6,29.68,South,180,3.8,3.8,45,0.00,,,0.00,VWS V14.01,2013-05-18 17:14:00,
2013-05-18 13:15:00,67.6,45.6,29.68,SSW,202,2.5,2.5,45,0.00,,,0.00,VWS V14.01,2013-05-18 17:15:00,
2013-05-18 13:16:00,67.6,45.6,29.68,SW,225,3.8,3.8,45,0.00,,,0.00,VWS V14.01,2013-05-18 17:16:00,
2013-05-18 13:17:00,67.6,45.6,29.68,South,180,2.7,2.7,45,0.00,,,0.00,VWS V14.01,2013-05-18 17:17:00,
2013-05-18 13:18:00,67.6,45.6,29.68,SW,225,2.0,2.0,45,0.00,,,0.00,VWS V14.01,2013-05-18 17:18:00,
2013-05-18 13:19:00,67.6,45.6,29.68,SSW,202,3.8,3.8,45,0.00,,,0.00,VWS V14.01,2013-05-18 17:19:00,
2013-05-18 13:20:00,67.6,45.6,29.68,WSW,248,5.8,5.8,45,0.00,,,0.00,VWS V14.01,2013-05-18 17:20:00,
2013-05-18 13:21:00,67.6,45.6,29.68,SSW,202,2.9,2.9,45,0.00,,,0.00,VWS V14.01,2013-05-18 17:21:00,
2013-05-18 13:22:00,67.6,45.6,29.68,South,180,2.0,2.0,45,0.00,,,0.00,VWS V14.01,2013-05-18 17:22:00,
2013-05-18 13:23:00,67.6,45.6,29.68,SW,225,3.6,3.6,45,0.00,,,0.00,VWS V14.01,2013-05-18 17:23:00,
2013-05-18 13:24:00,67.6,45.6,29.68,NE,45,3.4,3.4,45,0.00,,,0.00,VWS V14.01,2013-05-18 17:24:00,
2013-05-18 13:25:00,67.6,45.6,29.68,SSE,158,2.0,2.0,45,0.00,,,0.00,VWS V14.01,2013-05-18 17:25:00,
2013-05-18 13:26:00,67.6,46.1,29.68,SSW,202,5.4,5.4,46,0.00,,,0.00,VWS V14.01,2013-05-18 17:26:00,
2013-05-18 13:27:00,67.6,45.6,29.68,West,270,0.0,0.0,45,0.00,,,0.00,VWS V14.01,2013-05-18 17:27:00,
2013-05-18 13:28:00,67.6,45.6,29.68,SSW,202,1.1,1.1,45,0.00,,,0.00,VWS V14.01,2013-05-18 17:28:00,
2013-05-18 13:29:00,67.6,45.6,29.68,South,180,1.3,1.3,45,0.00,,,0.00,VWS V14.01,2013-05-18 17:29:00,
2013-05-18 13:30:00,67.6,45.6,29.68,South,180,0.9,0.9,45,0.00,,,0.00,VWS V14.01,2013-05-18 17:30:00,
2013-05-18 13:31:00,67.6,46.1,29.68,SSE,158,2.5,2.5,46,0.00,,,0.00,VWS V14.01,2013-05-18 17:31:00,
2013-05-18 13:32:00,67.6,46.1,29.68,West,270,2.7,2.7,46,0.00,,,0.00,VWS V14.01,2013-05-18 17:32:00,
2013-05-18 13:33:00,67.6,46.1,29.68,SSW,202,3.4,3.4,46,0.00,,,0.00,VWS V14.01,2013-05-18 17:33:00,
2013-05-18 13:34:00,67.6,46.1,29.68,SW,225,2.9,2.9,46,0.00,,,0.00,VWS V14.01,2013-05-18 17:34:00,
2013-05-18 13:35:00,67.6,46.1,29.68,WSW,248,0.9,0.9,46,0.00,,,0.00,VWS V14.01,2013-05-18 17:35:00,
2013-05-18 13:36:00,67.6,46.1,29.68,West,270,1.3,1.3,46,0.00,,,0.00,VWS V14.01,2013-05-18 17:36:00,
2013-05-18 13:37:00,67.6,46.1,29.68,South,180,1.3,1.3,46,0.00,,,0.00,VWS V14.01,2013-05-18 17:37:00,
2013-05-18 13:38:00,67.6,46.1,29.68,SSE,158,2.7,2.7,46,0.00,,,0.00,VWS V14.01,2013-05-18 17:38:00,
2013-05-18 13:39:00,67.6,46.1,29.68,WSW,248,1.6,1.6,46,0.00,,,0.00,VWS V14.01,2013-05-18 17:39:00,
2013-05-18 13:40:00,67.6,46.1,29.68,SSW,202,2.0,2.0,46,0.00,,,0.00,VWS V14.01,2013-05-18 17:40:00,
2013-05-18 13:41:00,67.6,46.7,29.68,South,180,4.9,4.9,47,0.00,,,0.00,VWS V14.01,2013-05-18 17:41:00,
2013-05-18 13:42:00,67.6,46.7,29.68,ESE,112,4.9,4.9,47,0.00,,,0.00,VWS V14.01,2013-05-18 17:42:00,
2013-05-18 13:43:00,67.6,46.7,29.68,SW,225,3.8,3.8,47,0.00,,,0.00,VWS V14.01,2013-05-18 17:43:00,
2013-05-18 13:44:00,67.6,46.7,29.68,SE,135,2.9,2.9,47,0.00,,,0.00,VWS V14.01,2013-05-18 17:44:00,
2013-05-18 13:45:00,67.6,46.7,29.68,South,180,1.6,1.6,47,0.00,,,0.00,VWS V14.01,2013-05-18 17:45:00,
2013-05-18 13:46:00,67.6,46.7,29.68,South,180,3.4,3.4,47,0.00,,,0.00,VWS V14.01,2013-05-18 17:46:00,
2013-05-18 13:47:00,67.8,46.9,29.68,SSW,202,3.6,3.6,47,0.00,,,0.00,VWS V14.01,2013-05-18 17:47:00,
2013-05-18 13:48:00,67.8,46.9,29.68,South,180,4.7,4.7,47,0.00,,,0.00,VWS V14.01,2013-05-18 17:48:00,
2013-05-18 13:49:00,67.8,46.3,29.68,SSW,202,4.9,4.9,46,0.00,,,0.00,VWS V14.01,2013-05-18 17:49:00,
2013-05-18 13:50:00,67.8,46.3,29.68,SSE,158,4.0,4.0,46,0.00,,,0.00,VWS V14.01,2013-05-18 17:50:00,
2013-05-18 13:51:00,67.8,46.3,29.68,SSW,202,2.9,2.9,46,0.00,,,0.00,VWS V14.01,2013-05-18 17:51:00,
2013-05-18 13:52:00,67.8,46.9,29.68,South,180,0.0,0.0,47,0.00,,,0.00,VWS V14.01,2013-05-18 17:52:00,
2013-05-18 13:53:00,68.0,47.0,29.68,SSW,202,3.6,3.6,47,0.00,,,0.00,VWS V14.01,2013-05-18 17:53:00,
2013-05-18 13:54:00,68.0,46.5,29.68,South,180,2.7,2.7,46,0.00,,,0.00,VWS V14.01,2013-05-18 17:54:00,
2013-05-18 13:55:00,68.0,46.5,29.68,SSW,202,2.5,2.5,46,0.00,,,0.00,VWS V14.01,2013-05-18 17:55:00,
2013-05-18 13:56:00,68.2,47.2,29.68,South,180,2.0,2.0,47,0.00,,,0.00,VWS V14.01,2013-05-18 17:56:00,
2013-05-18 13:57:00,68.2,47.2,29.68,SSW,202,1.3,1.3,47,0.00,,,0.00,VWS V14.01,2013-05-18 17:57:00,
2013-05-18 13:58:00,68.2,47.2,29.68,SE,135,2.2,2.2,47,0.00,,,0.00,VWS V14.01,2013-05-18 17:58:00,
2013-05-18 13:59:00,68.2,47.2,29.68,South,180,1.3,1.3,47,0.00,,,0.00,VWS V14.01,2013-05-18 17:59:00,
2013-05-18 14:00:00,68.2,47.2,29.68,WNW,292,0.0,0.0,47,0.00,,,0.00,VWS V14.01,2013-05-18 18:00:00,
2013-05-18 14:01:00,68.4,47.4,29.68,SSW,202,3.6,3.6,47,0.00,,,0.00,VWS V14.01,2013-05-18 18:01:00,
2013-05-18 14:02:00,68.4,47.4,29.68,SE,135,2.0,2.0,47,0.00,,,0.00,VWS V14.01,2013-05-18 18:02:00,
2013-05-18 14:03:00,68.4,47.4,29.68,SSW,202,5.6,5.6,47,0.00,,,0.00,VWS V14.01,2013-05-18 18:03:00,
2013-05-18 14:04:00,68.5,47.5,29.68,ENE,68,1.1,1.1,47,0.00,,,0.00,VWS V14.01,2013-05-18 18:04:00,
2013-05-18 14:05:00,68.5,47.5,29.68,East,90,1.1,1.1,47,0.00,,,0.00,VWS V14.01,2013-05-18 18:05:00,
2013-05-18 14:06:00,68.5,47.5,29.68,SSE,158,3.8,3.8,47,0.00,,,0.00,VWS V14.01,2013-05-18 18:06:00,
2013-05-18 14:07:00,68.5,47.5,29.68,WSW,248,3.6,3.6,47,0.00,,,0.00,VWS V14.01,2013-05-18 18:07:00,
2013-05-18 14:08:00,68.7,47.7,29.68,SSW,202,5.4,5.4,47,0.00,,,0.00,VWS V14.01,2013-05-18 18:08:00,
2013-05-18 14:09:00,68.7,48.3,29.68,South,180,3.8,3.8,48,0.00,,,0.00,VWS V14.01,2013-05-18 18:09:00,
2013-05-18 14:10:00,68.7,47.7,29.68,SE,135,4.7,4.7,47,0.00,,,0.00,VWS V14.01,2013-05-18 18:10:00,
2013-05-18 14:11:00,68.7,48.3,29.68,South,180,5.4,5.4,48,0.00,,,0.00,VWS V14.01,2013-05-18 18:11:00,
2013-05-18 14:12:00,68.9,47.9,29.68,South,180,6.0,6.0,47,0.00,,,0.00,VWS V14.01,2013-05-18 18:12:00,
2013-05-18 14:13:00,68.9,47.9,29.68,SSW,202,5.6,5.6,47,0.00,,,0.00,VWS V14.01,2013-05-18 18:13:00,
2013-05-18 14:14:00,68.9,47.9,29.68,SE,135,4.9,4.9,47,0.00,,,0.00,VWS V14.01,2013-05-18 18:14:00,
2013-05-18 14:15:00,69.1,48.0,29.65,SSW,202,4.9,4.9,47,0.00,,,0.00,VWS V14.01,2013-05-18 18:15:00,
2013-05-18 14:16:00,69.1,48.6,29.65,South,180,3.8,3.8,48,0.00,,,0.00,VWS V14.01,2013-05-18 18:16:00,
2013-05-18 14:17:00,69.1,48.6,29.65,SSE,158,5.8,5.8,48,0.00,,,0.00,VWS V14.01,2013-05-18 18:17:00,
2013-05-18 14:18:00,69.1,48.6,29.65,South,180,4.5,4.5,48,0.00,,,0.00,VWS V14.01,2013-05-18 18:18:00,
2013-05-18 14:19:00,69.3,48.2,29.65,SSE,158,2.9,2.9,47,0.00,,,0.00,VWS V14.01,2013-05-18 18:19:00,
2013-05-18 14:20:00,69.3,48.8,29.65,SE,135,5.8,5.8,48,0.00,,,0.00,VWS V14.01,2013-05-18 18:20:00,
2013-05-18 14:21:00,69.4,48.9,29.65,South,180,6.5,6.5,48,0.00,,,0.00,VWS V14.01,2013-05-18 18:21:00,
2013-05-18 14:22:00,69.4,48.3,29.65,West,270,4.7,4.7,47,0.00,,,0.00,VWS V14.01,2013-05-18 18:22:00,
2013-05-18 14:23:00,69.4,47.8,29.65,SSW,202,6.0,6.0,46,0.00,,,0.00,VWS V14.01,2013-05-18 18:23:00,
2013-05-18 14:24:00,69.4,47.8,29.65,South,180,3.8,3.8,46,0.00,,,0.00,VWS V14.01,2013-05-18 18:24:00,
2013-05-18 14:25:00,69.4,48.3,29.65,SSE,158,2.0,2.0,47,0.00,,,0.00,VWS V14.01,2013-05-18 18:25:00,
2013-05-18 14:26:00,69.4,48.9,29.65,SSE,158,3.1,3.1,48,0.00,,,0.00,VWS V14.01,2013-05-18 18:26:00,
2013-05-18 14:27:00,69.4,48.3,29.65,SE,135,2.9,2.9,47,0.00,,,0.00,VWS V14.01,2013-05-18 18:27:00,
2013-05-18 14:28:00,69.4,48.9,29.65,WSW,248,2.2,2.2,48,0.00,,,0.00,VWS V14.01,2013-05-18 18:28:00,
2013-05-18 14:29:00,69.6,49.1,29.65,South,180,2.0,2.0,48,0.00,,,0.00,VWS V14.01,2013-05-18 18:29:00,
2013-05-18 14:30:00,69.6,49.1,29.65,East,90,2.5,2.5,48,0.00,,,0.00,VWS V14.01,2013-05-18 18:30:00,
2013-05-18 14:31:00,69.6,49.1,29.65,SW,225,2.0,2.0,48,0.00,,,0.00,VWS V14.01,2013-05-18 18:31:00,
2013-05-18 14:32:00,69.6,49.1,29.65,SE,135,7.6,7.6,48,0.00,,,0.00,VWS V14.01,2013-05-18 18:32:00,
2013-05-18 14:33:00,69.6,49.1,29.65,SSW,202,4.9,4.9,48,0.00,,,0.00,VWS V14.01,2013-05-18 18:33:00,
2013-05-18 14:34:00,69.6,49.1,29.65,SSE,158,3.6,3.6,48,0.00,,,0.00,VWS V14.01,2013-05-18 18:34:00,
2013-05-18 14:35:00,69.6,49.1,29.65,SE,135,3.4,3.4,48,0.00,,,0.00,VWS V14.01,2013-05-18 18:35:00,
2013-05-18 14:36:00,69.4,48.9,29.65,SE,135,1.1,1.1,48,0.00,,,0.00,VWS V14.01,2013-05-18 18:36:00,
2013-05-18 14:37:00,69.4,48.9,29.65,SSE,158,4.0,4.0,48,0.00,,,0.00,VWS V14.01,2013-05-18 18:37:00,
2013-05-18 14:38:00,69.4,48.3,29.65,WSW,248,4.3,4.3,47,0.00,,,0.00,VWS V14.01,2013-05-18 18:38:00,
2013-05-18 14:39:00,69.4,48.3,29.65,SSE,158,4.0,4.0,47,0.00,,,0.00,VWS V14.01,2013-05-18 18:39:00,
2013-05-18 14:40:00,69.3,48.2,29.65,South,180,2.7,2.7,47,0.00,,,0.00,VWS V14.01,2013-05-18 18:40:00,
2013-05-18 14:41:00,69.3,48.2,29.65,ENE,68,1.3,1.3,47,0.00,,,0.00,VWS V14.01,2013-05-18 18:41:00,
2013-05-18 14:42:00,69.3,48.2,29.65,South,180,1.1,1.1,47,0.00,,,0.00,VWS V14.01,2013-05-18 18:42:00,
2013-05-18 14:43:00,69.1,48.0,29.65,ESE,112,2.9,2.9,47,0.00,,,0.00,VWS V14.01,2013-05-18 18:43:00,
2013-05-18 14:44:00,69.1,48.0,29.65,SE,135,1.3,1.3,47,0.00,,,0.00,VWS V14.01,2013-05-18 18:44:00,
2013-05-18 14:45:00,69.1,48.0,29.68,South,180,4.0,4.0,47,0.00,,,0.00,VWS V14.01,2013-05-18 18:45:00,
2013-05-18 14:46:00,69.1,48.6,29.68,SSW,202,2.5,2.5,48,0.00,,,0.00,VWS V14.01,2013-05-18 18:46:00,
2013-05-18 14:47:00,69.1,48.6,29.68,SW,225,1.6,1.6,48,0.00,,,0.00,VWS V14.01,2013-05-18 18:47:00,
2013-05-18 14:48:00,68.9,47.9,29.68,SE,135,2.7,2.7,47,0.00,,,0.00,VWS V14.01,2013-05-18 18:48:00,
2013-05-18 14:49:00,68.9,47.9,29.68,South,180,2.5,2.5,47,0.00,,,0.00,VWS V14.01,2013-05-18 18:49:00,
2013-05-18 14:50:00,68.9,48.4,29.68,NE,45,0.9,0.9,48,0.00,,,0.00,VWS V14.01,2013-05-18 18:50:00,
2013-05-18 14:51:00,68.9,48.4,29.68,South,180,1.3,1.3,48,0.00,,,0.00,VWS V14.01,2013-05-18 18:51:00,
2013-05-18 14:52:00,68.9,48.4,29.68,ESE,112,0.0,0.0,48,0.00,,,0.00,VWS V14.01,2013-05-18 18:52:00,
2013-05-18 14:53:00,68.9,48.4,29.68,SE,135,2.0,2.0,48,0.00,,,0.00,VWS V14.01,2013-05-18 18:53:00,
2013-05-18 14:54:00,68.9,48.4,29.68,South,180,3.1,3.1,48,0.00,,,0.00,VWS V14.01,2013-05-18 18:54:00,
2013-05-18 14:55:00,68.9,48.4,29.68,NE,45,0.0,0.0,48,0.00,,,0.00,VWS V14.01,2013-05-18 18:55:00,
2013-05-18 14:56:00,68.9,48.4,29.68,SSE,158,3.8,3.8,48,0.00,,,0.00,VWS V14.01,2013-05-18 18:56:00,
2013-05-18 14:57:00,68.7,48.3,29.68,ESE,112,2.9,2.9,48,0.00,,,0.00,VWS V14.01,2013-05-18 18:57:00,
2013-05-18 14:58:00,68.7,48.3,29.68,SSE,158,4.9,4.9,48,0.00,,,0.00,VWS V14.01,2013-05-18 18:58:00,
2013-05-18 14:59:00,68.7,48.3,29.68,South,180,3.8,3.8,48,0.00,,,0.00,VWS V14.01,2013-05-18 18:59:00,
2013-05-18 15:00:00,68.7,48.3,29.65,South,180,4.0,4.0,48,0.00,,,0.00,VWS V14.01,2013-05-18 19:00:00,
2013-05-18 15:01:00,68.7,48.3,29.65,West,270,2.9,2.9,48,0.00,,,0.00,VWS V14.01,2013-05-18 19:01:00,
2013-05-18 15:02:00,68.7,48.3,29.65,SSW,202,1.1,1.1,48,0.00,,,0.00,VWS V14.01,2013-05-18 19:02:00,
2013-05-18 15:03:00,68.7,47.7,29.65,South,180,2.9,2.9,47,0.00,,,0.00,VWS V14.01,2013-05-18 19:03:00,
2013-05-18 15:04:00,68.7,48.3,29.65,WSW,248,0.9,0.9,48,0.00,,,0.00,VWS V14.01,2013-05-18 19:04:00,
2013-05-18 15:05:00,68.7,48.3,29.65,SE,135,3.6,3.6,48,0.00,,,0.00,VWS V14.01,2013-05-18 19:05:00,
2013-05-18 15:06:00,68.7,48.3,29.65,SSW,202,2.5,2.5,48,0.00,,,0.00,VWS V14.01,2013-05-18 19:06:00,
2013-05-18 15:07:00,68.5,48.1,29.65,SSW,202,3.4,3.4,48,0.00,,,0.00,VWS V14.01,2013-05-18 19:07:00,
2013-05-18 15:08:00,68.5,48.1,29.65,SSW,202,2.9,2.9,48,0.00,,,0.00,VWS V14.01,2013-05-18 19:08:00,
2013-05-18 15:09:00,68.5,48.1,29.65,South,180,2.7,2.7,48,0.00,,,0.00,VWS V14.01,2013-05-18 19:09:00,
2013-05-18 15:10:00,68.5,48.1,29.65,SSE,158,1.3,1.3,48,0.00,,,0.00,VWS V14.01,2013-05-18 19:10:00,
2013-05-18 15:11:00,68.5,48.1,29.65,NNE,22,2.9,2.9,48,0.00,,,0.00,VWS V14.01,2013-05-18 19:11:00,
2013-05-18 15:12:00,68.5,48.1,29.65,South,180,5.8,5.8,48,0.00,,,0.00,VWS V14.01,2013-05-18 19:12:00,
2013-05-18 15:13:00,68.5,48.1,29.65,SSE,158,2.9,2.9,48,0.00,,,0.00,VWS V14.01,2013-05-18 19:13:00,
2013-05-18 15:14:00,68.5,48.1,29.65,SSW,202,3.1,3.1,48,0.00,,,0.00,VWS V14.01,2013-05-18 19:14:00,
2013-05-18 15:15:00,68.5,48.6,29.65,South,180,2.9,2.9,49,0.00,,,0.00,VWS V14.01,2013-05-18 19:15:00,
2013-05-18 15:16:00,68.5,48.1,29.65,South,180,2.9,2.9,48,0.00,,,0.00,VWS V14.01,2013-05-18 19:16:00,
2013-05-18 15:17:00,68.5,48.1,29.65,SE,135,2.5,2.5,48,0.00,,,0.00,VWS V14.01,2013-05-18 19:17:00,
2013-05-18 15:18:00,68.5,48.1,29.65,SE,135,2.9,2.9,48,0.00,,,0.00,VWS V14.01,2013-05-18 19:18:00,
2013-05-18 15:19:00,68.5,48.6,29.65,SSE,158,2.0,2.0,49,0.00,,,0.00,VWS V14.01,2013-05-18 19:19:00,
2013-05-18 15:20:00,68.5,48.6,29.65,NE,45,2.9,2.9,49,0.00,,,0.00,VWS V14.01,2013-05-18 19:20:00,
2013-05-18 15:21:00,68.5,48.6,29.65,SSW,202,2.9,2.9,49,0.00,,,0.00,VWS V14.01,2013-05-18 19:21:00,
2013-05-18 15:22:00,68.5,48.6,29.65,SE,135,2.7,2.7,49,0.00,,,0.00,VWS V14.01,2013-05-18 19:22:00,
2013-05-18 15:23:00,68.4,48.5,29.65,SSW,202,2.9,2.9,49,0.00,,,0.00,VWS V14.01,2013-05-18 19:23:00,
2013-05-18 15:24:00,68.4,48.5,29.65,SSW,202,2.0,2.0,49,0.00,,,0.00,VWS V14.01,2013-05-18 19:24:00,
2013-05-18 15:25:00,68.4,48.5,29.65,ESE,112,3.8,3.8,49,0.00,,,0.00,VWS V14.01,2013-05-18 19:25:00,
2013-05-18 15:26:00,68.4,48.5,29.65,WSW,248,2.0,2.0,49,0.00,,,0.00,VWS V14.01,2013-05-18 19:26:00,
2013-05-18 15:27:00,68.4,48.5,29.65,South,180,2.7,2.7,49,0.00,,,0.00,VWS V14.01,2013-05-18 19:27:00,
2013-05-18 15:28:00,68.4,49.0,29.65,SSE,158,2.9,2.9,50,0.00,,,0.00,VWS V14.01,2013-05-18 19:28:00,
2013-05-18 15:29:00,68.4,49.0,29.65,SSW,202,2.9,2.9,50,0.00,,,0.00,VWS V14.01,2013-05-18 19:29:00,
2013-05-18 15:30:00,68.4,49.0,29.65,South,180,3.1,3.1,50,0.00,,,0.00,VWS V14.01,2013-05-18 19:30:00,
2013-05-18 15:31:00,68.4,49.0,29.65,SSE,158,3.8,3.8,50,0.00,,,0.00,VWS V14.01,2013-05-18 19:31:00,
2013-05-18 15:32:00,68.4,49.0,29.65,SSE,158,1.1,1.1,50,0.00,,,0.00,VWS V14.01,2013-05-18 19:32:00,
2013-05-18 15:33:00,68.2,48.8,29.65,SSE,158,2.9,2.9,50,0.00,,,0.00,VWS V14.01,2013-05-18 19:33:00,
2013-05-18 15:34:00,68.2,48.8,29.65,SSE,158,3.4,3.4,50,0.00,,,0.00,VWS V14.01,2013-05-18 19:34:00,
2013-05-18 15:35:00,68.2,48.8,29.65,SSE,158,1.3,1.3,50,0.00,,,0.00,VWS V14.01,2013-05-18 19:35:00,
2013-05-18 15:36:00,68.2,48.8,29.65,South,180,1.6,1.6,50,0.00,,,0.00,VWS V14.01,2013-05-18 19:36:00,
2013-05-18 15:37:00,68.2,48.8,29.65,SSE,158,4.3,4.3,50,0.00,,,0.00,VWS V14.01,2013-05-18 19:37:00,
2013-05-18 15:38:00,68.2,48.8,29.65,South,180,3.6,3.6,50,0.00,,,0.00,VWS V14.01,2013-05-18 19:38:00,
2013-05-18 15:39:00,68.2,48.8,29.65,South,180,3.4,3.4,50,0.00,,,0.00,VWS V14.01,2013-05-18 19:39:00,
2013-05-18 15:40:00,68.2,48.8,29.65,SSW,202,3.1,3.1,50,0.00,,,0.00,VWS V14.01,2013-05-18 19:40:00,
2013-05-18 15:41:00,68.2,48.8,29.65,SE,135,2.5,2.5,50,0.00,,,0.00,VWS V14.01,2013-05-18 19:41:00,
2013-05-18 15:42:00,68.0,48.7,29.65,South,180,2.0,2.0,50,0.00,,,0.00,VWS V14.01,2013-05-18 19:42:00,
2013-05-18 15:43:00,68.0,48.7,29.65,SSW,202,0.0,0.0,50,0.00,,,0.00,VWS V14.01,2013-05-18 19:43:00,
2013-05-18 15:44:00,68.0,48.7,29.65,SSE,158,3.8,3.8,50,0.00,,,0.00,VWS V14.01,2013-05-18 19:44:00,
2013-05-18 15:45:00,68.0,49.2,29.68,SE,135,2.2,2.2,51,0.00,,,0.00,VWS V14.01,2013-05-18 19:45:00,
2013-05-18 15:46:00,68.0,49.2,29.68,SSW,202,5.8,5.8,51,0.00,,,0.00,VWS V14.01,2013-05-18 19:46:00,
2013-05-18 15:47:00,68.0,48.7,29.68,SSW,202,2.7,2.7,50,0.00,,,0.00,VWS V14.01,2013-05-18 19:47:00,
2013-05-18 15:48:00,68.0,48.7,29.68,SSE,158,3.6,3.6,50,0.00,,,0.00,VWS V14.01,2013-05-18 19:48:00,
2013-05-18 15:49:00,68.0,49.2,29.68,SSW,202,4.0,4.0,51,0.00,,,0.00,VWS V14.01,2013-05-18 19:49:00,
2013-05-18 15:50:00,68.0,49.2,29.68,SSE,158,3.8,3.8,51,0.00,,,0.00,VWS V14.01,2013-05-18 19:50:00,
2013-05-18 15:51:00,68.0,49.2,29.68,SW,225,2.7,2.7,51,0.00,,,0.00,VWS V14.01,2013-05-18 19:51:00,
2013-05-18 15:52:00,68.0,48.7,29.68,SSE,158,2.5,2.5,50,0.00,,,0.00,VWS V14.01,2013-05-18 19:52:00,
2013-05-18 15:53:00,68.0,48.7,29.68,WSW,248,0.0,0.0,50,0.00,,,0.00,VWS V14.01,2013-05-18 19:53:00,
2013-05-18 15:54:00,68.0,48.7,29.68,SSW,202,3.4,3.4,50,0.00,,,0.00,VWS V14.01,2013-05-18 19:54:00,
2013-05-18 15:55:00,68.0,48.7,29.68,SSE,158,2.7,2.7,50,0.00,,,0.00,VWS V14.01,2013-05-18 19:55:00,
2013-05-18 15:56:00,68.0,48.7,29.68,SW,225,0.0,0.0,50,0.00,,,0.00,VWS V14.01,2013-05-18 19:56:00,
2013-05-18 15:57:00,68.0,48.7,29.68,SSE,158,2.2,2.2,50,0.00,,,0.00,VWS V14.01,2013-05-18 19:57:00,
2013-05-18 15:58:00,68.0,49.2,29.68,SSE,158,0.9,0.9,51,0.00,,,0.00,VWS V14.01,2013-05-18 19:58:00,
2013-05-18 15:59:00,68.0,49.2,29.68,ESE,112,1.1,1.1,51,0.00,,,0.00,VWS V14.01,2013-05-18 19:59:00,
2013-05-18 16:00:00,68.0,49.2,29.68,SSE,158,0.0,0.0,51,0.00,,,0.00,VWS V14.01,2013-05-18 20:00:00,
2013-05-18 16:01:00,68.0,49.2,29.68,SE,135,0.0,0.0,51,0.00,,,0.00,VWS V14.01,2013-05-18 20:01:00,
2013-05-18 16:02:00,68.0,49.2,29.68,SE,135,1.1,1.1,51,0.00,,,0.00,VWS V14.01,2013-05-18 20:02:00,
2013-05-18 16:03:00,68.0,49.2,29.68,ENE,68,0.0,0.0,51,0.00,,,0.00,VWS V14.01,2013-05-18 20:03:00,
2013-05-18 16:04:00,68.0,49.7,29.68,SW,225,0.0,0.0,52,0.00,,,0.00,VWS V14.01,2013-05-18 20:04:00,
2013-05-18 16:05:00,68.0,49.7,29.68,SW,225,3.1,3.1,52,0.00,,,0.00,VWS V14.01,2013-05-18 20:05:00,
2013-05-18 16:06:00,68.0,49.2,29.68,SSW,202,2.9,2.9,51,0.00,,,0.00,VWS V14.01,2013-05-18 20:06:00,
2013-05-18 16:07:00,68.0,49.2,29.68,ESE,112,3.1,3.1,51,0.00,,,0.00,VWS V14.01,2013-05-18 20:07:00,
2013-05-18 16:08:00,68.0,49.2,29.68,SSW,202,3.8,3.8,51,0.00,,,0.00,VWS V14.01,2013-05-18 20:08:00,
2013-05-18 16:09:00,68.0,48.7,29.68,WSW,248,3.4,3.4,50,0.00,,,0.00,VWS V14.01,2013-05-18 20:09:00,
2013-05-18 16:10:00,68.0,48.7,29.68,SW,225,2.9,2.9,50,0.00,,,0.00,VWS V14.01,2013-05-18 20:10:00,
2013-05-18 16:11:00,68.0,48.7,29.68,South,180,2.2,2.2,50,0.00,,,0.00,VWS V14.01,2013-05-18 20:11:00,
2013-05-18 16:12:00,68.0,48.7,29.68,South,180,2.0,2.0,50,0.00,,,0.00,VWS V14.01,2013-05-18 20:12:00,
2013-05-18 16:13:00,68.0,48.7,29.68,South,180,1.3,1.3,50,0.00,,,0.00,VWS V14.01,2013-05-18 20:13:00,
2013-05-18 16:14:00,68.0,48.7,29.68,SSE,158,4.9,4.9,50,0.00,,,0.00,VWS V14.01,2013-05-18 20:14:00,
2013-05-18 16:15:00,68.0,49.2,29.68,South,180,3.6,3.6,51,0.00,,,0.00,VWS V14.01,2013-05-18 20:15:00,
2013-05-18 16:16:00,68.0,49.2,29.68,SSE,158,2.0,2.0,51,0.00,,,0.00,VWS V14.01,2013-05-18 20:16:00,
2013-05-18 16:17:00,68.2,49.4,29.68,SSE,158,4.9,4.9,51,0.00,,,0.00,VWS V14.01,2013-05-18 20:17:00,
2013-05-18 16:18:00,68.2,49.4,29.68,South,180,5.4,5.4,51,0.00,,,0.00,VWS V14.01,2013-05-18 20:18:00,
2013-05-18 16:19:00,68.2,49.4,29.68,South,180,3.6,3.6,51,0.00,,,0.00,VWS V14.01,2013-05-18 20:19:00,
2013-05-18 16:20:00,68.2,49.9,29.68,SW,225,1.6,1.6,52,0.00,,,0.00,VWS V14.01,2013-05-18 20:20:00,
2013-05-18 16:21:00,68.2,49.4,29.68,South,180,3.4,3.4,51,0.00,,,0.00,VWS V14.01,2013-05-18 20:21:00,
2013-05-18 16:22:00,68.4,50.1,29.68,South,180,3.4,3.4,52,0.00,,,0.00,VWS V14.01,2013-05-18 20:22:00,
2013-05-18 16:23:00,68.4,49.5,29.68,South,180,2.7,2.7,51,0.00,,,0.00,VWS V14.01,2013-05-18 20:23:00,
2013-05-18 16:24:00,68.4,50.1,29.68,South,180,3.6,3.6,52,0.00,,,0.00,VWS V14.01,2013-05-18 20:24:00,
2013-05-18 16:25:00,68.5,50.2,29.68,South,180,4.3,4.3,52,0.00,,,0.00,VWS V14.01,2013-05-18 20:25:00,
2013-05-18 16:26:00,68.5,50.2,29.68,South,180,3.1,3.1,52,0.00,,,0.00,VWS V14.01,2013-05-18 20:26:00,
2013-05-18 16:27:00,68.7,50.9,29.68,SSW,202,1.1,1.1,53,0.00,,,0.00,VWS V14.01,2013-05-18 20:27:00,
2013-05-18 16:28:00,68.7,50.9,29.68,SSW,202,2.0,2.0,53,0.00,,,0.00,VWS V14.01,2013-05-18 20:28:00,
2013-05-18 16:29:00,68.7,50.4,29.68,SE,135,3.4,3.4,52,0.00,,,0.00,VWS V14.01,2013-05-18 20:29:00,
2013-05-18 16:30:00,68.7,50.9,29.68,SSE,158,2.9,2.9,53,0.00,,,0.00,VWS V14.01,2013-05-18 20:30:00,
2013-05-18 16:31:00,68.9,51.1,29.68,SE,135,3.8,3.8,53,0.00,,,0.00,VWS V14.01,2013-05-18 20:31:00,
2013-05-18 16:32:00,68.9,51.1,29.68,SSE,158,2.9,2.9,53,0.00,,,0.00,VWS V14.01,2013-05-18 20:32:00,
2013-05-18 16:33:00,68.9,51.1,29.68,South,180,5.4,5.4,53,0.00,,,0.00,VWS V14.01,2013-05-18 20:33:00,
2013-05-18 16:34:00,68.9,50.6,29.68,SE,135,3.4,3.4,52,0.00,,,0.00,VWS V14.01,2013-05-18 20:34:00,
2013-05-18 16:35:00,68.9,50.6,29.68,SSW,202,3.6,3.6,52,0.00,,,0.00,VWS V14.01,2013-05-18 20:35:00,
2013-05-18 16:36:00,69.1,50.7,29.68,South,180,4.9,4.9,52,0.00,,,0.00,VWS V14.01,2013-05-18 20:36:00,
2013-05-18 16:37:00,69.1,50.7,29.68,South,180,2.9,2.9,52,0.00,,,0.00,VWS V14.01,2013-05-18 20:37:00,
2013-05-18 16:38:00,69.1,50.7,29.68,SSE,158,1.1,1.1,52,0.00,,,0.00,VWS V14.01,2013-05-18 20:38:00,
2013-05-18 16:39:00,69.3,50.9,29.68,SSE,158,4.0,4.0,52,0.00,,,0.00,VWS V14.01,2013-05-18 20:39:00,
2013-05-18 16:40:00,69.3,50.9,29.68,South,180,2.0,2.0,52,0.00,,,0.00,VWS V14.01,2013-05-18 20:40:00,
2013-05-18 16:41:00,69.3,50.9,29.68,SSE,158,6.0,6.0,52,0.00,,,0.00,VWS V14.01,2013-05-18 20:41:00,
2013-05-18 16:42:00,69.3,50.9,29.68,South,180,2.9,2.9,52,0.00,,,0.00,VWS V14.01,2013-05-18 20:42:00,
2013-05-18 16:43:00,69.4,50.5,29.68,SW,225,3.8,3.8,51,0.00,,,0.00,VWS V14.01,2013-05-18 20:43:00,
2013-05-18 16:44:00,69.4,50.5,29.68,SSE,158,1.6,1.6,51,0.00,,,0.00,VWS V14.01,2013-05-18 20:44:00,
2013-05-18 16:45:00,69.4,50.5,29.68,ESE,112,1.3,1.3,51,0.00,,,0.00,VWS V14.01,2013-05-18 20:45:00,
2013-05-18 16:46:00,69.4,51.1,29.68,SSE,158,3.1,3.1,52,0.00,,,0.00,VWS V14.01,2013-05-18 20:46:00,
2013-05-18 16:47:00,69.4,50.5,29.68,South,180,2.9,2.9,51,0.00,,,0.00,VWS V14.01,2013-05-18 20:47:00,
2013-05-18 16:48:00,69.4,50.0,29.68,SSE,158,0.0,0.0,50,0.00,,,0.00,VWS V14.01,2013-05-18 20:48:00,
2013-05-18 16:49:00,69.6,50.2,29.68,SSE,158,5.6,5.6,50,0.00,,,0.00,VWS V14.01,2013-05-18 20:49:00,
2013-05-18 16:50:00,69.6,50.7,29.68,South,180,2.7,2.7,51,0.00,,,0.00,VWS V14.01,2013-05-18 20:50:00,
2013-05-18 16:51:00,69.6,50.2,29.68,SSE,158,6.0,6.0,50,0.00,,,0.00,VWS V14.01,2013-05-18 20:51:00,
2013-05-18 16:52:00,69.6,50.2,29.68,SSE,158,2.7,2.7,50,0.00,,,0.00,VWS V14.01,2013-05-18 20:52:00,
2013-05-18 16:53:00,69.6,50.2,29.68,NE,45,2.0,2.0,50,0.00,,,0.00,VWS V14.01,2013-05-18 20:53:00,
2013-05-18 16:54:00,69.6,50.2,29.68,ESE,112,0.9,0.9,50,0.00,,,0.00,VWS V14.01,2013-05-18 20:54:00,
2013-05-18 16:55:00,69.6,50.2,29.68,ENE,68,3.8,3.8,50,0.00,,,0.00,VWS V14.01,2013-05-18 20:55:00,
2013-05-18 16:56:00,69.6,50.2,29.68,SW,225,2.9,2.9,50,0.00,,,0.00,VWS V14.01,2013-05-18 20:56:00,
2013-05-18 16:57:00,69.6,50.2,29.68,NNW,338,1.1,1.1,50,0.00,,,0.00,VWS V14.01,2013-05-18 20:57:00,
2013-05-18 16:58:00,69.6,50.2,29.68,NNW,338,0.0,0.0,50,0.00,,,0.00,VWS V14.01,2013-05-18 20:58:00,
2013-05-18 16:59:00,69.6,50.2,29.68,ESE,112,1.6,1.6,50,0.00,,,0.00,VWS V14.01,2013-05-18 20:59:00,
2013-05-18 17:00:00,69.6,50.2,29.68,SSE,158,2.5,2.5,50,0.00,,,0.00,VWS V14.01,2013-05-18 21:00:00,
2013-05-18 17:01:00,69.4,49.5,29.68,SSE,158,4.7,4.7,49,0.00,,,0.00,VWS V14.01,2013-05-18 21:01:00,
2013-05-18 17:02:00,69.4,50.0,29.68,SSE,158,3.4,3.4,50,0.00,,,0.00,VWS V14.01,2013-05-18 21:02:00,
2013-05-18 17:03:00,69.4,50.0,29.68,SSE,158,2.9,2.9,50,0.00,,,0.00,VWS V14.01,2013-05-18 21:03:00,
2013-05-18 17:04:00,69.4,50.0,29.68,WSW,248,2.0,2.0,50,0.00,,,0.00,VWS V14.01,2013-05-18 21:04:00,
2013-05-18 17:05:00,69.3,49.8,29.68,SSE,158,2.5,2.5,50,0.00,,,0.00,VWS V14.01,2013-05-18 21:05:00,
2013-05-18 17:06:00,69.3,49.8,29.68,SSW,202,6.9,6.9,50,0.00,,,0.00,VWS V14.01,2013-05-18 21:06:00,
2013-05-18 17:07:00,69.3,49.3,29.68,South,180,1.6,1.6,49,0.00,,,0.00,VWS V14.01,2013-05-18 21:07:00,
2013-05-18 17:08:00,69.3,49.8,29.68,ESE,112,2.7,2.7,50,0.00,,,0.00,VWS V14.01,2013-05-18 21:08:00,
2013-05-18 17:09:00,69.3,49.8,29.68,SSW,202,2.7,2.7,50,0.00,,,0.00,VWS V14.01,2013-05-18 21:09:00,
2013-05-18 17:10:00,69.1,49.7,29.68,SE,135,2.5,2.5,50,0.00,,,0.00,VWS V14.01,2013-05-18 21:10:00,
2013-05-18 17:11:00,69.1,49.7,29.68,South,180,1.1,1.1,50,0.00,,,0.00,VWS V14.01,2013-05-18 21:11:00,
2013-05-18 17:12:00,69.1,49.7,29.68,South,180,1.6,1.6,50,0.00,,,0.00,VWS V14.01,2013-05-18 21:12:00,
2013-05-18 17:13:00,69.1,49.7,29.68,SE,135,1.1,1.1,50,0.00,,,0.00,VWS V14.01,2013-05-18 21:13:00,
2013-05-18 17:14:00,69.1,49.7,29.68,ESE,112,4.7,4.7,50,0.00,,,0.00,VWS V14.01,2013-05-18 21:14:00,
2013-05-18 17:15:00,68.9,49.5,29.68,SSW,202,4.3,4.3,50,0.00,,,0.00,VWS V14.01,2013-05-18 21:15:00,
2013-05-18 17:16:00,68.9,49.5,29.68,South,180,8.7,8.7,50,0.00,,,0.00,VWS V14.01,2013-05-18 21:16:00,
2013-05-18 17:17:00,68.9,49.0,29.68,SSW,202,2.9,2.9,49,0.00,,,0.00,VWS V14.01,2013-05-18 21:17:00,
2013-05-18 17:18:00,68.9,49.0,29.68,East,90,0.0,0.0,49,0.00,,,0.00,VWS V14.01,2013-05-18 21:18:00,
2013-05-18 17:19:00,68.9,49.5,29.68,East,90,3.1,3.1,50,0.00,,,0.00,VWS V14.01,2013-05-18 21:19:00,
2013-05-18 17:20:00,68.7,49.3,29.68,SSE,158,2.7,2.7,50,0.00,,,0.00,VWS V14.01,2013-05-18 21:20:00,
2013-05-18 17:21:00,68.7,49.3,29.68,SE,135,3.8,3.8,50,0.00,,,0.00,VWS V14.01,2013-05-18 21:21:00,
2013-05-18 17:22:00,68.7,49.3,29.68,South,180,2.9,2.9,50,0.00,,,0.00,VWS V14.01,2013-05-18 21:22:00,
2013-05-18 17:23:00,68.7,49.3,29.68,South,180,3.6,3.6,50,0.00,,,0.00,VWS V14.01,2013-05-18 21:23:00,
2013-05-18 17:24:00,68.5,49.2,29.68,SSW,202,3.6,3.6,50,0.00,,,0.00,VWS V14.01,2013-05-18 21:24:00,
2013-05-18 17:25:00,68.5,48.6,29.68,SE,135,2.9,2.9,49,0.00,,,0.00,VWS V14.01,2013-05-18 21:25:00,
2013-05-18 17:26:00,68.5,48.6,29.68,SSE,158,5.4,5.4,49,0.00,,,0.00,VWS V14.01,2013-05-18 21:26:00,
2013-05-18 17:27:00,68.5,48.6,29.68,ENE,68,1.3,1.3,49,0.00,,,0.00,VWS V14.01,2013-05-18 21:27:00,
2013-05-18 17:28:00,68.4,48.5,29.68,South,180,4.3,4.3,49,0.00,,,0.00,VWS V14.01,2013-05-18 21:28:00,
2013-05-18 17:29:00,68.4,49.0,29.68,WSW,248,4.7,4.7,50,0.00,,,0.00,VWS V14.01,2013-05-18 21:29:00,
2013-05-18 17:30:00,68.4,48.5,29.68,SE,135,2.0,2.0,49,0.00,,,0.00,VWS V14.01,2013-05-18 21:30:00,
2013-05-18 17:31:00,68.2,48.3,29.68,South,180,2.5,2.5,49,0.00,,,0.00,VWS V14.01,2013-05-18 21:31:00,
2013-05-18 17:32:00,68.2,48.3,29.68,SSE,158,6.3,6.3,49,0.00,,,0.00,VWS V14.01,2013-05-18 21:32:00,
2013-05-18 17:33:00,68.2,48.8,29.68,SE,135,4.9,4.9,50,0.00,,,0.00,VWS V14.01,2013-05-18 21:33:00,
2013-05-18 17:34:00,68.2,48.8,29.68,SSE,158,2.0,2.0,50,0.00,,,0.00,VWS V14.01,2013-05-18 21:34:00,
2013-05-18 17:35:00,68.2,48.8,29.68,South,180,2.2,2.2,50,0.00,,,0.00,VWS V14.01,2013-05-18 21:35:00,
2013-05-18 17:36:00,68.0,48.2,29.68,South,180,2.5,2.5,49,0.00,,,0.00,VWS V14.01,2013-05-18 21:36:00,
2013-05-18 17:37:00,68.0,48.7,29.68,SE,135,1.6,1.6,50,0.00,,,0.00,VWS V14.01,2013-05-18 21:37:00,
2013-05-18 17:38:00,68.0,48.7,29.68,South,180,1.1,1.1,50,0.00,,,0.00,VWS V14.01,2013-05-18 21:38:00,
2013-05-18 17:39:00,68.0,48.7,29.68,SSW,202,0.0,0.0,50,0.00,,,0.00,VWS V14.01,2013-05-18 21:39:00,
2013-05-18 17:40:00,68.0,48.7,29.68,South,180,2.2,2.2,50,0.00,,,0.00,VWS V14.01,2013-05-18 21:40:00,
2013-05-18 17:41:00,68.0,48.7,29.68,SE,135,1.3,1.3,50,0.00,,,0.00,VWS V14.01,2013-05-18 21:41:00,
2013-05-18 17:42:00,67.8,48.5,29.68,SSE,158,2.9,2.9,50,0.00,,,0.00,VWS V14.01,2013-05-18 21:42:00,
2013-05-18 17:43:00,67.8,49.0,29.68,South,180,2.0,2.0,51,0.00,,,0.00,VWS V14.01,2013-05-18 21:43:00,
2013-05-18 17:44:00,67.8,49.0,29.68,SSE,158,3.4,3.4,51,0.00,,,0.00,VWS V14.01,2013-05-18 21:44:00,
2013-05-18 17:45:00,67.8,49.0,29.68,SSW,202,2.5,2.5,51,0.00,,,0.00,VWS V14.01,2013-05-18 21:45:00,
2013-05-18 17:46:00,67.8,49.0,29.68,South,180,1.3,1.3,51,0.00,,,0.00,VWS V14.01,2013-05-18 21:46:00,
2013-05-18 17:47:00,67.8,49.0,29.68,WSW,248,0.0,0.0,51,0.00,,,0.00,VWS V14.01,2013-05-18 21:47:00,
2013-05-18 17:48:00,67.8,49.0,29.68,ESE,112,2.5,2.5,51,0.00,,,0.00,VWS V14.01,2013-05-18 21:48:00,
2013-05-18 17:49:00,67.8,49.0,29.68,SSE,158,4.0,4.0,51,0.00,,,0.00,VWS V14.01,2013-05-18 21:49:00,
2013-05-18 17:50:00,67.8,49.6,29.68,SSW,202,2.7,2.7,52,0.00,,,0.00,VWS V14.01,2013-05-18 21:50:00,
2013-05-18 17:51:00,67.8,49.6,29.68,SE,135,5.4,5.4,52,0.00,,,0.00,VWS V14.01,2013-05-18 21:51:00,
2013-05-18 17:52:00,67.8,49.6,29.68,South,180,1.6,1.6,52,0.00,,,0.00,VWS V14.01,2013-05-18 21:52:00,
2013-05-18 17:53:00,67.6,49.4,29.68,SSW,202,2.5,2.5,52,0.00,,,0.00,VWS V14.01,2013-05-18 21:53:00,
2013-05-18 17:54:00,67.6,49.4,29.68,SE,135,1.3,1.3,52,0.00,,,0.00,VWS V14.01,2013-05-18 21:54:00,
2013-05-18 17:55:00,67.6,49.4,29.68,East,90,0.0,0.0,52,0.00,,,0.00,VWS V14.01,2013-05-18 21:55:00,
2013-05-18 17:56:00,67.6,49.4,29.68,SSE,158,5.8,5.8,52,0.00,,,0.00,VWS V14.01,2013-05-18 21:56:00,
2013-05-18 17:57:00,67.6,49.4,29.68,South,180,2.9,2.9,52,0.00,,,0.00,VWS V14.01,2013-05-18 21:57:00,
2013-05-18 17:58:00,67.5,48.7,29.68,South,180,5.6,5.6,51,0.00,,,0.00,VWS V14.01,2013-05-18 21:58:00,
2013-05-18 17:59:00,67.5,48.7,29.68,South,180,2.7,2.7,51,0.00,,,0.00,VWS V14.01,2013-05-18 21:59:00,
2013-05-18 18:00:00,67.5,48.7,29.68,East,90,1.6,1.6,51,0.00,,,0.00,VWS V14.01,2013-05-18 22:00:00,
2013-05-18 18:01:00,67.5,48.7,29.68,SSW,202,1.3,1.3,51,0.00,,,0.00,VWS V14.01,2013-05-18 22:01:00,
2013-05-18 18:02:00,67.5,48.7,29.68,SSW,202,0.0,0.0,51,0.00,,,0.00,VWS V14.01,2013-05-18 22:02:00,
2013-05-18 18:03:00,67.3,48.5,29.68,SSE,158,3.4,3.4,51,0.00,,,0.00,VWS V14.01,2013-05-18 22:03:00,
2013-05-18 18:04:00,67.3,48.5,29.68,SSE,158,1.6,1.6,51,0.00,,,0.00,VWS V14.01,2013-05-18 22:04:00,
2013-05-18 18:05:00,67.3,48.5,29.68,SSE,158,1.6,1.6,51,0.00,,,0.00,VWS V14.01,2013-05-18 22:05:00,
2013-05-18 18:06:00,67.3,49.1,29.68,SE,135,4.0,4.0,52,0.00,,,0.00,VWS V14.01,2013-05-18 22:06:00,
2013-05-18 18:07:00,67.3,49.1,29.68,SSE,158,3.1,3.1,52,0.00,,,0.00,VWS V14.01,2013-05-18 22:07:00,
2013-05-18 18:08:00,67.3,49.1,29.68,SSE,158,2.9,2.9,52,0.00,,,0.00,VWS V14.01,2013-05-18 22:08:00,
2013-05-18 18:09:00,67.3,49.1,29.68,East,90,0.9,0.9,52,0.00,,,0.00,VWS V14.01,2013-05-18 22:09:00,
2013-05-18 18:10:00,67.3,48.5,29.68,South,180,3.8,3.8,51,0.00,,,0.00,VWS V14.01,2013-05-18 22:10:00,
2013-05-18 18:11:00,67.3,49.1,29.68,South,180,4.0,4.0,52,0.00,,,0.00,VWS V14.01,2013-05-18 22:11:00,
2013-05-18 18:12:00,67.3,49.1,29.68,SSE,158,1.6,1.6,52,0.00,,,0.00,VWS V14.01,2013-05-18 22:12:00,
2013-05-18 18:13:00,67.3,49.1,29.68,SE,135,2.2,2.2,52,0.00,,,0.00,VWS V14.01,2013-05-18 22:13:00,
2013-05-18 18:14:00,67.3,49.1,29.68,SSE,158,2.9,2.9,52,0.00,,,0.00,VWS V14.01,2013-05-18 22:14:00,
2013-05-18 18:15:00,67.3,49.1,29.68,SE,135,5.4,5.4,52,0.00,,,0.00,VWS V14.01,2013-05-18 22:15:00,
2013-05-18 18:16:00,67.3,49.1,29.68,SSE,158,5.8,5.8,52,0.00,,,0.00,VWS V14.01,2013-05-18 22:16:00,
2013-05-18 18:17:00,67.1,48.9,29.68,SSW,202,2.9,2.9,52,0.00,,,0.00,VWS V14.01,2013-05-18 22:17:00,
2013-05-18 18:18:00,67.1,48.9,29.68,SSE,158,5.4,5.4,52,0.00,,,0.00,VWS V14.01,2013-05-18 22:18:00,
2013-05-18 18:19:00,67.1,48.9,29.68,SSE,158,4.3,4.3,52,0.00,,,0.00,VWS V14.01,2013-05-18 22:19:00,
2013-05-18 18:20:00,67.1,48.9,29.68,SSE,158,2.7,2.7,52,0.00,,,0.00,VWS V14.01,2013-05-18 22:20:00,
2013-05-18 18:21:00,67.1,48.9,29.68,SSE,158,3.6,3.6,52,0.00,,,0.00,VWS V14.01,2013-05-18 22:21:00,
2013-05-18 18:22:00,67.1,49.4,29.68,South,180,3.8,3.8,53,0.00,,,0.00,VWS V14.01,2013-05-18 22:22:00,
2013-05-18 18:23:00,67.1,49.4,29.68,SSW,202,4.3,4.3,53,0.00,,,0.00,VWS V14.01,2013-05-18 22:23:00,
2013-05-18 18:24:00,67.1,48.9,29.68,SSW,202,4.3,4.3,52,0.00,,,0.00,VWS V14.01,2013-05-18 22:24:00,
2013-05-18 18:25:00,66.9,48.7,29.68,SSE,158,6.5,6.5,52,0.00,,,0.00,VWS V14.01,2013-05-18 22:25:00,
2013-05-18 18:26:00,66.9,48.7,29.68,SSW,202,3.1,3.1,52,0.00,,,0.00,VWS V14.01,2013-05-18 22:26:00,
2013-05-18 18:27:00,66.9,48.7,29.68,SSW,202,4.7,4.7,52,0.00,,,0.00,VWS V14.01,2013-05-18 22:27:00,
2013-05-18 18:28:00,66.9,48.7,29.68,South,180,2.5,2.5,52,0.00,,,0.00,VWS V14.01,2013-05-18 22:28:00,
2013-05-18 18:29:00,66.9,48.7,29.68,WSW,248,3.8,3.8,52,0.00,,,0.00,VWS V14.01,2013-05-18 22:29:00,
2013-05-18 18:30:00,66.9,49.2,29.68,South,180,3.1,3.1,53,0.00,,,0.00,VWS V14.01,2013-05-18 22:30:00,
2013-05-18 18:31:00,66.9,49.2,29.68,WSW,248,4.0,4.0,53,0.00,,,0.00,VWS V14.01,2013-05-18 22:31:00,
2013-05-18 18:32:00,66.9,49.2,29.68,WSW,248,4.7,4.7,53,0.00,,,0.00,VWS V14.01,2013-05-18 22:32:00,
2013-05-18 18:33:00,66.9,49.2,29.68,SSE,158,2.5,2.5,53,0.00,,,0.00,VWS V14.01,2013-05-18 22:33:00,
2013-05-18 18:34:00,66.9,49.2,29.68,SSE,158,4.0,4.0,53,0.00,,,0.00,VWS V14.01,2013-05-18 22:34:00,
2013-05-18 18:35:00,66.7,48.6,29.68,SSW,202,4.0,4.0,52,0.00,,,0.00,VWS V14.01,2013-05-18 22:35:00,
2013-05-18 18:36:00,66.7,48.6,29.68,NNE,22,2.9,2.9,52,0.00,,,0.00,VWS V14.01,2013-05-18 22:36:00,
2013-05-18 18:37:00,66.7,49.1,29.68,South,180,3.4,3.4,53,0.00,,,0.00,VWS V14.01,2013-05-18 22:37:00,
2013-05-18 18:38:00,66.7,49.1,29.68,SE,135,3.6,3.6,53,0.00,,,0.00,VWS V14.01,2013-05-18 22:38:00,
2013-05-18 18:39:00,66.7,49.1,29.68,SSE,158,6.9,6.9,53,0.00,,,0.00,VWS V14.01,2013-05-18 22:39:00,
2013-05-18 18:40:00,66.7,48.6,29.68,SE,135,4.3,4.3,52,0.00,,,0.00,VWS V14.01,2013-05-18 22:40:00,
2013-05-18 18:41:00,66.7,49.1,29.68,South,180,2.0,2.0,53,0.00,,,0.00,VWS V14.01,2013-05-18 22:41:00,
2013-05-18 18:42:00,66.7,49.1,29.68,ESE,112,0.0,0.0,53,0.00,,,0.00,VWS V14.01,2013-05-18 22:42:00,
2013-05-18 18:43:00,66.6,48.9,29.68,SSW,202,8.1,8.1,53,0.00,,,0.00,VWS V14.01,2013-05-18 22:43:00,
2013-05-18 18:44:00,66.6,48.9,29.68,East,90,2.7,2.7,53,0.00,,,0.00,VWS V14.01,2013-05-18 22:44:00,
2013-05-18 18:45:00,66.6,48.9,29.68,SE,135,3.6,3.6,53,0.00,,,0.00,VWS V14.01,2013-05-18 22:45:00,
2013-05-18 18:46:00,66.6,48.9,29.68,SSW,202,3.8,3.8,53,0.00,,,0.00,VWS V14.01,2013-05-18 22:46:00,
2013-05-18 18:47:00,66.6,48.9,29.68,SSE,158,3.1,3.1,53,0.00,,,0.00,VWS V14.01,2013-05-18 22:47:00,
2013-05-18 18:48:00,66.6,48.9,29.68,SSE,158,5.8,5.8,53,0.00,,,0.00,VWS V14.01,2013-05-18 22:48:00,
2013-05-18 18:49:00,66.6,48.9,29.68,SSE,158,2.7,2.7,53,0.00,,,0.00,VWS V14.01,2013-05-18 22:49:00,
2013-05-18 18:50:00,66.4,48.2,29.68,SE,135,7.8,7.8,52,0.00,,,0.00,VWS V14.01,2013-05-18 22:50:00,
2013-05-18 18:51:00,66.4,48.2,29.68,SSE,158,6.3,6.3,52,0.00,,,0.00,VWS V14.01,2013-05-18 22:51:00,
2013-05-18 18:52:00,66.4,48.2,29.68,SE,135,1.3,1.3,52,0.00,,,0.00,VWS V14.01,2013-05-18 22:52:00,
2013-05-18 18:53:00,66.4,48.2,29.68,SE,135,5.8,5.8,52,0.00,,,0.00,VWS V14.01,2013-05-18 22:53:00,
2013-05-18 18:54:00,66.4,48.2,29.68,SE,135,8.5,8.5,52,0.00,,,0.00,VWS V14.01,2013-05-18 22:54:00,
2013-05-18 18:55:00,66.4,48.2,29.68,South,180,5.4,5.4,52,0.00,,,0.00,VWS V14.01,2013-05-18 22:55:00,
2013-05-18 18:56:00,66.4,48.2,29.68,WSW,248,1.3,1.3,52,0.00,,,0.00,VWS V14.01,2013-05-18 22:56:00,
2013-05-18 18:57:00,66.2,48.1,29.68,SE,135,2.7,2.7,52,0.00,,,0.00,VWS V14.01,2013-05-18 22:57:00,
2013-05-18 18:58:00,66.2,48.1,29.68,ESE,112,4.9,4.9,52,0.00,,,0.00,VWS V14.01,2013-05-18 22:58:00,
2013-05-18 18:59:00,66.2,48.6,29.68,ESE,112,8.5,8.5,53,0.00,,,0.00,VWS V14.01,2013-05-18 22:59:00,
2013-05-18 19:00:00,66.2,48.1,29.68,SSW,202,2.5,2.5,52,0.00,,,0.00,VWS V14.01,2013-05-18 23:00:00,
2013-05-18 19:01:00,66.2,48.1,29.68,SSE,158,2.9,2.9,52,0.00,,,0.00,VWS V14.01,2013-05-18 23:01:00,
2013-05-18 19:02:00,66.2,48.1,29.68,ESE,112,10.1,10.1,52,0.00,,,0.00,VWS V14.01,2013-05-18 23:02:00,
2013-05-18 19:03:00,66.2,48.1,29.68,South,180,6.5,6.5,52,0.00,,,0.00,VWS V14.01,2013-05-18 23:03:00,
2013-05-18 19:04:00,66.0,48.4,29.68,South,180,4.3,4.3,53,0.00,,,0.00,VWS V14.01,2013-05-18 23:04:00,
2013-05-18 19:05:00,66.0,48.4,29.68,South,180,4.9,4.9,53,0.00,,,0.00,VWS V14.01,2013-05-18 23:05:00,
2013-05-18 19:06:00,66.0,47.9,29.68,SSW,202,8.5,8.5,52,0.00,,,0.00,VWS V14.01,2013-05-18 23:06:00,
2013-05-18 19:07:00,66.0,48.4,29.68,SSE,158,2.7,2.7,53,0.00,,,0.00,VWS V14.01,2013-05-18 23:07:00,
2013-05-18 19:08:00,66.0,47.9,29.68,South,180,3.8,3.8,52,0.00,,,0.00,VWS V14.01,2013-05-18 23:08:00,
2013-05-18 19:09:00,66.0,47.9,29.68,South,180,5.4,5.4,52,0.00,,,0.00,VWS V14.01,2013-05-18 23:09:00,
2013-05-18 19:10:00,65.8,47.7,29.68,South,180,4.0,4.0,52,0.00,,,0.00,VWS V14.01,2013-05-18 23:10:00,
2013-05-18 19:11:00,65.8,47.7,29.68,SE,135,4.9,4.9,52,0.00,,,0.00,VWS V14.01,2013-05-18 23:11:00,
2013-05-18 19:12:00,65.8,47.7,29.68,SE,135,13.0,13.0,52,0.00,,,0.00,VWS V14.01,2013-05-18 23:12:00,
2013-05-18 19:13:00,65.8,47.7,29.68,SSE,158,5.4,5.4,52,0.00,,,0.00,VWS V14.01,2013-05-18 23:13:00,
2013-05-18 19:14:00,65.8,47.7,29.68,SSE,158,7.4,7.4,52,0.00,,,0.00,VWS V14.01,2013-05-18 23:14:00,
2013-05-18 19:15:00,65.7,47.6,29.68,SSE,158,2.9,2.9,52,0.00,,,0.00,VWS V14.01,2013-05-18 23:15:00,
2013-05-18 19:16:00,65.7,47.6,29.68,SSE,158,5.8,5.8,52,0.00,,,0.00,VWS V14.01,2013-05-18 23:16:00,
2013-05-18 19:17:00,65.7,47.6,29.68,ESE,112,8.7,8.7,52,0.00,,,0.00,VWS V14.01,2013-05-18 23:17:00,
2013-05-18 19:18:00,65.7,47.6,29.68,SSW,202,2.5,2.5,52,0.00,,,0.00,VWS V14.01,2013-05-18 23:18:00,
2013-05-18 19:19:00,65.7,47.6,29.68,SE,135,4.9,4.9,52,0.00,,,0.00,VWS V14.01,2013-05-18 23:19:00,
2013-05-18 19:20:00,65.5,47.4,29.68,South,180,1.3,1.3,52,0.00,,,0.00,VWS V14.01,2013-05-18 23:20:00,
2013-05-18 19:21:00,65.5,47.4,29.68,South,180,3.6,3.6,52,0.00,,,0.00,VWS V14.01,2013-05-18 23:21:00,
2013-05-18 19:22:00,65.5,47.4,29.68,SSE,158,8.5,8.5,52,0.00,,,0.00,VWS V14.01,2013-05-18 23:22:00,
2013-05-18 19:23:00,65.5,47.4,29.68,South,180,8.5,8.5,52,0.00,,,0.00,VWS V14.01,2013-05-18 23:23:00,
2013-05-18 19:24:00,65.5,47.4,29.68,SSE,158,2.0,2.0,52,0.00,,,0.00,VWS V14.01,2013-05-18 23:24:00,
2013-05-18 19:25:00,65.3,47.2,29.68,East,90,2.2,2.2,52,0.00,,,0.00,VWS V14.01,2013-05-18 23:25:00,
2013-05-18 19:26:00,65.3,47.8,29.68,South,180,3.6,3.6,53,0.00,,,0.00,VWS V14.01,2013-05-18 23:26:00,
2013-05-18 19:27:00,65.3,47.2,29.68,SE,135,7.6,7.6,52,0.00,,,0.00,VWS V14.01,2013-05-18 23:27:00,
2013-05-18 19:28:00,65.3,47.2,29.68,SSE,158,7.8,7.8,52,0.00,,,0.00,VWS V14.01,2013-05-18 23:28:00,
2013-05-18 19:29:00,65.3,47.2,29.68,SSE,158,3.6,3.6,52,0.00,,,0.00,VWS V14.01,2013-05-18 23:29:00,
2013-05-18 19:30:00,65.1,47.1,29.68,ESE,112,5.4,5.4,52,0.00,,,0.00,VWS V14.01,2013-05-18 23:30:00,
2013-05-18 19:31:00,65.1,47.1,29.68,SSE,158,2.5,2.5,52,0.00,,,0.00,VWS V14.01,2013-05-18 23:31:00,
2013-05-18 19:32:00,65.1,47.6,29.68,South,180,1.1,1.1,53,0.00,,,0.00,VWS V14.01,2013-05-18 23:32:00,
2013-05-18 19:33:00,65.1,47.6,29.68,SSE,158,2.9,2.9,53,0.00,,,0.00,VWS V14.01,2013-05-18 23:33:00,
2013-05-18 19:34:00,65.1,47.6,29.68,South,180,3.4,3.4,53,0.00,,,0.00,VWS V14.01,2013-05-18 23:34:00,
2013-05-18 19:35:00,65.1,47.6,29.68,SSE,158,5.8,5.8,53,0.00,,,0.00,VWS V14.01,2013-05-18 23:35:00,
2013-05-18 19:36:00,64.9,47.4,29.68,SSE,158,4.3,4.3,53,0.00,,,0.00,VWS V14.01,2013-05-18 23:36:00,
2013-05-18 19:37:00,64.9,47.4,29.68,ENE,68,2.7,2.7,53,0.00,,,0.00,VWS V14.01,2013-05-18 23:37:00,
2013-05-18 19:38:00,64.9,47.4,29.68,SE,135,3.6,3.6,53,0.00,,,0.00,VWS V14.01,2013-05-18 23:38:00,
2013-05-18 19:39:00,64.9,47.4,29.68,SE,135,4.0,4.0,53,0.00,,,0.00,VWS V14.01,2013-05-18 23:39:00,
2013-05-18 19:40:00,64.8,47.2,29.68,SSE,158,4.7,4.7,53,0.00,,,0.00,VWS V14.01,2013-05-18 23:40:00,
2013-05-18 19:41:00,64.8,47.2,29.68,SSE,158,6.5,6.5,53,0.00,,,0.00,VWS V14.01,2013-05-18 23:41:00,
2013-05-18 19:42:00,64.8,47.2,29.68,SE,135,5.8,5.8,53,0.00,,,0.00,VWS V14.01,2013-05-18 23:42:00,
2013-05-18 19:43:00,64.8,47.2,29.68,South,180,4.5,4.5,53,0.00,,,0.00,VWS V14.01,2013-05-18 23:43:00,
2013-05-18 19:44:00,64.8,47.2,29.68,SSE,158,5.4,5.4,53,0.00,,,0.00,VWS V14.01,2013-05-18 23:44:00,
2013-05-18 19:45:00,64.8,47.2,29.68,South,180,2.9,2.9,53,0.00,,,0.00,VWS V14.01,2013-05-18 23:45:00,
2013-05-18 19:46:00,64.8,47.2,29.68,South,180,2.0,2.0,53,0.00,,,0.00,VWS V14.01,2013-05-18 23:46:00,
2013-05-18 19:47:00,64.6,47.1,29.68,South,180,3.4,3.4,53,0.00,,,0.00,VWS V14.01,2013-05-18 23:47:00,
2013-05-18 19:48:00,64.6,47.1,29.68,SSE,158,4.0,4.0,53,0.00,,,0.00,VWS V14.01,2013-05-18 23:48:00,
2013-05-18 19:49:00,64.6,47.1,29.68,WSW,248,2.9,2.9,53,0.00,,,0.00,VWS V14.01,2013-05-18 23:49:00,
2013-05-18 19:50:00,64.6,47.1,29.68,South,180,3.4,3.4,53,0.00,,,0.00,VWS V14.01,2013-05-18 23:50:00,
2013-05-18 19:51:00,64.6,47.1,29.68,South,180,6.5,6.5,53,0.00,,,0.00,VWS V14.01,2013-05-18 23:51:00,
2013-05-18 19:52:00,64.4,46.9,29.68,SE,135,6.3,6.3,53,0.00,,,0.00,VWS V14.01,2013-05-18 23:52:00,
2013-05-18 19:53:00,64.4,46.9,29.68,ESE,112,2.5,2.5,53,0.00,,,0.00,VWS V14.01,2013-05-18 23:53:00,
2013-05-18 19:54:00,64.4,46.9,29.68,SE,135,4.0,4.0,53,0.00,,,0.00,VWS V14.01,2013-05-18 23:54:00,
2013-05-18 19:55:00,64.4,46.9,29.68,East,90,2.7,2.7,53,0.00,,,0.00,VWS V14.01,2013-05-18 23:55:00,
2013-05-18 19:56:00,64.4,46.9,29.68,SE,135,4.3,4.3,53,0.00,,,0.00,VWS V14.01,2013-05-18 23:56:00,
2013-05-18 19:57:00,64.4,46.9,29.68,South,180,2.0,2.0,53,0.00,,,0.00,VWS V14.01,2013-05-18 23:57:00,
2013-05-18 19:58:00,64.4,46.9,29.68,South,180,2.9,2.9,53,0.00,,,0.00,VWS V14.01,2013-05-18 23:58:00,
2013-05-18 19:59:00,64.4,47.4,29.68,South,180,2.9,2.9,54,0.00,,,0.00,VWS V14.01,2013-05-18 23:59:00,
2013-05-18 20:00:00,64.2,47.2,29.68,SE,135,5.8,5.8,54,0.00,,,0.00,VWS V14.01,2013-05-19 00:00:00,
2013-05-18 20:01:00,64.2,47.2,29.68,SSE,158,6.9,6.9,54,0.00,,,0.00,VWS V14.01,2013-05-19 00:01:00,
2013-05-18 20:02:00,64.2,47.2,29.68,SSE,158,2.9,2.9,54,0.00,,,0.00,VWS V14.01,2013-05-19 00:02:00,
2013-05-18 20:03:00,64.2,47.2,29.68,South,180,4.9,4.9,54,0.00,,,0.00,VWS V14.01,2013-05-19 00:03:00,
2013-05-18 20:04:00,64.2,47.2,29.68,SW,225,0.9,0.9,54,0.00,,,0.00,VWS V14.01,2013-05-19 00:04:00,
2013-05-18 20:05:00,64.2,47.2,29.68,SE,135,6.3,6.3,54,0.00,,,0.00,VWS V14.01,2013-05-19 00:05:00,
2013-05-18 20:06:00,64.2,47.2,29.68,South,180,3.6,3.6,54,0.00,,,0.00,VWS V14.01,2013-05-19 00:06:00,
2013-05-18 20:07:00,64.0,47.1,29.68,ENE,68,0.9,0.9,54,0.00,,,0.00,VWS V14.01,2013-05-19 00:07:00,
2013-05-18 20:08:00,64.0,47.1,29.68,SSW,202,0.0,0.0,54,0.00,,,0.00,VWS V14.01,2013-05-19 00:08:00,
2013-05-18 20:09:00,64.0,47.1,29.68,East,90,2.9,2.9,54,0.00,,,0.00,VWS V14.01,2013-05-19 00:09:00,
2013-05-18 20:10:00,64.0,47.6,29.68,SE,135,6.3,6.3,55,0.00,,,0.00,VWS V14.01,2013-05-19 00:10:00,
2013-05-18 20:11:00,64.0,47.1,29.68,SSE,158,2.2,2.2,54,0.00,,,0.00,VWS V14.01,2013-05-19 00:11:00,
2013-05-18 20:12:00,64.0,47.6,29.68,South,180,1.1,1.1,55,0.00,,,0.00,VWS V14.01,2013-05-19 00:12:00,
2013-05-18 20:13:00,64.0,47.6,29.68,SSW,202,5.8,5.8,55,0.00,,,0.00,VWS V14.01,2013-05-19 00:13:00,
2013-05-18 20:14:00,63.9,47.4,29.68,SSE,158,3.6,3.6,55,0.00,,,0.00,VWS V14.01,2013-05-19 00:14:00,
2013-05-18 20:15:00,63.9,47.4,29.68,SE,135,4.7,4.7,55,0.00,,,0.00,VWS V14.01,2013-05-19 00:15:00,
2013-05-18 20:16:00,63.9,47.4,29.68,ESE,112,2.5,2.5,55,0.00,,,0.00,VWS V14.01,2013-05-19 00:16:00,
2013-05-18 20:17:00,63.9,47.4,29.68,WNW,292,2.7,2.7,55,0.00,,,0.00,VWS V14.01,2013-05-19 00:17:00,
2013-05-18 20:18:00,63.9,47.4,29.68,South,180,2.7,2.7,55,0.00,,,0.00,VWS V14.01,2013-05-19 00:18:00,
2013-05-18 20:19:00,63.9,47.4,29.68,NE,45,0.0,0.0,55,0.00,,,0.00,VWS V14.01,2013-05-19 00:19:00,
2013-05-18 20:20:00,63.9,47.4,29.68,South,180,5.6,5.6,55,0.00,,,0.00,VWS V14.01,2013-05-19 00:20:00,
2013-05-18 20:21:00,63.9,47.4,29.68,East,90,7.6,7.6,55,0.00,,,0.00,VWS V14.01,2013-05-19 00:21:00,
2013-05-18 20:22:00,63.9,47.4,29.68,South,180,7.6,7.6,55,0.00,,,0.00,VWS V14.01,2013-05-19 00:22:00,
2013-05-18 20:23:00,63.7,47.2,29.68,SSW,202,2.9,2.9,55,0.00,,,0.00,VWS V14.01,2013-05-19 00:23:00,
2013-05-18 20:24:00,63.7,47.2,29.68,SSE,158,1.1,1.1,55,0.00,,,0.00,VWS V14.01,2013-05-19 00:24:00,
2013-05-18 20:25:00,63.7,47.7,29.68,South,180,4.7,4.7,56,0.00,,,0.00,VWS V14.01,2013-05-19 00:25:00,
2013-05-18 20:26:00,63.7,47.7,29.68,SE,135,5.4,5.4,56,0.00,,,0.00,VWS V14.01,2013-05-19 00:26:00,
2013-05-18 20:27:00,63.7,47.7,29.68,SSW,202,3.4,3.4,56,0.00,,,0.00,VWS V14.01,2013-05-19 00:27:00,
2013-05-18 20:28:00,63.7,47.7,29.68,SSW,202,9.6,9.6,56,0.00,,,0.00,VWS V14.01,2013-05-19 00:28:00,
2013-05-18 20:29:00,63.7,47.7,29.68,SE,135,4.0,4.0,56,0.00,,,0.00,VWS V14.01,2013-05-19 00:29:00,
2013-05-18 20:30:00,63.7,47.7,29.71,SSE,158,7.8,7.8,56,0.00,,,0.00,VWS V14.01,2013-05-19 00:30:00,
2013-05-18 20:31:00,63.7,47.7,29.71,SSW,202,5.8,5.8,56,0.00,,,0.00,VWS V14.01,2013-05-19 00:31:00,
2013-05-18 20:32:00,63.5,48.0,29.71,SE,135,3.1,3.1,57,0.00,,,0.00,VWS V14.01,2013-05-19 00:32:00,
2013-05-18 20:33:00,63.5,48.0,29.71,South,180,3.1,3.1,57,0.00,,,0.00,VWS V14.01,2013-05-19 00:33:00,
2013-05-18 20:34:00,63.5,48.0,29.71,South,180,5.4,5.4,57,0.00,,,0.00,VWS V14.01,2013-05-19 00:34:00,
2013-05-18 20:35:00,63.5,48.0,29.71,South,180,1.1,1.1,57,0.00,,,0.00,VWS V14.01,2013-05-19 00:35:00,
2013-05-18 20:36:00,63.5,48.0,29.71,SW,225,3.6,3.6,57,0.00,,,0.00,VWS V14.01,2013-05-19 00:36:00,
2013-05-18 20:37:00,63.5,48.5,29.71,South,180,6.5,6.5,58,0.00,,,0.00,VWS V14.01,2013-05-19 00:37:00,
2013-05-18 20:38:00,63.5,48.5,29.71,SSE,158,5.4,5.4,58,0.00,,,0.00,VWS V14.01,2013-05-19 00:38:00,
2013-05-18 20:39:00,63.5,48.5,29.71,SSE,158,4.0,4.0,58,0.00,,,0.00,VWS V14.01,2013-05-19 00:39:00,
2013-05-18 20:40:00,63.5,48.5,29.71,South,180,5.4,5.4,58,0.00,,,0.00,VWS V14.01,2013-05-19 00:40:00,
2013-05-18 20:41:00,63.5,48.5,29.71,SSW,202,2.5,2.5,58,0.00,,,0.00,VWS V14.01,2013-05-19 00:41:00,
2013-05-18 20:42:00,63.5,48.9,29.71,South,180,3.1,3.1,59,0.00,,,0.00,VWS V14.01,2013-05-19 00:42:00,
2013-05-18 20:43:00,63.5,48.9,29.71,South,180,2.9,2.9,59,0.00,,,0.00,VWS V14.01,2013-05-19 00:43:00,
2013-05-18 20:44:00,63.3,48.8,29.71,South,180,4.3,4.3,59,0.00,,,0.00,VWS V14.01,2013-05-19 00:44:00,
2013-05-18 20:45:00,63.3,48.8,29.71,SE,135,4.3,4.3,59,0.00,,,0.00,VWS V14.01,2013-05-19 00:45:00,
2013-05-18 20:46:00,63.3,49.2,29.71,SSE,158,3.4,3.4,60,0.00,,,0.00,VWS V14.01,2013-05-19 00:46:00,
2013-05-18 20:47:00,63.3,49.2,29.71,South,180,4.9,4.9,60,0.00,,,0.00,VWS V14.01,2013-05-19 00:47:00,
2013-05-18 20:48:00,63.3,49.2,29.71,South,180,4.3,4.3,60,0.00,,,0.00,VWS V14.01,2013-05-19 00:48:00,
2013-05-18 20:49:00,63.3,49.7,29.71,ESE,112,10.1,10.1,61,0.00,,,0.00,VWS V14.01,2013-05-19 00:49:00,
2013-05-18 20:50:00,63.1,49.5,29.71,SE,135,2.7,2.7,61,0.00,,,0.00,VWS V14.01,2013-05-19 00:50:00,
2013-05-18 20:51:00,63.1,49.0,29.71,South,180,2.0,2.0,60,0.00,,,0.00,VWS V14.01,2013-05-19 00:51:00,
2013-05-18 20:52:00,63.1,49.5,29.71,South,180,4.3,4.3,61,0.00,,,0.00,VWS V14.01,2013-05-19 00:52:00,
2013-05-18 20:53:00,63.1,49.9,29.71,SSE,158,3.8,3.8,62,0.00,,,0.00,VWS V14.01,2013-05-19 00:53:00,
2013-05-18 20:54:00,63.1,49.9,29.71,SSE,158,4.0,4.0,62,0.00,,,0.00,VWS V14.01,2013-05-19 00:54:00,
2013-05-18 20:55:00,63.1,49.9,29.71,SSE,158,3.8,3.8,62,0.00,,,0.00,VWS V14.01,2013-05-19 00:55:00,
2013-05-18 20:56:00,63.0,49.8,29.71,SSE,158,3.6,3.6,62,0.00,,,0.00,VWS V14.01,2013-05-19 00:56:00,
2013-05-18 20:57:00,63.0,49.8,29.71,South,180,5.4,5.4,62,0.00,,,0.00,VWS V14.01,2013-05-19 00:57:00,
2013-05-18 20:58:00,63.0,50.2,29.71,SSE,158,5.4,5.4,63,0.00,,,0.00,VWS V14.01,2013-05-19 00:58:00,
2013-05-18 20:59:00,63.0,50.2,29.71,South,180,4.0,4.0,63,0.00,,,0.00,VWS V14.01,2013-05-19 00:59:00,
2013-05-18 21:00:00,63.0,50.2,29.71,SSE,158,8.7,8.7,63,0.00,,,0.00,VWS V14.01,2013-05-19 01:00:00,
2013-05-18 21:01:00,63.0,50.2,29.71,SE,135,3.6,3.6,63,0.00,,,0.00,VWS V14.01,2013-05-19 01:01:00,
2013-05-18 21:02:00,63.0,50.2,29.71,SSW,202,4.3,4.3,63,0.00,,,0.00,VWS V14.01,2013-05-19 01:02:00,
2013-05-18 21:03:00,62.8,50.0,29.71,ENE,68,6.5,6.5,63,0.00,,,0.00,VWS V14.01,2013-05-19 01:03:00,
2013-05-18 21:04:00,62.8,50.4,29.71,SSW,202,3.1,3.1,64,0.00,,,0.00,VWS V14.01,2013-05-19 01:04:00,
2013-05-18 21:05:00,62.8,50.4,29.71,East,90,2.9,2.9,64,0.00,,,0.00,VWS V14.01,2013-05-19 01:05:00,
2013-05-18 21:06:00,62.8,50.4,29.71,SSE,158,5.8,5.8,64,0.00,,,0.00,VWS V14.01,2013-05-19 01:06:00,
2013-05-18 21:07:00,62.8,50.4,29.71,SSE,158,6.5,6.5,64,0.00,,,0.00,VWS V14.01,2013-05-19 01:07:00,
2013-05-18 21:08:00,62.8,50.4,29.71,SE,135,3.6,3.6,64,0.00,,,0.00,VWS V14.01,2013-05-19 01:08:00,
2013-05-18 21:09:00,62.6,50.3,29.71,South,180,5.4,5.4,64,0.00,,,0.00,VWS V14.01,2013-05-19 01:09:00,
2013-05-18 21:10:00,62.6,50.7,29.71,SSW,202,5.6,5.6,65,0.00,,,0.00,VWS V14.01,2013-05-19 01:10:00,
2013-05-18 21:11:00,62.6,50.7,29.71,South,180,3.1,3.1,65,0.00,,,0.00,VWS V14.01,2013-05-19 01:11:00,
2013-05-18 21:12:00,62.6,50.7,29.71,SSW,202,4.0,4.0,65,0.00,,,0.00,VWS V14.01,2013-05-19 01:12:00,
2013-05-18 21:13:00,62.6,50.7,29.71,SSW,202,4.0,4.0,65,0.00,,,0.00,VWS V14.01,2013-05-19 01:13:00,
2013-05-18 21:14:00,62.4,50.5,29.71,South,180,3.6,3.6,65,0.00,,,0.00,VWS V14.01,2013-05-19 01:14:00,
2013-05-18 21:15:00,62.4,50.9,29.71,South,180,2.9,2.9,66,0.00,,,0.00,VWS V14.01,2013-05-19 01:15:00,
2013-05-18 21:16:00,62.4,50.9,29.71,South,180,3.1,3.1,66,0.00,,,0.00,VWS V14.01,2013-05-19 01:16:00,
2013-05-18 21:17:00,62.4,50.9,29.71,SE,135,3.6,3.6,66,0.00,,,0.00,VWS V14.01,2013-05-19 01:17:00,
2013-05-18 21:18:00,62.4,50.9,29.71,SE,135,4.7,4.7,66,0.00,,,0.00,VWS V14.01,2013-05-19 01:18:00,
2013-05-18 21:19:00,62.4,50.9,29.71,South,180,7.4,7.4,66,0.00,,,0.00,VWS V14.01,2013-05-19 01:19:00,
2013-05-18 21:20:00,62.4,50.9,29.71,SSE,158,2.9,2.9,66,0.00,,,0.00,VWS V14.01,2013-05-19 01:20:00,
2013-05-18 21:21:00,62.4,50.9,29.71,SSW,202,3.4,3.4,66,0.00,,,0.00,VWS V14.01,2013-05-19 01:21:00,
2013-05-18 21:22:00,62.4,50.9,29.71,South,180,2.7,2.7,66,0.00,,,0.00,VWS V14.01,2013-05-19 01:22:00,
2013-05-18 21:23:00,62.2,50.8,29.71,SSW,202,4.3,4.3,66,0.00,,,0.00,VWS V14.01,2013-05-19 01:23:00,
2013-05-18 21:24:00,62.4,50.9,29.71,South,180,3.8,3.8,66,0.00,,,0.00,VWS V14.01,2013-05-19 01:24:00,
2013-05-18 21:25:00,62.2,50.8,29.71,South,180,1.6,1.6,66,0.00,,,0.00,VWS V14.01,2013-05-19 01:25:00,
2013-05-18 21:26:00,62.2,50.8,29.71,SSE,158,1.1,1.1,66,0.00,,,0.00,VWS V14.01,2013-05-19 01:26:00,
2013-05-18 21:27:00,62.2,50.8,29.71,SSE,158,3.4,3.4,66,0.00,,,0.00,VWS V14.01,2013-05-19 01:27:00,
2013-05-18 21:28:00,62.2,50.8,29.71,SSE,158,7.6,7.6,66,0.00,,,0.00,VWS V14.01,2013-05-19 01:28:00,
2013-05-18 21:29:00,62.2,50.8,29.71,SSE,158,5.4,5.4,66,0.00,,,0.00,VWS V14.01,2013-05-19 01:29:00,
2013-05-18 21:30:00,62.2,50.8,29.71,SW,225,3.1,3.1,66,0.00,,,0.00,VWS V14.01,2013-05-19 01:30:00,
2013-05-18 21:31:00,62.2,50.8,29.71,SSE,158,2.7,2.7,66,0.00,,,0.00,VWS V14.01,2013-05-19 01:31:00,
2013-05-18 21:32:00,62.2,50.8,29.71,SSE,158,5.6,5.6,66,0.00,,,0.00,VWS V14.01,2013-05-19 01:32:00,
2013-05-18 21:33:00,62.2,50.8,29.71,SE,135,3.1,3.1,66,0.00,,,0.00,VWS V14.01,2013-05-19 01:33:00,
2013-05-18 21:34:00,62.2,50.8,29.71,South,180,2.7,2.7,66,0.00,,,0.00,VWS V14.01,2013-05-19 01:34:00,
2013-05-18 21:35:00,62.2,50.8,29.71,SE,135,0.0,0.0,66,0.00,,,0.00,VWS V14.01,2013-05-19 01:35:00,
2013-05-18 21:36:00,62.2,50.8,29.71,SSE,158,0.0,0.0,66,0.00,,,0.00,VWS V14.01,2013-05-19 01:36:00,
2013-05-18 21:37:00,62.2,50.8,29.71,SSW,202,2.9,2.9,66,0.00,,,0.00,VWS V14.01,2013-05-19 01:37:00,
2013-05-18 21:38:00,62.2,50.8,29.71,SSE,158,2.5,2.5,66,0.00,,,0.00,VWS V14.01,2013-05-19 01:38:00,
2013-05-18 21:39:00,62.2,50.8,29.71,South,180,2.5,2.5,66,0.00,,,0.00,VWS V14.01,2013-05-19 01:39:00,
2013-05-18 21:40:00,62.2,50.8,29.71,WSW,248,3.8,3.8,66,0.00,,,0.00,VWS V14.01,2013-05-19 01:40:00,
2013-05-18 21:41:00,62.2,50.8,29.71,SSE,158,2.9,2.9,66,0.00,,,0.00,VWS V14.01,2013-05-19 01:41:00,
2013-05-18 21:42:00,62.2,50.8,29.71,SSW,202,4.0,4.0,66,0.00,,,0.00,VWS V14.01,2013-05-19 01:42:00,
2013-05-18 21:43:00,62.2,50.8,29.71,SE,135,3.1,3.1,66,0.00,,,0.00,VWS V14.01,2013-05-19 01:43:00,
2013-05-18 21:44:00,62.2,50.8,29.71,SSW,202,1.6,1.6,66,0.00,,,0.00,VWS V14.01,2013-05-19 01:44:00,
2013-05-18 21:45:00,62.2,50.8,29.74,SSE,158,3.6,3.6,66,0.00,,,0.00,VWS V14.01,2013-05-19 01:45:00,
2013-05-18 21:46:00,62.2,51.2,29.74,SSW,202,3.8,3.8,67,0.00,,,0.00,VWS V14.01,2013-05-19 01:46:00,
2013-05-18 21:47:00,62.2,51.2,29.74,SSW,202,5.8,5.8,67,0.00,,,0.00,VWS V14.01,2013-05-19 01:47:00,
2013-05-18 21:48:00,62.2,51.2,29.74,SSW,202,1.6,1.6,67,0.00,,,0.00,VWS V14.01,2013-05-19 01:48:00,
2013-05-18 21:49:00,62.1,51.0,29.74,South,180,2.0,2.0,67,0.00,,,0.00,VWS V14.01,2013-05-19 01:49:00,
2013-05-18 21:50:00,62.1,51.0,29.74,South,180,2.5,2.5,67,0.00,,,0.00,VWS V14.01,2013-05-19 01:50:00,
2013-05-18 21:51:00,62.1,51.0,29.74,South,180,2.5,2.5,67,0.00,,,0.00,VWS V14.01,2013-05-19 01:51:00,
2013-05-18 21:52:00,62.1,51.0,29.74,SE,135,2.5,2.5,67,0.00,,,0.00,VWS V14.01,2013-05-19 01:52:00,
2013-05-18 21:53:00,62.1,51.0,29.74,SSW,202,1.6,1.6,67,0.00,,,0.00,VWS V14.01,2013-05-19 01:53:00,
2013-05-18 21:54:00,62.1,51.0,29.74,SSW,202,2.7,2.7,67,0.00,,,0.00,VWS V14.01,2013-05-19 01:54:00,
2013-05-18 21:55:00,62.1,51.0,29.74,South,180,2.9,2.9,67,0.00,,,0.00,VWS V14.01,2013-05-19 01:55:00,
2013-05-18 21:56:00,62.1,51.0,29.74,South,180,2.5,2.5,67,0.00,,,0.00,VWS V14.01,2013-05-19 01:56:00,
2013-05-18 21:57:00,62.1,51.0,29.74,SSW,202,2.9,2.9,67,0.00,,,0.00,VWS V14.01,2013-05-19 01:57:00,
2013-05-18 21:58:00,62.1,50.6,29.74,South,180,1.1,1.1,66,0.00,,,0.00,VWS V14.01,2013-05-19 01:58:00,
2013-05-18 21:59:00,62.1,50.6,29.74,SE,135,2.5,2.5,66,0.00,,,0.00,VWS V14.01,2013-05-19 01:59:00,
2013-05-18 22:00:00,62.1,51.0,29.74,SSW,202,3.1,3.1,67,0.00,,,0.00,VWS V14.01,2013-05-19 02:00:00,
2013-05-18 22:01:00,62.1,51.0,29.74,South,180,0.0,0.0,67,0.00,,,0.00,VWS V14.01,2013-05-19 02:01:00,
2013-05-18 22:02:00,62.1,51.0,29.74,South,180,1.6,1.6,67,0.00,,,0.00,VWS V14.01,2013-05-19 02:02:00,
2013-05-18 22:03:00,62.1,51.0,29.74,SE,135,2.0,2.0,67,0.00,,,0.00,VWS V14.01,2013-05-19 02:03:00,
2013-05-18 22:04:00,62.1,51.0,29.74,South,180,3.4,3.4,67,0.00,,,0.00,VWS V14.01,2013-05-19 02:04:00,
2013-05-18 22:05:00,62.1,51.0,29.74,SSE,158,2.0,2.0,67,0.00,,,0.00,VWS V14.01,2013-05-19 02:05:00,
2013-05-18 22:06:00,62.1,51.4,29.74,WSW,248,5.4,5.4,68,0.00,,,0.00,VWS V14.01,2013-05-19 02:06:00,
2013-05-18 22:07:00,61.9,50.8,29.74,SSW,202,2.9,2.9,67,0.00,,,0.00,VWS V14.01,2013-05-19 02:07:00,
2013-05-18 22:08:00,61.9,50.8,29.74,South,180,1.3,1.3,67,0.00,,,0.00,VWS V14.01,2013-05-19 02:08:00,
2013-05-18 22:09:00,61.9,50.8,29.74,South,180,1.3,1.3,67,0.00,,,0.00,VWS V14.01,2013-05-19 02:09:00,
2013-05-18 22:10:00,61.9,50.8,29.74,SSE,158,3.6,3.6,67,0.00,,,0.00,VWS V14.01,2013-05-19 02:10:00,
2013-05-18 22:11:00,61.9,50.8,29.74,SSE,158,6.5,6.5,67,0.00,,,0.00,VWS V14.01,2013-05-19 02:11:00,
2013-05-18 22:12:00,61.9,50.8,29.74,SSE,158,1.1,1.1,67,0.00,,,0.00,VWS V14.01,2013-05-19 02:12:00,
2013-05-18 22:13:00,61.9,50.8,29.74,SE,135,6.9,6.9,67,0.00,,,0.00,VWS V14.01,2013-05-19 02:13:00,
2013-05-18 22:14:00,61.9,50.8,29.74,SSW,202,2.7,2.7,67,0.00,,,0.00,VWS V14.01,2013-05-19 02:14:00,
2013-05-18 22:15:00,61.9,50.8,29.74,South,180,2.0,2.0,67,0.00,,,0.00,VWS V14.01,2013-05-19 02:15:00,
2013-05-18 22:16:00,61.9,50.8,29.74,SSE,158,1.6,1.6,67,0.00,,,0.00,VWS V14.01,2013-05-19 02:16:00,
2013-05-18 22:17:00,61.9,50.8,29.74,SE,135,0.0,0.0,67,0.00,,,0.00,VWS V14.01,2013-05-19 02:17:00,
2013-05-18 22:18:00,61.9,50.8,29.74,South,180,1.3,1.3,67,0.00,,,0.00,VWS V14.01,2013-05-19 02:18:00,
2013-05-18 22:19:00,61.9,50.8,29.74,South,180,0.0,0.0,67,0.00,,,0.00,VWS V14.01,2013-05-19 02:19:00,
2013-05-18 22:20:00,61.9,50.8,29.74,SE,135,1.6,1.6,67,0.00,,,0.00,VWS V14.01,2013-05-19 02:20:00,
2013-05-18 22:21:00,61.9,50.8,29.74,SSW,202,1.1,1.1,67,0.00,,,0.00,VWS V14.01,2013-05-19 02:21:00,
2013-05-18 22:22:00,61.9,50.8,29.74,SE,135,3.4,3.4,67,0.00,,,0.00,VWS V14.01,2013-05-19 02:22:00,
2013-05-18 22:23:00,61.9,50.8,29.74,SSW,202,2.9,2.9,67,0.00,,,0.00,VWS V14.01,2013-05-19 02:23:00,
2013-05-18 22:24:00,61.9,50.8,29.74,SSW,202,2.5,2.5,67,0.00,,,0.00,VWS V14.01,2013-05-19 02:24:00,
2013-05-18 22:25:00,61.9,50.8,29.74,SE,135,1.1,1.1,67,0.00,,,0.00,VWS V14.01,2013-05-19 02:25:00,
2013-05-18 22:26:00,61.9,50.8,29.74,WSW,248,2.0,2.0,67,0.00,,,0.00,VWS V14.01,2013-05-19 02:26:00,
2013-05-18 22:27:00,61.9,50.8,29.74,SSE,158,0.0,0.0,67,0.00,,,0.00,VWS V14.01,2013-05-19 02:27:00,
2013-05-18 22:28:00,61.9,50.8,29.74,South,180,2.2,2.2,67,0.00,,,0.00,VWS V14.01,2013-05-19 02:28:00,
2013-05-18 22:29:00,61.9,50.8,29.74,South,180,2.2,2.2,67,0.00,,,0.00,VWS V14.01,2013-05-19 02:29:00,
2013-05-18 22:30:00,61.9,50.8,29.74,SSE,158,2.0,2.0,67,0.00,,,0.00,VWS V14.01,2013-05-19 02:30:00,
2013-05-18 22:31:00,61.9,50.8,29.74,SSE,158,1.3,1.3,67,0.00,,,0.00,VWS V14.01,2013-05-19 02:31:00,
2013-05-18 22:32:00,61.9,50.8,29.74,SSW,202,0.0,0.0,67,0.00,,,0.00,VWS V14.01,2013-05-19 02:32:00,
2013-05-18 22:33:00,61.9,50.8,29.74,SSW,202,2.7,2.7,67,0.00,,,0.00,VWS V14.01,2013-05-19 02:33:00,
2013-05-18 22:34:00,61.9,50.8,29.74,SSE,158,2.9,2.9,67,0.00,,,0.00,VWS V14.01,2013-05-19 02:34:00,
2013-05-18 22:35:00,61.9,50.8,29.74,SSW,202,2.7,2.7,67,0.00,,,0.00,VWS V14.01,2013-05-19 02:35:00,
2013-05-18 22:36:00,61.9,50.8,29.74,SSE,158,2.0,2.0,67,0.00,,,0.00,VWS V14.01,2013-05-19 02:36:00,
2013-05-18 22:37:00,61.9,50.8,29.74,SE,135,0.0,0.0,67,0.00,,,0.00,VWS V14.01,2013-05-19 02:37:00,
2013-05-18 22:38:00,61.9,50.8,29.74,SE,135,0.0,0.0,67,0.00,,,0.00,VWS V14.01,2013-05-19 02:38:00,
2013-05-18 22:39:00,61.9,50.8,29.74,SE,135,0.0,0.0,67,0.00,,,0.00,VWS V14.01,2013-05-19 02:39:00,
2013-05-18 22:40:00,61.9,50.8,29.74,East,90,1.1,1.1,67,0.00,,,0.00,VWS V14.01,2013-05-19 02:40:00,
2013-05-18 22:41:00,61.9,50.8,29.74,South,180,1.1,1.1,67,0.00,,,0.00,VWS V14.01,2013-05-19 02:41:00,
2013-05-18 22:42:00,61.9,50.8,29.74,SE,135,0.0,0.0,67,0.00,,,0.00,VWS V14.01,2013-05-19 02:42:00,
2013-05-18 22:43:00,61.9,50.8,29.74,SE,135,1.6,1.6,67,0.00,,,0.00,VWS V14.01,2013-05-19 02:43:00,
2013-05-18 22:44:00,61.9,50.8,29.74,SSE,158,2.0,2.0,67,0.00,,,0.00,VWS V14.01,2013-05-19 02:44:00,
2013-05-18 22:45:00,61.9,50.8,29.71,SE,135,0.0,0.0,67,0.00,,,0.00,VWS V14.01,2013-05-19 02:45:00,
2013-05-18 22:46:00,61.9,50.8,29.71,South,180,2.0,2.0,67,0.00,,,0.00,VWS V14.01,2013-05-19 02:46:00,
2013-05-18 22:47:00,61.9,50.8,29.71,SSW,202,1.3,1.3,67,0.00,,,0.00,VWS V14.01,2013-05-19 02:47:00,
2013-05-18 22:48:00,61.9,50.8,29.71,South,180,2.7,2.7,67,0.00,,,0.00,VWS V14.01,2013-05-19 02:48:00,
2013-05-18 22:49:00,61.9,50.8,29.71,SSW,202,3.1,3.1,67,0.00,,,0.00,VWS V14.01,2013-05-19 02:49:00,
2013-05-18 22:50:00,61.9,50.8,29.71,SSE,158,2.0,2.0,67,0.00,,,0.00,VWS V14.01,2013-05-19 02:50:00,
2013-05-18 22:51:00,61.7,50.6,29.71,South,180,1.1,1.1,67,0.00,,,0.00,VWS V14.01,2013-05-19 02:51:00,
2013-05-18 22:52:00,61.7,50.6,29.71,South,180,0.0,0.0,67,0.00,,,0.00,VWS V14.01,2013-05-19 02:52:00,
2013-05-18 22:53:00,61.7,50.6,29.71,South,180,0.9,0.9,67,0.00,,,0.00,VWS V14.01,2013-05-19 02:53:00,
2013-05-18 22:54:00,61.7,51.0,29.71,South,180,2.9,2.9,68,0.00,,,0.00,VWS V14.01,2013-05-19 02:54:00,
2013-05-18 22:55:00,61.7,50.6,29.71,South,180,1.6,1.6,67,0.00,,,0.00,VWS V14.01,2013-05-19 02:55:00,
2013-05-18 22:56:00,61.7,50.6,29.71,SE,135,1.6,1.6,67,0.00,,,0.00,VWS V14.01,2013-05-19 02:56:00,
2013-05-18 22:57:00,61.7,50.6,29.71,South,180,2.7,2.7,67,0.00,,,0.00,VWS V14.01,2013-05-19 02:57:00,
2013-05-18 22:58:00,61.7,50.6,29.71,SE,135,1.6,1.6,67,0.00,,,0.00,VWS V14.01,2013-05-19 02:58:00,
2013-05-18 22:59:00,61.7,50.6,29.71,SSE,158,1.6,1.6,67,0.00,,,0.00,VWS V14.01,2013-05-19 02:59:00,
2013-05-18 23:00:00,61.7,50.6,29.71,SE,135,3.4,3.4,67,0.00,,,0.00,VWS V14.01,2013-05-19 03:00:00,
2013-05-18 23:01:00,61.7,50.6,29.71,South,180,0.0,0.0,67,0.00,,,0.00,VWS V14.01,2013-05-19 03:01:00,
2013-05-18 23:02:00,61.7,50.6,29.71,SE,135,1.3,1.3,67,0.00,,,0.00,VWS V14.01,2013-05-19 03:02:00,
2013-05-18 23:03:00,61.7,50.6,29.71,SE,135,2.7,2.7,67,0.00,,,0.00,VWS V14.01,2013-05-19 03:03:00,
2013-05-18 23:04:00,61.7,50.6,29.71,SSE,158,1.6,1.6,67,0.00,,,0.00,VWS V14.01,2013-05-19 03:04:00,
2013-05-18 23:05:00,61.7,50.6,29.71,SSW,202,3.1,3.1,67,0.00,,,0.00,VWS V14.01,2013-05-19 03:05:00,
2013-05-18 23:06:00,61.7,50.6,29.71,SSE,158,1.3,1.3,67,0.00,,,0.00,VWS V14.01,2013-05-19 03:06:00,
2013-05-18 23:07:00,61.7,50.6,29.71,SE,135,3.8,3.8,67,0.00,,,0.00,VWS V14.01,2013-05-19 03:07:00,
2013-05-18 23:08:00,61.7,50.6,29.71,SSE,158,1.3,1.3,67,0.00,,,0.00,VWS V14.01,2013-05-19 03:08:00,
2013-05-18 23:09:00,61.7,50.6,29.71,SSW,202,3.8,3.8,67,0.00,,,0.00,VWS V14.01,2013-05-19 03:09:00,
2013-05-18 23:10:00,61.7,50.6,29.71,South,180,3.6,3.6,67,0.00,,,0.00,VWS V14.01,2013-05-19 03:10:00,
2013-05-18 23:11:00,61.7,50.6,29.71,SSW,202,1.1,1.1,67,0.00,,,0.00,VWS V14.01,2013-05-19 03:11:00,
2013-05-18 23:12:00,61.7,50.6,29.71,SE,135,2.7,2.7,67,0.00,,,0.00,VWS V14.01,2013-05-19 03:12:00,
2013-05-18 23:13:00,61.7,50.6,29.71,SE,135,2.0,2.0,67,0.00,,,0.00,VWS V14.01,2013-05-19 03:13:00,
2013-05-18 23:14:00,61.7,50.6,29.71,SSE,158,4.0,4.0,67,0.00,,,0.00,VWS V14.01,2013-05-19 03:14:00,
2013-05-18 23:15:00,61.7,50.6,29.71,SW,225,2.7,2.7,67,0.00,,,0.00,VWS V14.01,2013-05-19 03:15:00,
2013-05-18 23:16:00,61.7,50.6,29.71,SSW,202,9.6,9.6,67,0.00,,,0.00,VWS V14.01,2013-05-19 03:16:00,
2013-05-18 23:17:00,61.7,50.6,29.71,South,180,4.9,4.9,67,0.00,,,0.00,VWS V14.01,2013-05-19 03:17:00,
2013-05-18 23:18:00,61.7,50.6,29.71,SE,135,2.2,2.2,67,0.00,,,0.00,VWS V14.01,2013-05-19 03:18:00,
2013-05-18 23:19:00,61.7,50.6,29.71,SE,135,2.2,2.2,67,0.00,,,0.00,VWS V14.01,2013-05-19 03:19:00,
2013-05-18 23:20:00,61.7,50.6,29.71,SSE,158,2.9,2.9,67,0.00,,,0.00,VWS V14.01,2013-05-19 03:20:00,
2013-05-18 23:21:00,61.7,50.6,29.71,South,180,1.6,1.6,67,0.00,,,0.00,VWS V14.01,2013-05-19 03:21:00,
2013-05-18 23:22:00,61.7,50.6,29.71,ENE,68,4.0,4.0,67,0.00,,,0.00,VWS V14.01,2013-05-19 03:22:00,
2013-05-18 23:23:00,61.7,50.6,29.71,SSE,158,2.5,2.5,67,0.00,,,0.00,VWS V14.01,2013-05-19 03:23:00,
2013-05-18 23:24:00,61.7,50.6,29.71,SSW,202,4.7,4.7,67,0.00,,,0.00,VWS V14.01,2013-05-19 03:24:00,
2013-05-18 23:25:00,61.7,50.6,29.71,South,180,1.3,1.3,67,0.00,,,0.00,VWS V14.01,2013-05-19 03:25:00,
2013-05-18 23:26:00,61.7,50.6,29.71,SSE,158,2.5,2.5,67,0.00,,,0.00,VWS V14.01,2013-05-19 03:26:00,
2013-05-18 23:27:00,61.7,50.6,29.71,SE,135,2.9,2.9,67,0.00,,,0.00,VWS V14.01,2013-05-19 03:27:00,
2013-05-18 23:28:00,61.5,50.5,29.71,SSW,202,2.9,2.9,67,0.00,,,0.00,VWS V14.01,2013-05-19 03:28:00,
2013-05-18 23:29:00,61.5,50.5,29.71,South,180,2.7,2.7,67,0.00,,,0.00,VWS V14.01,2013-05-19 03:29:00,
2013-05-18 23:30:00,61.5,50.9,29.71,SSW,202,1.3,1.3,68,0.00,,,0.00,VWS V14.01,2013-05-19 03:30:00,
2013-05-18 23:31:00,61.5,50.9,29.71,South,180,5.4,5.4,68,0.00,,,0.00,VWS V14.01,2013-05-19 03:31:00,
2013-05-18 23:32:00,61.5,50.9,29.71,SSE,158,3.6,3.6,68,0.00,,,0.00,VWS V14.01,2013-05-19 03:32:00,
2013-05-18 23:33:00,61.5,50.9,29.71,SSE,158,1.6,1.6,68,0.00,,,0.00,VWS V14.01,2013-05-19 03:33:00,
2013-05-18 23:34:00,61.5,50.9,29.71,SSW,202,3.8,3.8,68,0.00,,,0.00,VWS V14.01,2013-05-19 03:34:00,
2013-05-18 23:35:00,61.5,50.9,29.71,SSE,158,2.2,2.2,68,0.00,,,0.00,VWS V14.01,2013-05-19 03:35:00,
2013-05-18 23:36:00,61.5,50.9,29.71,SE,135,2.5,2.5,68,0.00,,,0.00,VWS V14.01,2013-05-19 03:36:00,
2013-05-18 23:37:00,61.5,50.9,29.71,South,180,2.5,2.5,68,0.00,,,0.00,VWS V14.01,2013-05-19 03:37:00,
2013-05-18 23:38:00,61.5,50.9,29.71,SSE,158,3.1,3.1,68,0.00,,,0.00,VWS V14.01,2013-05-19 03:38:00,
2013-05-18 23:39:00,61.5,50.9,29.71,SSE,158,1.1,1.1,68,0.00,,,0.00,VWS V14.01,2013-05-19 03:39:00,
2013-05-18 23:40:00,61.5,51.3,29.71,SSW,202,4.0,4.0,69,0.00,,,0.00,VWS V14.01,2013-05-19 03:40:00,
2013-05-18 23:41:00,61.3,51.1,29.71,South,180,4.7,4.7,69,0.00,,,0.00,VWS V14.01,2013-05-19 03:41:00,
2013-05-18 23:42:00,61.3,51.1,29.71,SSW,202,4.7,4.7,69,0.00,,,0.00,VWS V14.01,2013-05-19 03:42:00,
2013-05-18 23:43:00,61.3,50.7,29.71,SE,135,2.7,2.7,68,0.00,,,0.00,VWS V14.01,2013-05-19 03:43:00,
2013-05-18 23:44:00,61.3,50.7,29.71,SSE,158,3.6,3.6,68,0.00,,,0.00,VWS V14.01,2013-05-19 03:44:00,
2013-05-18 23:45:00,61.3,50.7,29.71,SSE,158,4.3,4.3,68,0.00,,,0.00,VWS V14.01,2013-05-19 03:45:00,
2013-05-18 23:46:00,61.3,51.1,29.71,SSE,158,5.6,5.6,69,0.00,,,0.00,VWS V14.01,2013-05-19 03:46:00,
2013-05-18 23:47:00,61.3,51.1,29.71,SE,135,4.3,4.3,69,0.00,,,0.00,VWS V14.01,2013-05-19 03:47:00,
2013-05-18 23:48:00,61.3,51.1,29.71,SSW,202,3.6,3.6,69,0.00,,,0.00,VWS V14.01,2013-05-19 03:48:00,
2013-05-18 23:49:00,61.3,51.1,29.71,SW,225,3.1,3.1,69,0.00,,,0.00,VWS V14.01,2013-05-19 03:49:00,
2013-05-18 23:50:00,61.3,51.1,29.71,SSW,202,2.9,2.9,69,0.00,,,0.00,VWS V14.01,2013-05-19 03:50:00,
2013-05-18 23:51:00,61.3,51.1,29.71,SSW,202,2.0,2.0,69,0.00,,,0.00,VWS V14.01,2013-05-19 03:51:00,
2013-05-18 23:52:00,61.3,51.1,29.71,South,180,2.0,2.0,69,0.00,,,0.00,VWS V14.01,2013-05-19 03:52:00,
2013-05-18 23:53:00,61.3,51.1,29.71,SSW,202,2.5,2.5,69,0.00,,,0.00,VWS V14.01,2013-05-19 03:53:00,
2013-05-18 23:54:00,61.3,51.1,29.71,SE,135,3.6,3.6,69,0.00,,,0.00,VWS V14.01,2013-05-19 03:54:00,
2013-05-18 23:55:00,61.3,51.1,29.71,South,180,4.3,4.3,69,0.00,,,0.00,VWS V14.01,2013-05-19 03:55:00,
2013-05-18 23:56:00,61.3,51.1,29.71,SE,135,2.9,2.9,69,0.00,,,0.00,VWS V14.01,2013-05-19 03:56:00,
2013-05-18 23:57:00,61.3,51.1,29.71,SSE,158,2.0,2.0,69,0.00,,,0.00,VWS V14.01,2013-05-19 03:57:00,
2013-05-18 23:58:00,61.2,50.9,29.71,SW,225,2.5,2.5,69,0.00,,,0.00,VWS V14.01,2013-05-19 03:58:00,
2013-05-18 23:59:00,61.2,50.9,29.71,SSW,202,2.0,2.0,69,0.00,,,0.00,VWS V14.01,2013-05-19 03:59:00,